Darstellungsparameter: Aktuell verwendete Einstellungen:
Skalierung der Graphiken ... ?
xyx+y,   Skalierungsfaktor:      Skalierung: Modus: x, Faktor: 1
Darstellungszeitraum ... ?
Vom - - bis: - -   Zeitraum: 13.02.2020 - 12.05.2020
Min/Max/Avg-Anzeige ... ?
Zeige MMA aktuell
Zeige MMA Monat
Zeige MMA alles
Zeige --A aktuell
Zeige --A Monat
Zeige --A alles
Keine MMA-Anzeige
MMA:
Average (ber die Originaldaten)
MMA-Basis: 13.02.2020 - 12.05.2020
Quicknavigation für Darstellung... ?
Tage:      1T, 2T, 3T, 5T -1T -2T -3T -5T +1T +2T +3T +5T
Wochen: 1W, 2W, 3W -1W -2W -3W +1W +2W +3W
Monate: 1M, 3M, 6M -1M -3M -6M +1M +3M +6M
Jahre:    1J, 3J, 5J, 10J -1J -3J -5J -10J +1J +3J +5J +10J
Nutze für die Darstellung ... ?
Originaldaten oder Mittelwerte auf ...
Stundenbasis Tagesbasis Wochenbasis
Monatsbasis Jahresbasis      Datenbasis: Original-Daten
Darstellen als:
Statistik (Auto) Statistik J:M      Darstellung:
Zur Graphik,    zurück zur Übersicht aller Sensoren.
 
Tabellarische Datenbersicht: ?
 
Sensor: Nr:Datum:Temp:Abs-Feuchte:Windchill:Wind:
Aussen-T/F 1 13-02-2020 00:00:00 2.6 C 5.38 g/m*3 2.6 C 4.8 km/h
2 13-02-2020 00:05:00 2.6 C 5.38 g/m*3 2.6 C 3.2 km/h
3 13-02-2020 00:10:00 2.5 C 5.35 g/m*3 2.5 C 3.2 km/h
4 13-02-2020 00:15:00 2.5 C 5.35 g/m*3 2.5 C 3.2 km/h
5 13-02-2020 00:20:00 2.5 C 5.35 g/m*3 2.5 C 3.2 km/h
6 13-02-2020 00:25:00 2.4 C 5.31 g/m*3 2.4 C 0 km/h
7 13-02-2020 00:30:00 2.4 C 5.31 g/m*3 2.4 C 0 km/h
8 13-02-2020 00:35:00 2.4 C 5.31 g/m*3 2.4 C 1.6 km/h
9 13-02-2020 00:40:00 2.4 C 5.31 g/m*3 2.4 C 3.2 km/h
10 13-02-2020 00:45:00 2.4 C 5.31 g/m*3 2.4 C 4.8 km/h
11 13-02-2020 00:50:00 2.4 C 5.31 g/m*3 2.4 C 4.8 km/h
12 13-02-2020 00:55:00 2.4 C 5.31 g/m*3 2.4 C 1.6 km/h
13 13-02-2020 01:00:00 2.5 C 5.4 g/m*3 2.5 C 3.2 km/h
14 13-02-2020 01:05:00 2.5 C 5.35 g/m*3 2.5 C 1.6 km/h
15 13-02-2020 01:10:00 2.5 C 5.35 g/m*3 2.5 C 0 km/h
16 13-02-2020 01:15:00 2.5 C 5.35 g/m*3 2.5 C 0 km/h
17 13-02-2020 01:20:00 2.4 C 5.31 g/m*3 2.4 C 0 km/h
18 13-02-2020 01:25:00 2.4 C 5.31 g/m*3 2.4 C 0 km/h
19 13-02-2020 01:30:00 2.4 C 5.31 g/m*3 2.4 C 0 km/h
20 13-02-2020 01:35:00 2.4 C 5.31 g/m*3 2.4 C 0 km/h
21 13-02-2020 01:40:00 2.4 C 5.31 g/m*3 2.4 C 0 km/h
22 13-02-2020 01:45:00 2.3 C 5.27 g/m*3 2.3 C 0 km/h
23 13-02-2020 01:50:00 2.2 C 5.24 g/m*3 2.2 C 0 km/h
24 13-02-2020 01:55:00 2.2 C 5.24 g/m*3 2.2 C 0 km/h
25 13-02-2020 02:00:00 2.2 C 5.24 g/m*3 2.2 C 1.6 km/h
Sensor: Nr:Datum:Temp:Abs-Feuchte:Windchill:Wind:
Aussen-T/F 26 13-02-2020 02:05:00 2.1 C 5.2 g/m*3 2.1 C 3.2 km/h
27 13-02-2020 02:10:00 1.9 C 5.13 g/m*3 1.9 C 3.2 km/h
28 13-02-2020 02:15:00 1.8 C 5.1 g/m*3 1.8 C 1.6 km/h
29 13-02-2020 02:20:00 1.8 C 5.1 g/m*3 1.8 C 0 km/h
30 13-02-2020 02:25:00 1.7 C 5.06 g/m*3 1.7 C 1.6 km/h
31 13-02-2020 02:30:00 1.6 C 5.03 g/m*3 1.6 C 0 km/h
32 13-02-2020 02:35:00 1.5 C 4.99 g/m*3 1.5 C 1.6 km/h
33 13-02-2020 02:40:00 1.4 C 4.96 g/m*3 1.4 C 3.2 km/h
34 13-02-2020 02:45:00 1.3 C 4.93 g/m*3 1.3 C 0 km/h
35 13-02-2020 02:50:00 1.3 C 4.93 g/m*3 1.3 C 0 km/h
36 13-02-2020 02:55:00 1.2 C 4.89 g/m*3 1.2 C 1.6 km/h
37 13-02-2020 03:00:00 1.1 C 4.86 g/m*3 1.1 C 1.6 km/h
38 13-02-2020 03:05:00 1.1 C 4.86 g/m*3 1.1 C 1.6 km/h
39 13-02-2020 03:10:00 1.1 C 4.91 g/m*3 1.1 C 1.6 km/h
40 13-02-2020 03:15:00 1 C 4.88 g/m*3 1 C 1.6 km/h
41 13-02-2020 03:20:00 1 C 4.88 g/m*3 1 C 1.6 km/h
42 13-02-2020 03:25:00 1 C 4.88 g/m*3 1 C 1.6 km/h
43 13-02-2020 03:30:00 1 C 4.88 g/m*3 1 C 1.6 km/h
44 13-02-2020 03:35:00 1 C 4.88 g/m*3 1 C 0 km/h
45 13-02-2020 03:40:00 0.9 C 4.85 g/m*3 0.9 C 0 km/h
46 13-02-2020 03:45:00 0.9 C 4.85 g/m*3 0.9 C 0 km/h
47 13-02-2020 03:50:00 0.8 C 4.81 g/m*3 0.8 C 1.6 km/h
48 13-02-2020 03:55:00 0.8 C 4.81 g/m*3 0.8 C 1.6 km/h
49 13-02-2020 04:00:00 0.7 C 4.78 g/m*3 0.7 C 0 km/h
50 13-02-2020 04:05:00 0.7 C 4.78 g/m*3 0.7 C 0 km/h
Sensor: Nr:Datum:Temp:Abs-Feuchte:Windchill:Wind:
Aussen-T/F 51 13-02-2020 04:10:00 0.7 C 4.78 g/m*3 0.7 C 0 km/h
52 13-02-2020 04:15:00 0.6 C 4.75 g/m*3 0.6 C 0 km/h
53 13-02-2020 04:20:00 0.6 C 4.75 g/m*3 0.6 C 0 km/h
54 13-02-2020 04:25:00 0.6 C 4.8 g/m*3 0.6 C 0 km/h
55 13-02-2020 04:30:00 0.6 C 4.8 g/m*3 0.6 C 0 km/h
56 13-02-2020 04:35:00 0.6 C 4.8 g/m*3 0.6 C 0 km/h
57 13-02-2020 04:40:00 0.6 C 4.75 g/m*3 0.6 C 0 km/h
58 13-02-2020 04:45:00 0.5 C 4.71 g/m*3 0.5 C 0 km/h
59 13-02-2020 04:50:00 0.5 C 4.71 g/m*3 0.5 C 0 km/h
60 13-02-2020 04:55:00 0.5 C 4.76 g/m*3 0.5 C 0 km/h
61 13-02-2020 05:00:00 0.6 C 4.8 g/m*3 0.6 C 0 km/h
62 13-02-2020 05:05:00 0.5 C 4.76 g/m*3 0.5 C 0 km/h
63 13-02-2020 05:10:00 0.4 C 4.73 g/m*3 0.4 C 0 km/h
64 13-02-2020 05:15:00 0.3 C 4.7 g/m*3 0.3 C 0 km/h
65 13-02-2020 05:20:00 0.2 C 4.62 g/m*3 0.2 C 0 km/h
66 13-02-2020 05:25:00 0.1 C 4.59 g/m*3 0.1 C 0 km/h
67 13-02-2020 05:30:00 0 C 4.6 g/m*3 0 C 0 km/h
68 13-02-2020 05:35:00 -0.1 C 4.57 g/m*3 -0.1 C 0 km/h
69 13-02-2020 05:40:00 -0.1 C 4.57 g/m*3 -0.1 C 0 km/h
70 13-02-2020 05:45:00 -0.1 C 4.57 g/m*3 -0.1 C 0 km/h
71 13-02-2020 05:50:00 0 C 4.6 g/m*3 0 C 0 km/h
72 13-02-2020 05:55:00 0.1 C 4.63 g/m*3 0.1 C 0 km/h
73 13-02-2020 06:00:00 0.2 C 4.67 g/m*3 0.2 C 0 km/h
74 13-02-2020 06:05:00 0.3 C 4.7 g/m*3 0.3 C 0 km/h
75 13-02-2020 06:10:00 0.4 C 4.73 g/m*3 0.4 C 0 km/h
Sensor: Nr:Datum:Temp:Abs-Feuchte:Windchill:Wind:
Aussen-T/F 76 13-02-2020 06:15:00 0.5 C 4.76 g/m*3 0.5 C 0 km/h
77 13-02-2020 06:20:00 0.6 C 4.85 g/m*3 0.6 C 0 km/h
78 13-02-2020 06:25:00 0.6 C 4.85 g/m*3 0.6 C 0 km/h
79 13-02-2020 06:30:00 0.7 C 4.88 g/m*3 0.7 C 0 km/h
80 13-02-2020 06:35:00 0.7 C 4.88 g/m*3 0.7 C 0 km/h
81 13-02-2020 06:40:00 0.7 C 4.88 g/m*3 0.7 C 0 km/h
82 13-02-2020 06:45:00 0.7 C 4.88 g/m*3 0.7 C 0 km/h
83 13-02-2020 06:50:00 0.7 C 4.88 g/m*3 0.7 C 3.2 km/h
84 13-02-2020 06:55:00 0.7 C 4.88 g/m*3 0.7 C 0 km/h
85 13-02-2020 07:00:00 0.7 C 4.88 g/m*3 0.7 C 1.6 km/h
86 13-02-2020 07:05:00 0.7 C 4.88 g/m*3 0.7 C 0 km/h
87 13-02-2020 07:10:00 0.6 C 4.8 g/m*3 0.6 C 0 km/h
88 13-02-2020 07:15:00 0.6 C 4.85 g/m*3 0.6 C 0 km/h
89 13-02-2020 07:20:00 0.6 C 4.85 g/m*3 0.6 C 0 km/h
90 13-02-2020 07:25:00 0.7 C 4.88 g/m*3 0.7 C 0 km/h
91 13-02-2020 07:30:00 0.8 C 4.91 g/m*3 0.8 C 0 km/h
92 13-02-2020 07:35:00 0.9 C 4.95 g/m*3 0.9 C 0 km/h
93 13-02-2020 07:40:00 1 C 4.98 g/m*3 1 C 1.6 km/h
94 13-02-2020 07:45:00 1.1 C 5.02 g/m*3 1.1 C 0 km/h
95 13-02-2020 07:50:00 1.2 C 5.05 g/m*3 1.2 C 3.2 km/h
96 13-02-2020 07:55:00 1.3 C 5.09 g/m*3 1.3 C 3.2 km/h
97 13-02-2020 08:00:00 1.3 C 5.09 g/m*3 1.3 C 0 km/h
98 13-02-2020 08:05:00 1.5 C 5.16 g/m*3 1.5 C 1.6 km/h
99 13-02-2020 08:10:00 1.6 C 5.19 g/m*3 1.6 C 0 km/h
100 13-02-2020 08:15:00 1.7 C 5.23 g/m*3 1.7 C 1.6 km/h
Sensor: Nr:Datum:Temp:Abs-Feuchte:Windchill:Wind:
Aussen-T/F 101 13-02-2020 08:20:00 1.8 C 5.26 g/m*3 1.8 C 0 km/h
102 13-02-2020 08:25:00 1.9 C 5.3 g/m*3 1.9 C 1.6 km/h
103 13-02-2020 08:30:00 2 C 5.33 g/m*3 2 C 0 km/h
104 13-02-2020 08:35:00 2.1 C 5.37 g/m*3 2.1 C 1.6 km/h
105 13-02-2020 08:40:00 2.2 C 5.41 g/m*3 2.2 C 1.6 km/h
106 13-02-2020 08:45:00 2.4 C 5.48 g/m*3 0.59 C 6.4 km/h
107 13-02-2020 08:50:00 2.7 C 5.59 g/m*3 0.94 C 6.4 km/h
108 13-02-2020 08:55:00 2.8 C 5.63 g/m*3 2.8 C 0 km/h
109 13-02-2020 09:00:00 2.8 C 5.63 g/m*3 2.8 C 3.2 km/h
110 13-02-2020 09:05:00 2.9 C 5.67 g/m*3 2.9 C 3.2 km/h
111 13-02-2020 09:10:00 2.9 C 5.67 g/m*3 2.9 C 3.2 km/h
112 13-02-2020 09:15:00 3 C 5.71 g/m*3 3 C 1.6 km/h
113 13-02-2020 09:20:00 3.1 C 5.75 g/m*3 1.4 C 6.4 km/h
114 13-02-2020 09:25:00 3.2 C 5.72 g/m*3 3.2 C 4.8 km/h
115 13-02-2020 09:30:00 3.3 C 5.76 g/m*3 0.34 C 11.3 km/h
116 13-02-2020 09:35:00 3.4 C 5.74 g/m*3 3.4 C 4.8 km/h
117 13-02-2020 09:40:00 3.5 C 5.78 g/m*3 3.5 C 1.6 km/h
118 13-02-2020 09:45:00 3.6 C 5.76 g/m*3 1.98 C 6.4 km/h
119 13-02-2020 09:50:00 3.8 C 5.83 g/m*3 3.8 C 4.8 km/h
120 13-02-2020 09:55:00 3.9 C 5.81 g/m*3 1.82 C 8.1 km/h
121 13-02-2020 10:00:00 4 C 5.85 g/m*3 2.44 C 6.4 km/h
122 13-02-2020 10:05:00 4.1 C 5.82 g/m*3 4.1 C 3.2 km/h
123 13-02-2020 10:10:00 4.2 C 5.86 g/m*3 4.2 C 3.2 km/h
124 13-02-2020 10:15:00 4.3 C 5.84 g/m*3 4.3 C 4.8 km/h
125 13-02-2020 10:20:00 4.4 C 5.81 g/m*3 1.67 C 11.3 km/h
Sensor: Nr:Datum:Temp:Abs-Feuchte:Windchill:Wind:
Aussen-T/F 126 13-02-2020 10:25:00 4.5 C 5.85 g/m*3 2.13 C 9.7 km/h
127 13-02-2020 10:30:00 4.6 C 5.76 g/m*3 2.64 C 8.1 km/h
128 13-02-2020 10:35:00 4.8 C 5.77 g/m*3 2.15 C 11.3 km/h
129 13-02-2020 10:40:00 4.9 C 5.74 g/m*3 1.97 C 12.9 km/h
130 13-02-2020 10:45:00 5.1 C 5.81 g/m*3 5.1 C 4.8 km/h
131 13-02-2020 10:50:00 5.2 C 5.85 g/m*3 3.34 C 8.1 km/h
132 13-02-2020 10:55:00 5.3 C 5.82 g/m*3 2.46 C 12.9 km/h
133 13-02-2020 11:00:00 5.3 C 5.82 g/m*3 2.46 C 12.9 km/h
134 13-02-2020 11:05:00 5.4 C 5.79 g/m*3 3.2 C 9.7 km/h
135 13-02-2020 11:10:00 5.6 C 5.87 g/m*3 4.29 C 6.4 km/h
136 13-02-2020 11:15:00 5.7 C 5.84 g/m*3 4.4 C 6.4 km/h
137 13-02-2020 11:20:00 5.8 C 5.8 g/m*3 3.36 C 11.3 km/h
138 13-02-2020 11:25:00 5.9 C 5.84 g/m*3 5.9 C 4.8 km/h
139 13-02-2020 11:30:00 6.1 C 5.77 g/m*3 4.86 C 6.4 km/h
140 13-02-2020 11:35:00 6.3 C 5.85 g/m*3 3.96 C 11.3 km/h
141 13-02-2020 11:40:00 6.4 C 5.81 g/m*3 4.39 C 9.7 km/h
142 13-02-2020 11:45:00 6.4 C 5.74 g/m*3 4.08 C 11.3 km/h
143 13-02-2020 11:50:00 6.5 C 5.77 g/m*3 5.33 C 6.4 km/h
144 13-02-2020 11:55:00 6.6 C 5.81 g/m*3 4.63 C 9.7 km/h
145 13-02-2020 12:00:00 6.7 C 5.85 g/m*3 3.92 C 14.5 km/h
146 13-02-2020 12:05:00 6.8 C 5.89 g/m*3 3.82 C 16.1 km/h
147 13-02-2020 12:10:00 6.8 C 5.97 g/m*3 3.82 C 16.1 km/h
148 13-02-2020 12:15:00 6.7 C 6.08 g/m*3 5.11 C 8.1 km/h
149 13-02-2020 12:20:00 6.4 C 6.04 g/m*3 5.21 C 6.4 km/h
150 13-02-2020 12:25:00 6.3 C 6.07 g/m*3 4.64 C 8.1 km/h
Sensor: Nr:Datum:Temp:Abs-Feuchte:Windchill:Wind:
Aussen-T/F 151 13-02-2020 12:30:00 6.2 C 6.03 g/m*3 2.86 C 17.7 km/h
152 13-02-2020 12:35:00 6.1 C 6.06 g/m*3 3.72 C 11.3 km/h
153 13-02-2020 12:40:00 6 C 6.1 g/m*3 3.31 C 12.9 km/h
154 13-02-2020 12:45:00 5.9 C 6.13 g/m*3 3.48 C 11.3 km/h
155 13-02-2020 12:50:00 5.8 C 6.16 g/m*3 4.05 C 8.1 km/h
156 13-02-2020 12:55:00 5.8 C 6.23 g/m*3 4.05 C 8.1 km/h
157 13-02-2020 13:00:00 5.7 C 6.26 g/m*3 3.56 C 9.7 km/h
158 13-02-2020 13:05:00 5.6 C 6.22 g/m*3 4.29 C 6.4 km/h
159 13-02-2020 13:10:00 5.5 C 6.25 g/m*3 4.17 C 6.4 km/h
160 13-02-2020 13:15:00 5.4 C 6.21 g/m*3 5.4 C 4.8 km/h
161 13-02-2020 13:20:00 5.4 C 6.28 g/m*3 5.4 C 4.8 km/h
162 13-02-2020 13:25:00 5.3 C 6.24 g/m*3 5.3 C 0 km/h
163 13-02-2020 13:30:00 5.4 C 6.35 g/m*3 5.4 C 3.2 km/h
164 13-02-2020 13:35:00 5.3 C 6.31 g/m*3 5.3 C 1.6 km/h
165 13-02-2020 13:40:00 5.3 C 6.31 g/m*3 3.94 C 6.4 km/h
166 13-02-2020 13:45:00 5.3 C 6.31 g/m*3 5.3 C 4.8 km/h
167 13-02-2020 13:50:00 5.3 C 6.38 g/m*3 5.3 C 1.6 km/h
168 13-02-2020 13:55:00 5.3 C 6.38 g/m*3 5.3 C 3.2 km/h
169 13-02-2020 14:00:00 5.4 C 6.42 g/m*3 5.4 C 1.6 km/h
170 13-02-2020 14:05:00 5.4 C 6.42 g/m*3 5.4 C 4.8 km/h
171 13-02-2020 14:10:00 5.3 C 6.31 g/m*3 3.94 C 6.4 km/h
172 13-02-2020 14:15:00 5.2 C 6.33 g/m*3 3.82 C 6.4 km/h
173 13-02-2020 14:20:00 5.2 C 6.33 g/m*3 5.2 C 3.2 km/h
174 13-02-2020 14:25:00 5.2 C 6.4 g/m*3 5.2 C 0 km/h
175 13-02-2020 14:30:00 5.3 C 6.45 g/m*3 5.3 C 1.6 km/h
Sensor: Nr:Datum:Temp:Abs-Feuchte:Windchill:Wind:
Aussen-T/F 176 13-02-2020 14:35:00 5.4 C 6.49 g/m*3 5.4 C 0 km/h
177 13-02-2020 14:40:00 5.4 C 6.49 g/m*3 5.4 C 0 km/h
178 13-02-2020 14:45:00 5.4 C 6.49 g/m*3 5.4 C 3.2 km/h
179 13-02-2020 14:50:00 5.5 C 6.53 g/m*3 4.17 C 6.4 km/h
180 13-02-2020 14:55:00 5.6 C 6.57 g/m*3 5.6 C 4.8 km/h
181 13-02-2020 15:00:00 5.6 C 6.57 g/m*3 5.6 C 4.8 km/h
182 13-02-2020 15:05:00 5.5 C 6.53 g/m*3 5.5 C 1.6 km/h
183 13-02-2020 15:10:00 5.6 C 6.65 g/m*3 5.6 C 1.6 km/h
184 13-02-2020 15:15:00 5.6 C 6.65 g/m*3 5.6 C 0 km/h
185 13-02-2020 15:20:00 5.7 C 6.69 g/m*3 5.7 C 3.2 km/h
186 13-02-2020 15:25:00 5.8 C 6.73 g/m*3 5.8 C 3.2 km/h
187 13-02-2020 15:30:00 5.8 C 6.81 g/m*3 5.8 C 0 km/h
188 13-02-2020 15:35:00 5.9 C 6.85 g/m*3 5.9 C 0 km/h
189 13-02-2020 15:40:00 5.9 C 6.85 g/m*3 5.9 C 0 km/h
190 13-02-2020 15:45:00 6 C 6.9 g/m*3 6 C 0 km/h
191 13-02-2020 15:50:00 6.1 C 6.94 g/m*3 6.1 C 0 km/h
192 13-02-2020 15:55:00 6.2 C 6.99 g/m*3 6.2 C 0 km/h
193 13-02-2020 16:00:00 6.3 C 7.03 g/m*3 6.3 C 3.2 km/h
194 13-02-2020 16:05:00 6.3 C 7.03 g/m*3 6.3 C 3.2 km/h
195 13-02-2020 16:10:00 6.3 C 6.96 g/m*3 6.3 C 0 km/h
196 13-02-2020 16:15:00 6.4 C 7 g/m*3 6.4 C 0 km/h
197 13-02-2020 16:20:00 6.6 C 7.17 g/m*3 6.6 C 1.6 km/h
198 13-02-2020 16:25:00 6.7 C 7.14 g/m*3 6.7 C 0 km/h
199 13-02-2020 16:30:00 6.7 C 7.14 g/m*3 6.7 C 1.6 km/h
200 13-02-2020 16:35:00 6.8 C 7.19 g/m*3 6.8 C 0 km/h
Sensor: Nr:Datum:Temp:Abs-Feuchte:Windchill:Wind:
Aussen-T/F 201 13-02-2020 16:40:00 6.8 C 7.19 g/m*3 6.8 C 0 km/h
202 13-02-2020 16:45:00 6.8 C 7.19 g/m*3 6.8 C 1.6 km/h
203 13-02-2020 16:50:00 6.7 C 7.14 g/m*3 6.7 C 1.6 km/h
204 13-02-2020 16:55:00 6.7 C 7.14 g/m*3 6.7 C 0 km/h
205 13-02-2020 17:00:00 6.6 C 7.1 g/m*3 6.6 C 0 km/h
206 13-02-2020 17:05:00 6.6 C 7.1 g/m*3 6.6 C 0 km/h
207 13-02-2020 17:10:00 6.6 C 7.1 g/m*3 6.6 C 0 km/h
208 13-02-2020 17:15:00 6.5 C 7.05 g/m*3 6.5 C 0 km/h
209 13-02-2020 17:20:00 6.4 C 7 g/m*3 6.4 C 0 km/h
210 13-02-2020 17:25:00 6.4 C 7 g/m*3 6.4 C 1.6 km/h
211 13-02-2020 17:30:00 6.4 C 7 g/m*3 6.4 C 0 km/h
212 13-02-2020 17:35:00 6.3 C 6.96 g/m*3 6.3 C 0 km/h
213 13-02-2020 17:40:00 6.2 C 6.91 g/m*3 6.2 C 0 km/h
214 13-02-2020 17:45:00 6.1 C 6.87 g/m*3 6.1 C 1.6 km/h
215 13-02-2020 17:50:00 5.9 C 6.78 g/m*3 5.9 C 1.6 km/h
216 13-02-2020 17:55:00 5.8 C 6.73 g/m*3 5.8 C 1.6 km/h
217 13-02-2020 18:00:00 5.7 C 6.69 g/m*3 5.7 C 1.6 km/h
218 13-02-2020 18:05:00 5.6 C 6.65 g/m*3 5.6 C 1.6 km/h
219 13-02-2020 18:10:00 5.4 C 6.56 g/m*3 5.4 C 1.6 km/h
220 13-02-2020 18:15:00 5.4 C 6.56 g/m*3 5.4 C 3.2 km/h
221 13-02-2020 18:20:00 5.4 C 6.56 g/m*3 5.4 C 0 km/h
222 13-02-2020 18:25:00 5.3 C 6.58 g/m*3 5.3 C 0 km/h
223 13-02-2020 18:30:00 5.3 C 6.58 g/m*3 5.3 C 1.6 km/h
224 13-02-2020 18:35:00 5.3 C 6.58 g/m*3 5.3 C 1.6 km/h
225 13-02-2020 18:40:00 5.4 C 6.63 g/m*3 5.4 C 0 km/h
Sensor: Nr:Datum:Temp:Abs-Feuchte:Windchill:Wind:
Aussen-T/F 226 13-02-2020 18:45:00 5.4 C 6.63 g/m*3 5.4 C 0 km/h
227 13-02-2020 18:50:00 5.4 C 6.63 g/m*3 5.4 C 3.2 km/h
228 13-02-2020 18:55:00 5.4 C 6.63 g/m*3 5.4 C 1.6 km/h
229 13-02-2020 19:00:00 5.4 C 6.63 g/m*3 5.4 C 0 km/h
230 13-02-2020 19:05:00 5.3 C 6.58 g/m*3 5.3 C 4.8 km/h
231 13-02-2020 19:10:00 5.3 C 6.58 g/m*3 5.3 C 0 km/h
232 13-02-2020 19:15:00 5.3 C 6.58 g/m*3 5.3 C 0 km/h
233 13-02-2020 19:20:00 5.3 C 6.58 g/m*3 5.3 C 1.6 km/h
234 13-02-2020 19:25:00 5.2 C 6.54 g/m*3 5.2 C 1.6 km/h
235 13-02-2020 19:30:00 5.2 C 6.54 g/m*3 5.2 C 1.6 km/h
236 13-02-2020 19:35:00 5.1 C 6.5 g/m*3 5.1 C 0 km/h
237 13-02-2020 19:40:00 5.1 C 6.5 g/m*3 5.1 C 1.6 km/h
238 13-02-2020 19:45:00 5.1 C 6.5 g/m*3 5.1 C 0 km/h
239 13-02-2020 19:50:00 5.1 C 6.5 g/m*3 5.1 C 0 km/h
240 13-02-2020 19:55:00 5.2 C 6.54 g/m*3 5.2 C 0 km/h
241 13-02-2020 20:00:00 5.2 C 6.54 g/m*3 5.2 C 1.6 km/h
242 13-02-2020 20:05:00 5.3 C 6.58 g/m*3 5.3 C 0 km/h
243 13-02-2020 20:10:00 5.3 C 6.58 g/m*3 5.3 C 0 km/h
244 13-02-2020 20:15:00 5.3 C 6.58 g/m*3 5.3 C 0 km/h
245 13-02-2020 20:20:00 5.4 C 6.63 g/m*3 5.4 C 0 km/h
246 13-02-2020 20:25:00 5.4 C 6.63 g/m*3 5.4 C 1.6 km/h
247 13-02-2020 20:30:00 5.4 C 6.63 g/m*3 5.4 C 1.6 km/h
248 13-02-2020 20:35:00 5.4 C 6.63 g/m*3 5.4 C 0 km/h
249 13-02-2020 20:40:00 5.4 C 6.7 g/m*3 5.4 C 4.8 km/h
250 13-02-2020 20:45:00 5.4 C 6.7 g/m*3 5.4 C 1.6 km/h
Sensor: Nr:Datum:Temp:Abs-Feuchte:Windchill:Wind:
Aussen-T/F 251 13-02-2020 20:50:00 5.5 C 6.74 g/m*3 5.5 C 1.6 km/h
252 13-02-2020 20:55:00 5.5 C 6.74 g/m*3 5.5 C 0 km/h
253 13-02-2020 21:00:00 5.6 C 6.79 g/m*3 5.6 C 3.2 km/h
254 13-02-2020 21:05:00 5.6 C 6.79 g/m*3 5.6 C 1.6 km/h
255 13-02-2020 21:10:00 5.6 C 6.79 g/m*3 5.6 C 0 km/h
256 13-02-2020 21:15:00 5.6 C 6.79 g/m*3 5.6 C 0 km/h
257 13-02-2020 21:20:00 5.7 C 6.83 g/m*3 5.7 C 0 km/h
258 13-02-2020 21:25:00 5.6 C 6.79 g/m*3 5.6 C 0 km/h
259 13-02-2020 21:30:00 5.6 C 6.79 g/m*3 5.6 C 0 km/h
260 13-02-2020 21:35:00 5.6 C 6.79 g/m*3 5.6 C 0 km/h
261 13-02-2020 21:40:00 5.7 C 6.83 g/m*3 5.7 C 0 km/h
262 13-02-2020 21:45:00 5.6 C 6.79 g/m*3 5.6 C 0 km/h
263 13-02-2020 21:50:00 5.7 C 6.83 g/m*3 5.7 C 0 km/h
264 13-02-2020 21:55:00 5.7 C 6.83 g/m*3 5.7 C 1.6 km/h
265 13-02-2020 22:00:00 5.8 C 6.88 g/m*3 5.8 C 3.2 km/h
266 13-02-2020 22:05:00 5.9 C 6.92 g/m*3 5.9 C 4.8 km/h
267 13-02-2020 22:10:00 6.2 C 7.13 g/m*3 3.84 C 11.3 km/h
268 13-02-2020 22:15:00 6.3 C 7.18 g/m*3 3.43 C 14.5 km/h
269 13-02-2020 22:20:00 6.4 C 7.23 g/m*3 5.21 C 6.4 km/h
270 13-02-2020 22:25:00 6.4 C 7.15 g/m*3 4.75 C 8.1 km/h
271 13-02-2020 22:30:00 6.5 C 7.2 g/m*3 4.51 C 9.7 km/h
272 13-02-2020 22:35:00 6.6 C 7.25 g/m*3 4.32 C 11.3 km/h
273 13-02-2020 22:40:00 6.7 C 7.29 g/m*3 4.44 C 11.3 km/h
274 13-02-2020 22:45:00 6.7 C 7.29 g/m*3 5.11 C 8.1 km/h
275 13-02-2020 22:50:00 6.8 C 7.27 g/m*3 4.04 C 14.5 km/h
Sensor: Nr:Datum:Temp:Abs-Feuchte:Windchill:Wind:
Aussen-T/F 276 13-02-2020 22:55:00 6.9 C 7.31 g/m*3 4.99 C 9.7 km/h
277 13-02-2020 23:00:00 6.9 C 7.24 g/m*3 4.41 C 12.9 km/h
278 13-02-2020 23:05:00 7 C 7.28 g/m*3 4.29 C 14.5 km/h
279 13-02-2020 23:10:00 7 C 7.28 g/m*3 5.9 C 6.4 km/h
280 13-02-2020 23:15:00 7 C 7.28 g/m*3 5.46 C 8.1 km/h
281 13-02-2020 23:20:00 7 C 7.28 g/m*3 7 C 1.6 km/h
282 13-02-2020 23:25:00 6.9 C 7.24 g/m*3 6.9 C 0 km/h
283 13-02-2020 23:30:00 6.9 C 7.24 g/m*3 6.9 C 1.6 km/h
284 13-02-2020 23:35:00 6.8 C 7.19 g/m*3 6.8 C 1.6 km/h
285 13-02-2020 23:40:00 6.8 C 7.19 g/m*3 6.8 C 1.6 km/h
286 13-02-2020 23:45:00 6.7 C 7.14 g/m*3 6.7 C 1.6 km/h
287 13-02-2020 23:50:00 6.7 C 7.22 g/m*3 5.56 C 6.4 km/h
288 13-02-2020 23:55:00 6.7 C 7.22 g/m*3 6.7 C 4.8 km/h
289 14-02-2020 00:00:00 6.7 C 7.22 g/m*3 5.11 C 8.1 km/h
290 14-02-2020 00:05:00 6.7 C 7.22 g/m*3 5.11 C 8.1 km/h
291 14-02-2020 00:10:00 6.7 C 7.22 g/m*3 5.11 C 8.1 km/h
292 14-02-2020 00:15:00 6.6 C 7.17 g/m*3 6.6 C 4.8 km/h
293 14-02-2020 00:20:00 6.6 C 7.17 g/m*3 6.6 C 4.8 km/h
294 14-02-2020 00:25:00 6.6 C 7.17 g/m*3 5.44 C 6.4 km/h
295 14-02-2020 00:30:00 6.6 C 7.17 g/m*3 4.99 C 8.1 km/h
296 14-02-2020 00:35:00 6.6 C 7.17 g/m*3 6.6 C 3.2 km/h
297 14-02-2020 00:40:00 6.6 C 7.17 g/m*3 6.6 C 4.8 km/h
298 14-02-2020 00:45:00 6.5 C 7.12 g/m*3 5.33 C 6.4 km/h
299 14-02-2020 00:50:00 6.5 C 7.12 g/m*3 4.87 C 8.1 km/h
300 14-02-2020 00:55:00 6.4 C 7.08 g/m*3 5.21 C 6.4 km/h
Sensor: Nr:Datum:Temp:Abs-Feuchte:Windchill:Wind:
Aussen-T/F 301 14-02-2020 01:00:00 6.4 C 7.08 g/m*3 5.21 C 6.4 km/h
302 14-02-2020 01:05:00 6.3 C 7.03 g/m*3 5.1 C 6.4 km/h
303 14-02-2020 01:10:00 6.3 C 7.03 g/m*3 4.64 C 8.1 km/h
304 14-02-2020 01:15:00 6.2 C 6.99 g/m*3 4.98 C 6.4 km/h
305 14-02-2020 01:20:00 6.2 C 6.99 g/m*3 6.2 C 4.8 km/h
306 14-02-2020 01:25:00 6.2 C 6.99 g/m*3 4.52 C 8.1 km/h
307 14-02-2020 01:30:00 6.2 C 6.99 g/m*3 4.52 C 8.1 km/h
308 14-02-2020 01:35:00 6.3 C 7.03 g/m*3 4.27 C 9.7 km/h
309 14-02-2020 01:40:00 6.3 C 7.03 g/m*3 5.1 C 6.4 km/h
310 14-02-2020 01:45:00 6.3 C 7.03 g/m*3 5.1 C 6.4 km/h
311 14-02-2020 01:50:00 6.3 C 7.03 g/m*3 5.1 C 6.4 km/h
312 14-02-2020 01:55:00 6.3 C 7.03 g/m*3 6.3 C 3.2 km/h
313 14-02-2020 02:00:00 6.3 C 7.03 g/m*3 6.3 C 1.6 km/h
314 14-02-2020 02:05:00 6.3 C 7.03 g/m*3 5.1 C 6.4 km/h
315 14-02-2020 02:10:00 6.3 C 7.03 g/m*3 4.64 C 8.1 km/h
316 14-02-2020 02:15:00 6.3 C 7.03 g/m*3 4.64 C 8.1 km/h
317 14-02-2020 02:20:00 6.3 C 6.96 g/m*3 5.1 C 6.4 km/h
318 14-02-2020 02:25:00 6.4 C 7 g/m*3 5.21 C 6.4 km/h
319 14-02-2020 02:30:00 6.3 C 6.96 g/m*3 6.3 C 4.8 km/h
320 14-02-2020 02:35:00 6.3 C 7.03 g/m*3 4.64 C 8.1 km/h
321 14-02-2020 02:40:00 6.3 C 7.03 g/m*3 6.3 C 3.2 km/h
322 14-02-2020 02:45:00 6.3 C 7.03 g/m*3 5.1 C 6.4 km/h
323 14-02-2020 02:50:00 6.3 C 7.03 g/m*3 4.27 C 9.7 km/h
324 14-02-2020 02:55:00 6.3 C 7.03 g/m*3 5.1 C 6.4 km/h
325 14-02-2020 03:00:00 6.3 C 6.96 g/m*3 5.1 C 6.4 km/h
Sensor: Nr:Datum:Temp:Abs-Feuchte:Windchill:Wind:
Aussen-T/F 326 14-02-2020 03:05:00 6.4 C 7 g/m*3 5.21 C 6.4 km/h
327 14-02-2020 03:10:00 6.4 C 7 g/m*3 5.21 C 6.4 km/h
328 14-02-2020 03:15:00 6.4 C 7 g/m*3 6.4 C 1.6 km/h
329 14-02-2020 03:20:00 6.4 C 7 g/m*3 6.4 C 4.8 km/h
330 14-02-2020 03:25:00 6.4 C 7 g/m*3 6.4 C 1.6 km/h
331 14-02-2020 03:30:00 6.4 C 7 g/m*3 6.4 C 4.8 km/h
332 14-02-2020 03:35:00 6.4 C 7 g/m*3 6.4 C 3.2 km/h
333 14-02-2020 03:40:00 6.4 C 7 g/m*3 6.4 C 1.6 km/h
334 14-02-2020 03:45:00 6.4 C 7 g/m*3 6.4 C 3.2 km/h
335 14-02-2020 03:50:00 6.3 C 7.03 g/m*3 6.3 C 0 km/h
336 14-02-2020 03:55:00 6.3 C 7.03 g/m*3 6.3 C 0 km/h
337 14-02-2020 04:00:00 6.3 C 7.03 g/m*3 6.3 C 0 km/h
338 14-02-2020 04:05:00 6.2 C 6.99 g/m*3 6.2 C 1.6 km/h
339 14-02-2020 04:10:00 6.2 C 6.99 g/m*3 6.2 C 3.2 km/h
340 14-02-2020 04:15:00 6 C 6.9 g/m*3 6 C 3.2 km/h
341 14-02-2020 04:20:00 5.9 C 6.85 g/m*3 5.9 C 3.2 km/h
342 14-02-2020 04:25:00 5.9 C 6.85 g/m*3 5.9 C 3.2 km/h
343 14-02-2020 04:30:00 5.9 C 6.85 g/m*3 5.9 C 0 km/h
344 14-02-2020 04:35:00 5.9 C 6.85 g/m*3 5.9 C 3.2 km/h
345 14-02-2020 04:40:00 5.8 C 6.81 g/m*3 5.8 C 1.6 km/h
346 14-02-2020 04:45:00 5.8 C 6.81 g/m*3 5.8 C 3.2 km/h
347 14-02-2020 04:50:00 5.8 C 6.81 g/m*3 5.8 C 1.6 km/h
348 14-02-2020 04:55:00 5.7 C 6.76 g/m*3 5.7 C 3.2 km/h
349 14-02-2020 05:00:00 5.7 C 6.76 g/m*3 5.7 C 1.6 km/h
350 14-02-2020 05:05:00 5.7 C 6.76 g/m*3 5.7 C 1.6 km/h
Sensor: Nr:Datum:Temp:Abs-Feuchte:Windchill:Wind:
Aussen-T/F 351 14-02-2020 05:10:00 5.6 C 6.72 g/m*3 5.6 C 3.2 km/h
352 14-02-2020 05:15:00 5.6 C 6.72 g/m*3 5.6 C 3.2 km/h
353 14-02-2020 05:20:00 5.6 C 6.72 g/m*3 5.6 C 3.2 km/h
354 14-02-2020 05:25:00 5.6 C 6.72 g/m*3 5.6 C 3.2 km/h
355 14-02-2020 05:30:00 5.6 C 6.79 g/m*3 5.6 C 1.6 km/h
356 14-02-2020 05:35:00 5.6 C 6.79 g/m*3 5.6 C 0 km/h
357 14-02-2020 05:40:00 5.7 C 6.83 g/m*3 5.7 C 0 km/h
358 14-02-2020 05:45:00 5.7 C 6.83 g/m*3 5.7 C 0 km/h
359 14-02-2020 05:50:00 5.7 C 6.83 g/m*3 5.7 C 0 km/h
360 14-02-2020 05:55:00 5.7 C 6.83 g/m*3 5.7 C 0 km/h
361 14-02-2020 06:00:00 5.7 C 6.83 g/m*3 5.7 C 0 km/h
362 14-02-2020 06:05:00 5.7 C 6.83 g/m*3 5.7 C 0 km/h
363 14-02-2020 06:10:00 5.7 C 6.83 g/m*3 5.7 C 0 km/h
364 14-02-2020 06:15:00 5.7 C 6.83 g/m*3 5.7 C 0 km/h
365 14-02-2020 06:20:00 5.7 C 6.83 g/m*3 5.7 C 4.8 km/h
366 14-02-2020 06:25:00 5.6 C 6.79 g/m*3 5.6 C 4.8 km/h
367 14-02-2020 06:30:00 5.6 C 6.79 g/m*3 5.6 C 1.6 km/h
368 14-02-2020 06:35:00 5.6 C 6.79 g/m*3 5.6 C 0 km/h
369 14-02-2020 06:40:00 5.6 C 6.79 g/m*3 5.6 C 0 km/h
370 14-02-2020 06:45:00 5.6 C 6.79 g/m*3 5.6 C 0 km/h
371 14-02-2020 06:50:00 5.6 C 6.79 g/m*3 5.6 C 0 km/h
372 14-02-2020 06:55:00 5.6 C 6.79 g/m*3 5.6 C 0 km/h
373 14-02-2020 07:00:00 5.6 C 6.79 g/m*3 5.6 C 0 km/h
374 14-02-2020 07:05:00 5.6 C 6.79 g/m*3 5.6 C 0 km/h
375 14-02-2020 07:10:00 5.6 C 6.79 g/m*3 5.6 C 4.8 km/h
Sensor: Nr:Datum:Temp:Abs-Feuchte:Windchill:Wind:
Aussen-T/F 376 14-02-2020 07:15:00 5.6 C 6.79 g/m*3 5.6 C 3.2 km/h
377 14-02-2020 07:20:00 5.6 C 6.79 g/m*3 5.6 C 1.6 km/h
378 14-02-2020 07:25:00 5.5 C 6.74 g/m*3 5.5 C 1.6 km/h
379 14-02-2020 07:30:00 5.4 C 6.7 g/m*3 5.4 C 3.2 km/h
380 14-02-2020 07:35:00 5.4 C 6.7 g/m*3 4.06 C 6.4 km/h
381 14-02-2020 07:40:00 5.4 C 6.7 g/m*3 5.4 C 3.2 km/h
382 14-02-2020 07:45:00 5.4 C 6.7 g/m*3 5.4 C 3.2 km/h
383 14-02-2020 07:50:00 5.4 C 6.7 g/m*3 5.4 C 4.8 km/h
384 14-02-2020 07:55:00 5.4 C 6.7 g/m*3 5.4 C 3.2 km/h
385 14-02-2020 08:00:00 5.4 C 6.7 g/m*3 5.4 C 3.2 km/h
386 14-02-2020 08:05:00 5.3 C 6.65 g/m*3 5.3 C 3.2 km/h
387 14-02-2020 08:10:00 5.3 C 6.65 g/m*3 5.3 C 3.2 km/h
388 14-02-2020 08:15:00 5.3 C 6.65 g/m*3 5.3 C 3.2 km/h
389 14-02-2020 08:20:00 5.3 C 6.65 g/m*3 5.3 C 1.6 km/h
390 14-02-2020 08:25:00 5.3 C 6.65 g/m*3 5.3 C 1.6 km/h
391 14-02-2020 08:30:00 5.3 C 6.65 g/m*3 5.3 C 3.2 km/h
392 14-02-2020 08:35:00 5.3 C 6.65 g/m*3 3.94 C 6.4 km/h
393 14-02-2020 08:40:00 5.3 C 6.65 g/m*3 5.3 C 4.8 km/h
394 14-02-2020 08:45:00 5.3 C 6.65 g/m*3 5.3 C 4.8 km/h
395 14-02-2020 08:50:00 5.3 C 6.65 g/m*3 3.46 C 8.1 km/h
396 14-02-2020 08:55:00 5.4 C 6.7 g/m*3 4.06 C 6.4 km/h
397 14-02-2020 09:00:00 5.5 C 6.74 g/m*3 4.17 C 6.4 km/h
398 14-02-2020 09:05:00 5.6 C 6.79 g/m*3 4.29 C 6.4 km/h
399 14-02-2020 09:10:00 5.6 C 6.79 g/m*3 5.6 C 3.2 km/h
400 14-02-2020 09:15:00 5.7 C 6.76 g/m*3 4.4 C 6.4 km/h
Sensor: Nr:Datum:Temp:Abs-Feuchte:Windchill:Wind:
Aussen-T/F 401 14-02-2020 09:20:00 5.7 C 6.76 g/m*3 5.7 C 4.8 km/h
402 14-02-2020 09:25:00 5.8 C 6.73 g/m*3 4.52 C 6.4 km/h
403 14-02-2020 09:30:00 5.8 C 6.73 g/m*3 4.05 C 8.1 km/h
404 14-02-2020 09:35:00 5.9 C 6.78 g/m*3 3.8 C 9.7 km/h
405 14-02-2020 09:40:00 6 C 6.75 g/m*3 3.6 C 11.3 km/h
406 14-02-2020 09:45:00 6 C 6.68 g/m*3 3.92 C 9.7 km/h
407 14-02-2020 09:50:00 6.1 C 6.72 g/m*3 4.04 C 9.7 km/h
408 14-02-2020 09:55:00 6.1 C 6.72 g/m*3 4.86 C 6.4 km/h
409 14-02-2020 10:00:00 6.1 C 6.72 g/m*3 3.18 C 14.5 km/h
410 14-02-2020 10:05:00 6.1 C 6.65 g/m*3 3.18 C 14.5 km/h
411 14-02-2020 10:10:00 6.1 C 6.65 g/m*3 4.04 C 9.7 km/h
412 14-02-2020 10:15:00 6.2 C 6.77 g/m*3 3.56 C 12.9 km/h
413 14-02-2020 10:20:00 6.2 C 6.77 g/m*3 3.56 C 12.9 km/h
414 14-02-2020 10:25:00 6.2 C 6.69 g/m*3 3.84 C 11.3 km/h
415 14-02-2020 10:30:00 6.2 C 6.77 g/m*3 3.56 C 12.9 km/h
416 14-02-2020 10:35:00 6.2 C 6.77 g/m*3 4.15 C 9.7 km/h
417 14-02-2020 10:40:00 6.2 C 6.77 g/m*3 3.84 C 11.3 km/h
418 14-02-2020 10:45:00 6.2 C 6.69 g/m*3 3.56 C 12.9 km/h
419 14-02-2020 10:50:00 6.2 C 6.62 g/m*3 4.15 C 9.7 km/h
420 14-02-2020 10:55:00 6.3 C 6.66 g/m*3 3.96 C 11.3 km/h
421 14-02-2020 11:00:00 6.4 C 6.71 g/m*3 3.55 C 14.5 km/h
422 14-02-2020 11:05:00 6.5 C 6.75 g/m*3 4.2 C 11.3 km/h
423 14-02-2020 11:10:00 6.6 C 6.79 g/m*3 4.04 C 12.9 km/h
424 14-02-2020 11:15:00 6.7 C 6.84 g/m*3 4.75 C 9.7 km/h
425 14-02-2020 11:20:00 6.7 C 6.84 g/m*3 4.44 C 11.3 km/h
Sensor: Nr:Datum:Temp:Abs-Feuchte:Windchill:Wind:
Aussen-T/F 426 14-02-2020 11:25:00 6.7 C 6.76 g/m*3 4.44 C 11.3 km/h
427 14-02-2020 11:30:00 6.7 C 6.84 g/m*3 5.56 C 6.4 km/h
428 14-02-2020 11:35:00 6.8 C 6.88 g/m*3 4.04 C 14.5 km/h
429 14-02-2020 11:40:00 6.8 C 6.81 g/m*3 4.87 C 9.7 km/h
430 14-02-2020 11:45:00 6.8 C 6.88 g/m*3 5.22 C 8.1 km/h
431 14-02-2020 11:50:00 6.8 C 6.81 g/m*3 4.56 C 11.3 km/h
432 14-02-2020 11:55:00 6.8 C 6.81 g/m*3 4.87 C 9.7 km/h
433 14-02-2020 12:00:00 6.9 C 6.93 g/m*3 5.34 C 8.1 km/h
434 14-02-2020 12:05:00 7 C 6.97 g/m*3 5.46 C 8.1 km/h
435 14-02-2020 12:10:00 7.1 C 6.94 g/m*3 5.58 C 8.1 km/h
436 14-02-2020 12:15:00 7.1 C 6.94 g/m*3 6.02 C 6.4 km/h
437 14-02-2020 12:20:00 7.1 C 6.86 g/m*3 6.02 C 6.4 km/h
438 14-02-2020 12:25:00 7.2 C 6.83 g/m*3 6.13 C 6.4 km/h
439 14-02-2020 12:30:00 7.2 C 6.83 g/m*3 5.35 C 9.7 km/h
440 14-02-2020 12:35:00 7.3 C 6.87 g/m*3 5.81 C 8.1 km/h
441 14-02-2020 12:40:00 7.3 C 6.79 g/m*3 5.16 C 11.3 km/h
442 14-02-2020 12:45:00 7.4 C 6.84 g/m*3 5.02 C 12.9 km/h
443 14-02-2020 12:50:00 7.4 C 6.84 g/m*3 6.37 C 6.4 km/h
444 14-02-2020 12:55:00 7.6 C 6.85 g/m*3 5.82 C 9.7 km/h
445 14-02-2020 13:00:00 7.6 C 6.93 g/m*3 6.6 C 6.4 km/h
446 14-02-2020 13:05:00 7.6 C 6.85 g/m*3 6.6 C 6.4 km/h
447 14-02-2020 13:10:00 7.6 C 6.77 g/m*3 6.16 C 8.1 km/h
448 14-02-2020 13:15:00 7.7 C 6.73 g/m*3 5.94 C 9.7 km/h
449 14-02-2020 13:20:00 7.7 C 6.81 g/m*3 7.7 C 4.8 km/h
450 14-02-2020 13:25:00 7.7 C 6.73 g/m*3 6.28 C 8.1 km/h
Sensor: Nr:Datum:Temp:Abs-Feuchte:Windchill:Wind:
Aussen-T/F 451 14-02-2020 13:30:00 7.7 C 6.73 g/m*3 6.71 C 6.4 km/h
452 14-02-2020 13:35:00 7.7 C 6.73 g/m*3 5.65 C 11.3 km/h
453 14-02-2020 13:40:00 7.8 C 6.77 g/m*3 7.8 C 4.8 km/h
454 14-02-2020 13:45:00 7.8 C 6.69 g/m*3 6.4 C 8.1 km/h
455 14-02-2020 13:50:00 7.8 C 6.69 g/m*3 6.4 C 8.1 km/h
456 14-02-2020 13:55:00 7.9 C 6.82 g/m*3 7.9 C 4.8 km/h
457 14-02-2020 14:00:00 7.9 C 6.74 g/m*3 6.94 C 6.4 km/h
458 14-02-2020 14:05:00 8 C 6.78 g/m*3 7.06 C 6.4 km/h
459 14-02-2020 14:10:00 8.1 C 6.82 g/m*3 8.1 C 3.2 km/h
460 14-02-2020 14:15:00 8.1 C 6.82 g/m*3 6.13 C 11.3 km/h
461 14-02-2020 14:20:00 8.1 C 6.74 g/m*3 7.17 C 6.4 km/h
462 14-02-2020 14:25:00 8.2 C 6.95 g/m*3 7.29 C 6.4 km/h
463 14-02-2020 14:30:00 8.2 C 6.78 g/m*3 6.87 C 8.1 km/h
464 14-02-2020 14:35:00 8.2 C 6.78 g/m*3 7.29 C 6.4 km/h
465 14-02-2020 14:40:00 8.3 C 6.74 g/m*3 6.12 C 12.9 km/h
466 14-02-2020 14:45:00 8.3 C 6.83 g/m*3 7.41 C 6.4 km/h
467 14-02-2020 14:50:00 8.3 C 6.83 g/m*3 8.3 C 3.2 km/h
468 14-02-2020 14:55:00 8.3 C 6.66 g/m*3 6.99 C 8.1 km/h
469 14-02-2020 15:00:00 8.3 C 6.66 g/m*3 7.41 C 6.4 km/h
470 14-02-2020 15:05:00 8.3 C 6.66 g/m*3 7.41 C 6.4 km/h
471 14-02-2020 15:10:00 8.2 C 6.62 g/m*3 6.54 C 9.7 km/h
472 14-02-2020 15:15:00 8.2 C 6.53 g/m*3 6.54 C 9.7 km/h
473 14-02-2020 15:20:00 8.2 C 6.53 g/m*3 6.54 C 9.7 km/h
474 14-02-2020 15:25:00 8.2 C 6.53 g/m*3 6.87 C 8.1 km/h
475 14-02-2020 15:30:00 8.2 C 6.53 g/m*3 8.2 C 4.8 km/h
Sensor: Nr:Datum:Temp:Abs-Feuchte:Windchill:Wind:
Aussen-T/F 476 14-02-2020 15:35:00 8.2 C 6.53 g/m*3 8.2 C 4.8 km/h
477 14-02-2020 15:40:00 8.3 C 6.57 g/m*3 8.3 C 3.2 km/h
478 14-02-2020 15:45:00 8.3 C 6.57 g/m*3 8.3 C 4.8 km/h
479 14-02-2020 15:50:00 8.3 C 6.57 g/m*3 7.41 C 6.4 km/h
480 14-02-2020 15:55:00 8.3 C 6.66 g/m*3 8.3 C 4.8 km/h
481 14-02-2020 16:00:00 8.3 C 6.66 g/m*3 8.3 C 4.8 km/h
482 14-02-2020 16:05:00 8.4 C 6.62 g/m*3 8.4 C 3.2 km/h
483 14-02-2020 16:10:00 8.4 C 6.62 g/m*3 8.4 C 0 km/h
484 14-02-2020 16:15:00 8.4 C 6.7 g/m*3 8.4 C 1.6 km/h
485 14-02-2020 16:20:00 8.4 C 6.7 g/m*3 8.4 C 0 km/h
486 14-02-2020 16:25:00 8.4 C 6.79 g/m*3 8.4 C 1.6 km/h
487 14-02-2020 16:30:00 8.4 C 6.87 g/m*3 8.4 C 0 km/h
488 14-02-2020 16:35:00 8.4 C 6.79 g/m*3 8.4 C 0 km/h
489 14-02-2020 16:40:00 8.4 C 6.96 g/m*3 8.4 C 0 km/h
490 14-02-2020 16:45:00 8.4 C 7.04 g/m*3 8.4 C 0 km/h
491 14-02-2020 16:50:00 8.4 C 7.04 g/m*3 8.4 C 0 km/h
492 14-02-2020 16:55:00 8.4 C 7.13 g/m*3 8.4 C 0 km/h
493 14-02-2020 17:00:00 8.3 C 7.16 g/m*3 8.3 C 0 km/h
494 14-02-2020 17:05:00 8.2 C 7.12 g/m*3 8.2 C 0 km/h
495 14-02-2020 17:10:00 8.2 C 7.12 g/m*3 8.2 C 0 km/h
496 14-02-2020 17:15:00 8 C 7.11 g/m*3 8 C 0 km/h
497 14-02-2020 17:20:00 7.9 C 7.06 g/m*3 7.9 C 0 km/h
498 14-02-2020 17:25:00 7.8 C 7.1 g/m*3 7.8 C 0 km/h
499 14-02-2020 17:30:00 7.7 C 7.05 g/m*3 7.7 C 0 km/h
500 14-02-2020 17:35:00 7.6 C 7.01 g/m*3 7.6 C 0 km/h
Sensor: Nr:Datum:Temp:Abs-Feuchte:Windchill:Wind:
Aussen-T/F 501 14-02-2020 17:40:00 7.4 C 7 g/m*3 7.4 C 0 km/h
502 14-02-2020 17:45:00 7.3 C 6.95 g/m*3 7.3 C 0 km/h
503 14-02-2020 17:50:00 7.2 C 6.91 g/m*3 7.2 C 0 km/h
504 14-02-2020 17:55:00 7.1 C 6.94 g/m*3 7.1 C 1.6 km/h
505 14-02-2020 18:00:00 7 C 6.9 g/m*3 7 C 0 km/h
506 14-02-2020 18:05:00 6.9 C 6.85 g/m*3 6.9 C 0 km/h
507 14-02-2020 18:10:00 6.9 C 6.93 g/m*3 6.9 C 0 km/h
508 14-02-2020 18:15:00 6.9 C 6.93 g/m*3 6.9 C 0 km/h
509 14-02-2020 18:20:00 6.8 C 6.88 g/m*3 6.8 C 0 km/h
510 14-02-2020 18:25:00 6.8 C 6.88 g/m*3 6.8 C 0 km/h
511 14-02-2020 18:30:00 6.8 C 6.88 g/m*3 6.8 C 0 km/h
512 14-02-2020 18:35:00 6.7 C 6.84 g/m*3 6.7 C 0 km/h
513 14-02-2020 18:40:00 6.7 C 6.84 g/m*3 6.7 C 0 km/h
514 14-02-2020 18:45:00 6.7 C 6.91 g/m*3 6.7 C 0 km/h
515 14-02-2020 18:50:00 6.7 C 6.91 g/m*3 6.7 C 0 km/h
516 14-02-2020 18:55:00 6.7 C 6.91 g/m*3 6.7 C 0 km/h
517 14-02-2020 19:00:00 6.7 C 6.91 g/m*3 6.7 C 0 km/h
518 14-02-2020 19:05:00 6.6 C 6.79 g/m*3 6.6 C 0 km/h
519 14-02-2020 19:10:00 6.4 C 6.71 g/m*3 6.4 C 3.2 km/h
520 14-02-2020 19:15:00 6.3 C 6.66 g/m*3 6.3 C 3.2 km/h
521 14-02-2020 19:20:00 6.2 C 6.62 g/m*3 6.2 C 3.2 km/h
522 14-02-2020 19:25:00 6.1 C 6.58 g/m*3 6.1 C 1.6 km/h
523 14-02-2020 19:30:00 5.9 C 6.49 g/m*3 5.9 C 3.2 km/h
524 14-02-2020 19:35:00 5.8 C 6.45 g/m*3 5.8 C 3.2 km/h
525 14-02-2020 19:40:00 5.6 C 6.36 g/m*3 5.6 C 1.6 km/h
Sensor: Nr:Datum:Temp:Abs-Feuchte:Windchill:Wind:
Aussen-T/F 526 14-02-2020 19:45:00 5.4 C 6.35 g/m*3 5.4 C 4.8 km/h
527 14-02-2020 19:50:00 5.4 C 6.35 g/m*3 5.4 C 4.8 km/h
528 14-02-2020 19:55:00 5.3 C 6.31 g/m*3 5.3 C 0 km/h
529 14-02-2020 20:00:00 5.2 C 6.27 g/m*3 5.2 C 0 km/h
530 14-02-2020 20:05:00 5.2 C 6.33 g/m*3 5.2 C 3.2 km/h
531 14-02-2020 20:10:00 5.1 C 6.29 g/m*3 5.1 C 3.2 km/h
532 14-02-2020 20:15:00 5.1 C 6.29 g/m*3 5.1 C 1.6 km/h
533 14-02-2020 20:20:00 5.1 C 6.29 g/m*3 5.1 C 1.6 km/h
534 14-02-2020 20:25:00 5 C 6.32 g/m*3 5 C 1.6 km/h
535 14-02-2020 20:30:00 4.8 C 6.17 g/m*3 4.8 C 1.6 km/h
536 14-02-2020 20:35:00 4.8 C 6.24 g/m*3 4.8 C 1.6 km/h
537 14-02-2020 20:40:00 4.8 C 6.24 g/m*3 4.8 C 0 km/h
538 14-02-2020 20:45:00 4.7 C 6.19 g/m*3 4.7 C 0 km/h
539 14-02-2020 20:50:00 4.6 C 6.15 g/m*3 4.6 C 0 km/h
540 14-02-2020 20:55:00 4.6 C 6.15 g/m*3 4.6 C 0 km/h
541 14-02-2020 21:00:00 4.6 C 6.22 g/m*3 4.6 C 0 km/h
542 14-02-2020 21:05:00 4.5 C 6.11 g/m*3 4.5 C 0 km/h
543 14-02-2020 21:10:00 4.5 C 6.18 g/m*3 4.5 C 0 km/h
544 14-02-2020 21:15:00 4.4 C 6.14 g/m*3 4.4 C 0 km/h
545 14-02-2020 21:20:00 4.4 C 6.14 g/m*3 4.4 C 0 km/h
546 14-02-2020 21:25:00 4.3 C 6.1 g/m*3 4.3 C 0 km/h
547 14-02-2020 21:30:00 4.3 C 6.1 g/m*3 4.3 C 0 km/h
548 14-02-2020 21:35:00 4.2 C 6.06 g/m*3 4.2 C 0 km/h
549 14-02-2020 21:40:00 4.1 C 6.02 g/m*3 4.1 C 0 km/h
550 14-02-2020 21:45:00 3.9 C 5.94 g/m*3 3.9 C 0 km/h
Sensor: Nr:Datum:Temp:Abs-Feuchte:Windchill:Wind:
Aussen-T/F 551 14-02-2020 21:50:00 3.8 C 5.9 g/m*3 3.8 C 0 km/h
552 14-02-2020 21:55:00 3.8 C 5.9 g/m*3 3.8 C 0 km/h
553 14-02-2020 22:00:00 3.7 C 5.86 g/m*3 3.7 C 0 km/h
554 14-02-2020 22:05:00 3.6 C 5.82 g/m*3 3.6 C 0 km/h
555 14-02-2020 22:10:00 3.6 C 5.82 g/m*3 3.6 C 0 km/h
556 14-02-2020 22:15:00 3.6 C 5.88 g/m*3 3.6 C 0 km/h
557 14-02-2020 22:20:00 3.6 C 5.88 g/m*3 3.6 C 0 km/h
558 14-02-2020 22:25:00 3.6 C 5.88 g/m*3 3.6 C 0 km/h
559 14-02-2020 22:30:00 3.6 C 5.88 g/m*3 3.6 C 0 km/h
560 14-02-2020 22:35:00 3.6 C 5.88 g/m*3 3.6 C 0 km/h
561 14-02-2020 22:40:00 3.4 C 5.74 g/m*3 3.4 C 0 km/h
562 14-02-2020 22:45:00 3.3 C 5.7 g/m*3 3.3 C 0 km/h
563 14-02-2020 22:50:00 3.2 C 5.72 g/m*3 3.2 C 0 km/h
564 14-02-2020 22:55:00 3.1 C 5.63 g/m*3 3.1 C 0 km/h
565 14-02-2020 23:00:00 3.1 C 5.69 g/m*3 3.1 C 0 km/h
566 14-02-2020 23:05:00 3.1 C 5.69 g/m*3 3.1 C 0 km/h
567 14-02-2020 23:10:00 3.1 C 5.69 g/m*3 3.1 C 0 km/h
568 14-02-2020 23:15:00 3.2 C 5.72 g/m*3 3.2 C 0 km/h
569 14-02-2020 23:20:00 3.2 C 5.72 g/m*3 3.2 C 0 km/h
570 14-02-2020 23:25:00 3.2 C 5.72 g/m*3 3.2 C 0 km/h
571 14-02-2020 23:30:00 3.2 C 5.72 g/m*3 3.2 C 0 km/h
572 14-02-2020 23:35:00 3.3 C 5.76 g/m*3 3.3 C 0 km/h
573 14-02-2020 23:40:00 3.2 C 5.72 g/m*3 3.2 C 0 km/h
574 14-02-2020 23:45:00 3.1 C 5.69 g/m*3 3.1 C 0 km/h
575 14-02-2020 23:50:00 3 C 5.65 g/m*3 3 C 0 km/h
Sensor: Nr:Datum:Temp:Abs-Feuchte:Windchill:Wind:
Aussen-T/F 576 14-02-2020 23:55:00 2.9 C 5.61 g/m*3 2.9 C 0 km/h
577 15-02-2020 00:00:00 2.9 C 5.61 g/m*3 2.9 C 0 km/h
578 15-02-2020 00:05:00 2.8 C 5.57 g/m*3 2.8 C 0 km/h
579 15-02-2020 00:10:00 2.8 C 5.57 g/m*3 2.8 C 0 km/h
580 15-02-2020 00:15:00 2.8 C 5.57 g/m*3 2.8 C 0 km/h
581 15-02-2020 00:20:00 2.7 C 5.54 g/m*3 2.7 C 0 km/h
582 15-02-2020 00:25:00 2.7 C 5.54 g/m*3 2.7 C 0 km/h
583 15-02-2020 00:30:00 2.7 C 5.54 g/m*3 2.7 C 0 km/h
584 15-02-2020 00:35:00 2.7 C 5.54 g/m*3 2.7 C 0 km/h
585 15-02-2020 00:40:00 2.7 C 5.59 g/m*3 2.7 C 0 km/h
586 15-02-2020 00:45:00 2.7 C 5.59 g/m*3 2.7 C 0 km/h
587 15-02-2020 00:50:00 2.7 C 5.59 g/m*3 2.7 C 0 km/h
588 15-02-2020 00:55:00 2.8 C 5.63 g/m*3 2.8 C 0 km/h
589 15-02-2020 01:00:00 2.8 C 5.63 g/m*3 2.8 C 0 km/h
590 15-02-2020 01:05:00 2.9 C 5.67 g/m*3 2.9 C 0 km/h
591 15-02-2020 01:10:00 3 C 5.71 g/m*3 3 C 0 km/h
592 15-02-2020 01:15:00 3.2 C 5.79 g/m*3 3.2 C 0 km/h
593 15-02-2020 01:20:00 3.2 C 5.79 g/m*3 3.2 C 0 km/h
594 15-02-2020 01:25:00 3.3 C 5.82 g/m*3 3.3 C 0 km/h
595 15-02-2020 01:30:00 3.3 C 5.82 g/m*3 3.3 C 0 km/h
596 15-02-2020 01:35:00 3.3 C 5.82 g/m*3 3.3 C 0 km/h
597 15-02-2020 01:40:00 3.3 C 5.82 g/m*3 3.3 C 0 km/h
598 15-02-2020 01:45:00 3.3 C 5.82 g/m*3 3.3 C 0 km/h
599 15-02-2020 01:50:00 3.3 C 5.82 g/m*3 3.3 C 1.6 km/h
600 15-02-2020 01:55:00 3.4 C 5.86 g/m*3 3.4 C 0 km/h
Sensor: Nr:Datum:Temp:Abs-Feuchte:Windchill:Wind:
Aussen-T/F 601 15-02-2020 02:00:00 3.3 C 5.82 g/m*3 3.3 C 0 km/h
602 15-02-2020 02:05:00 3.3 C 5.82 g/m*3 3.3 C 0 km/h
603 15-02-2020 02:10:00 3.3 C 5.82 g/m*3 3.3 C 0 km/h
604 15-02-2020 02:15:00 3.4 C 5.86 g/m*3 3.4 C 0 km/h
605 15-02-2020 02:20:00 3.4 C 5.86 g/m*3 3.4 C 0 km/h
606 15-02-2020 02:25:00 3.4 C 5.86 g/m*3 3.4 C 0 km/h
607 15-02-2020 02:30:00 3.3 C 5.82 g/m*3 3.3 C 0 km/h
608 15-02-2020 02:35:00 3.2 C 5.79 g/m*3 3.2 C 0 km/h
609 15-02-2020 02:40:00 3.2 C 5.79 g/m*3 3.2 C 0 km/h
610 15-02-2020 02:45:00 3.1 C 5.75 g/m*3 3.1 C 0 km/h
611 15-02-2020 02:50:00 3.1 C 5.75 g/m*3 3.1 C 0 km/h
612 15-02-2020 02:55:00 3.1 C 5.75 g/m*3 3.1 C 0 km/h
613 15-02-2020 03:00:00 3 C 5.71 g/m*3 3 C 0 km/h
614 15-02-2020 03:05:00 2.9 C 5.67 g/m*3 2.9 C 0 km/h
615 15-02-2020 03:10:00 2.8 C 5.63 g/m*3 2.8 C 0 km/h
616 15-02-2020 03:15:00 2.7 C 5.59 g/m*3 2.7 C 0 km/h
617 15-02-2020 03:20:00 2.6 C 5.56 g/m*3 2.6 C 0 km/h
618 15-02-2020 03:25:00 2.7 C 5.59 g/m*3 2.7 C 0 km/h
619 15-02-2020 03:30:00 2.7 C 5.59 g/m*3 2.7 C 0 km/h
620 15-02-2020 03:35:00 2.7 C 5.59 g/m*3 2.7 C 0 km/h
621 15-02-2020 03:40:00 2.7 C 5.59 g/m*3 2.7 C 0 km/h
622 15-02-2020 03:45:00 2.6 C 5.56 g/m*3 2.6 C 0 km/h
623 15-02-2020 03:50:00 2.5 C 5.52 g/m*3 2.5 C 0 km/h
624 15-02-2020 03:55:00 2.4 C 5.48 g/m*3 2.4 C 0 km/h
625 15-02-2020 04:00:00 2.4 C 5.48 g/m*3 2.4 C 0 km/h
Sensor: Nr:Datum:Temp:Abs-Feuchte:Windchill:Wind:
Aussen-T/F 626 15-02-2020 04:05:00 2.4 C 5.48 g/m*3 2.4 C 0 km/h
627 15-02-2020 04:10:00 2.5 C 5.52 g/m*3 2.5 C 0 km/h
628 15-02-2020 04:15:00 2.4 C 5.48 g/m*3 2.4 C 0 km/h
629 15-02-2020 04:20:00 2.5 C 5.52 g/m*3 2.5 C 0 km/h
630 15-02-2020 04:25:00 2.5 C 5.52 g/m*3 2.5 C 0 km/h
631 15-02-2020 04:30:00 2.5 C 5.52 g/m*3 2.5 C 0 km/h
632 15-02-2020 04:35:00 2.4 C 5.48 g/m*3 2.4 C 0 km/h
633 15-02-2020 04:40:00 2.4 C 5.48 g/m*3 2.4 C 0 km/h
634 15-02-2020 04:45:00 2.5 C 5.58 g/m*3 2.5 C 0 km/h
635 15-02-2020 04:50:00 2.6 C 5.61 g/m*3 2.6 C 0 km/h
636 15-02-2020 04:55:00 2.5 C 5.58 g/m*3 2.5 C 0 km/h
637 15-02-2020 05:00:00 2.5 C 5.58 g/m*3 2.5 C 0 km/h
638 15-02-2020 05:05:00 2.4 C 5.54 g/m*3 2.4 C 0 km/h
639 15-02-2020 05:10:00 2.3 C 5.44 g/m*3 2.3 C 0 km/h
640 15-02-2020 05:15:00 2.3 C 5.44 g/m*3 2.3 C 0 km/h
641 15-02-2020 05:20:00 2.3 C 5.44 g/m*3 2.3 C 0 km/h
642 15-02-2020 05:25:00 2.2 C 5.41 g/m*3 2.2 C 0 km/h
643 15-02-2020 05:30:00 2.2 C 5.41 g/m*3 2.2 C 0 km/h
644 15-02-2020 05:35:00 2.2 C 5.41 g/m*3 2.2 C 0 km/h
645 15-02-2020 05:40:00 2.2 C 5.46 g/m*3 2.2 C 0 km/h
646 15-02-2020 05:45:00 2.2 C 5.41 g/m*3 2.2 C 0 km/h
647 15-02-2020 05:50:00 2.1 C 5.37 g/m*3 2.1 C 0 km/h
648 15-02-2020 05:55:00 2.1 C 5.37 g/m*3 2.1 C 0 km/h
649 15-02-2020 06:00:00 2 C 5.33 g/m*3 2 C 0 km/h
650 15-02-2020 06:05:00 2 C 5.33 g/m*3 2 C 0 km/h
Sensor: Nr:Datum:Temp:Abs-Feuchte:Windchill:Wind:
Aussen-T/F 651 15-02-2020 06:10:00 2 C 5.33 g/m*3 2 C 0 km/h
652 15-02-2020 06:15:00 1.9 C 5.3 g/m*3 1.9 C 0 km/h
653 15-02-2020 06:20:00 1.8 C 5.26 g/m*3 1.8 C 0 km/h
654 15-02-2020 06:25:00 1.8 C 5.26 g/m*3 1.8 C 0 km/h
655 15-02-2020 06:30:00 1.8 C 5.26 g/m*3 1.8 C 0 km/h
656 15-02-2020 06:35:00 1.8 C 5.26 g/m*3 1.8 C 0 km/h
657 15-02-2020 06:40:00 1.8 C 5.32 g/m*3 1.8 C 0 km/h
658 15-02-2020 06:45:00 1.8 C 5.32 g/m*3 1.8 C 0 km/h
659 15-02-2020 06:50:00 1.8 C 5.26 g/m*3 1.8 C 0 km/h
660 15-02-2020 06:55:00 1.8 C 5.32 g/m*3 1.8 C 0 km/h
661 15-02-2020 07:00:00 1.8 C 5.32 g/m*3 1.8 C 0 km/h
662 15-02-2020 07:05:00 1.8 C 5.32 g/m*3 1.8 C 0 km/h
663 15-02-2020 07:10:00 1.8 C 5.32 g/m*3 1.8 C 0 km/h
664 15-02-2020 07:15:00 1.8 C 5.32 g/m*3 1.8 C 0 km/h
665 15-02-2020 07:20:00 1.7 C 5.23 g/m*3 1.7 C 0 km/h
666 15-02-2020 07:25:00 1.6 C 5.25 g/m*3 1.6 C 0 km/h
667 15-02-2020 07:30:00 1.5 C 5.21 g/m*3 1.5 C 0 km/h
668 15-02-2020 07:35:00 1.4 C 5.17 g/m*3 1.4 C 0 km/h
669 15-02-2020 07:40:00 1.6 C 5.19 g/m*3 1.6 C 0 km/h
670 15-02-2020 07:45:00 1.7 C 5.28 g/m*3 1.7 C 0 km/h
671 15-02-2020 07:50:00 1.9 C 5.35 g/m*3 1.9 C 3.2 km/h
672 15-02-2020 07:55:00 2.1 C 5.43 g/m*3 0.24 C 6.4 km/h
673 15-02-2020 08:00:00 2.1 C 5.43 g/m*3 2.1 C 1.6 km/h
674 15-02-2020 08:05:00 2.1 C 5.43 g/m*3 2.1 C 0 km/h
675 15-02-2020 08:10:00 2 C 5.39 g/m*3 2 C 0 km/h
Sensor: Nr:Datum:Temp:Abs-Feuchte:Windchill:Wind:
Aussen-T/F 676 15-02-2020 08:15:00 2 C 5.39 g/m*3 2 C 0 km/h
677 15-02-2020 08:20:00 2.1 C 5.43 g/m*3 2.1 C 0 km/h
678 15-02-2020 08:25:00 2.2 C 5.46 g/m*3 2.2 C 0 km/h
679 15-02-2020 08:30:00 2.4 C 5.54 g/m*3 2.4 C 0 km/h
680 15-02-2020 08:35:00 2.4 C 5.54 g/m*3 2.4 C 0 km/h
681 15-02-2020 08:40:00 2.6 C 5.61 g/m*3 2.6 C 1.6 km/h
682 15-02-2020 08:45:00 2.7 C 5.65 g/m*3 2.7 C 0 km/h
683 15-02-2020 08:50:00 2.7 C 5.65 g/m*3 2.7 C 0 km/h
684 15-02-2020 08:55:00 2.8 C 5.69 g/m*3 2.8 C 0 km/h
685 15-02-2020 09:00:00 3.1 C 5.81 g/m*3 3.1 C 0 km/h
686 15-02-2020 09:05:00 3.1 C 5.81 g/m*3 3.1 C 0 km/h
687 15-02-2020 09:10:00 3.3 C 5.88 g/m*3 3.3 C 0 km/h
688 15-02-2020 09:15:00 3.4 C 5.92 g/m*3 3.4 C 0 km/h
689 15-02-2020 09:20:00 3.5 C 5.96 g/m*3 3.5 C 0 km/h
690 15-02-2020 09:25:00 3.6 C 6 g/m*3 3.6 C 0 km/h
691 15-02-2020 09:30:00 3.7 C 6.04 g/m*3 3.7 C 0 km/h
692 15-02-2020 09:35:00 3.8 C 6.09 g/m*3 3.8 C 0 km/h
693 15-02-2020 09:40:00 3.9 C 6.13 g/m*3 3.9 C 0 km/h
694 15-02-2020 09:45:00 4.1 C 6.27 g/m*3 4.1 C 0 km/h
695 15-02-2020 09:50:00 4.3 C 6.29 g/m*3 4.3 C 0 km/h
696 15-02-2020 09:55:00 4.3 C 6.36 g/m*3 4.3 C 0 km/h
697 15-02-2020 10:00:00 4.4 C 6.4 g/m*3 4.4 C 0 km/h
698 15-02-2020 10:05:00 4.5 C 6.44 g/m*3 4.5 C 0 km/h
699 15-02-2020 10:10:00 4.5 C 6.38 g/m*3 4.5 C 0 km/h
700 15-02-2020 10:15:00 4.6 C 6.42 g/m*3 4.6 C 0 km/h
Sensor: Nr:Datum:Temp:Abs-Feuchte:Windchill:Wind:
Aussen-T/F 701 15-02-2020 10:20:00 4.7 C 6.53 g/m*3 4.7 C 0 km/h
702 15-02-2020 10:25:00 4.8 C 6.57 g/m*3 4.8 C 0 km/h
703 15-02-2020 10:30:00 4.8 C 6.5 g/m*3 4.8 C 0 km/h
704 15-02-2020 10:35:00 4.9 C 6.62 g/m*3 4.9 C 1.6 km/h
705 15-02-2020 10:40:00 5.1 C 6.7 g/m*3 5.1 C 0 km/h
706 15-02-2020 10:45:00 5.2 C 6.68 g/m*3 5.2 C 0 km/h
707 15-02-2020 10:50:00 5.2 C 6.68 g/m*3 5.2 C 1.6 km/h
708 15-02-2020 10:55:00 5.3 C 6.79 g/m*3 5.3 C 0 km/h
709 15-02-2020 11:00:00 5.3 C 6.72 g/m*3 5.3 C 0 km/h
710 15-02-2020 11:05:00 5.4 C 6.77 g/m*3 5.4 C 0 km/h
711 15-02-2020 11:10:00 5.7 C 6.9 g/m*3 5.7 C 0 km/h
712 15-02-2020 11:15:00 6 C 7.11 g/m*3 6 C 1.6 km/h
713 15-02-2020 11:20:00 6.3 C 7.25 g/m*3 6.3 C 0 km/h
714 15-02-2020 11:25:00 6.5 C 7.27 g/m*3 6.5 C 0 km/h
715 15-02-2020 11:30:00 6.7 C 7.45 g/m*3 6.7 C 0 km/h
716 15-02-2020 11:35:00 6.8 C 7.42 g/m*3 6.8 C 0 km/h
717 15-02-2020 11:40:00 7.1 C 7.57 g/m*3 7.1 C 0 km/h
718 15-02-2020 11:45:00 7.2 C 7.69 g/m*3 7.2 C 0 km/h
719 15-02-2020 11:50:00 7.4 C 7.71 g/m*3 7.4 C 0 km/h
720 15-02-2020 11:55:00 7.6 C 7.81 g/m*3 7.6 C 0 km/h
721 15-02-2020 12:00:00 7.7 C 7.87 g/m*3 7.7 C 4.8 km/h
722 15-02-2020 12:05:00 7.8 C 7.83 g/m*3 7.8 C 1.6 km/h
723 15-02-2020 12:10:00 8 C 7.94 g/m*3 8 C 4.8 km/h
724 15-02-2020 12:15:00 8.2 C 7.96 g/m*3 8.2 C 0 km/h
725 15-02-2020 12:20:00 8.3 C 7.92 g/m*3 8.3 C 1.6 km/h
Sensor: Nr:Datum:Temp:Abs-Feuchte:Windchill:Wind:
Aussen-T/F 726 15-02-2020 12:25:00 8.6 C 8.08 g/m*3 8.6 C 1.6 km/h
727 15-02-2020 12:30:00 8.8 C 8.09 g/m*3 8.8 C 1.6 km/h
728 15-02-2020 12:35:00 9.1 C 8.07 g/m*3 9.1 C 3.2 km/h
729 15-02-2020 12:40:00 9.4 C 8.05 g/m*3 9.4 C 3.2 km/h
730 15-02-2020 12:45:00 9.7 C 8.02 g/m*3 9.7 C 4.8 km/h
731 15-02-2020 12:50:00 9.9 C 8.03 g/m*3 9.9 C 4.8 km/h
732 15-02-2020 12:55:00 10.2 C 8.09 g/m*3 10.2 C 1.6 km/h
733 15-02-2020 13:00:00 10.4 C 8 g/m*3 9.46 C 8.1 km/h
734 15-02-2020 13:05:00 10.6 C 8.1 g/m*3 10.6 C 4.8 km/h
735 15-02-2020 13:10:00 10.7 C 7.86 g/m*3 9.52 C 9.7 km/h
736 15-02-2020 13:15:00 10.8 C 7.81 g/m*3 9.16 C 12.9 km/h
737 15-02-2020 13:20:00 11 C 7.81 g/m*3 9.02 C 16.1 km/h
738 15-02-2020 13:25:00 11.2 C 7.8 g/m*3 11.2 C 12.9 km/h
739 15-02-2020 13:30:00 11.3 C 7.85 g/m*3 11.3 C 12.9 km/h
740 15-02-2020 13:35:00 11.4 C 7.9 g/m*3 11.4 C 6.4 km/h
741 15-02-2020 13:40:00 11.6 C 7.8 g/m*3 11.6 C 8.1 km/h
742 15-02-2020 13:45:00 11.7 C 7.74 g/m*3 11.7 C 11.3 km/h
743 15-02-2020 13:50:00 11.8 C 7.89 g/m*3 11.8 C 3.2 km/h
744 15-02-2020 13:55:00 11.8 C 7.68 g/m*3 11.8 C 6.4 km/h
745 15-02-2020 14:00:00 11.8 C 7.79 g/m*3 11.8 C 9.7 km/h
746 15-02-2020 14:05:00 11.8 C 7.79 g/m*3 11.8 C 9.7 km/h
747 15-02-2020 14:10:00 11.7 C 7.64 g/m*3 11.7 C 4.8 km/h
748 15-02-2020 14:15:00 11.7 C 7.64 g/m*3 11.7 C 8.1 km/h
749 15-02-2020 14:20:00 11.6 C 7.69 g/m*3 11.6 C 8.1 km/h
750 15-02-2020 14:25:00 11.4 C 7.6 g/m*3 11.4 C 9.7 km/h
Sensor: Nr:Datum:Temp:Abs-Feuchte:Windchill:Wind:
Aussen-T/F 751 15-02-2020 14:30:00 11.3 C 7.45 g/m*3 11.3 C 6.4 km/h
752 15-02-2020 14:35:00 11.3 C 7.55 g/m*3 11.3 C 9.7 km/h
753 15-02-2020 14:40:00 11.3 C 7.65 g/m*3 11.3 C 14.5 km/h
754 15-02-2020 14:45:00 11.2 C 7.5 g/m*3 11.2 C 9.7 km/h
755 15-02-2020 14:50:00 11.2 C 7.5 g/m*3 11.2 C 3.2 km/h
756 15-02-2020 14:55:00 11.1 C 7.45 g/m*3 11.1 C 8.1 km/h
757 15-02-2020 15:00:00 11.2 C 7.5 g/m*3 11.2 C 6.4 km/h
758 15-02-2020 15:05:00 11.2 C 7.7 g/m*3 11.2 C 6.4 km/h
759 15-02-2020 15:10:00 11.2 C 7.6 g/m*3 11.2 C 3.2 km/h
760 15-02-2020 15:15:00 11.3 C 7.45 g/m*3 11.3 C 8.1 km/h
761 15-02-2020 15:20:00 11.4 C 7.49 g/m*3 11.4 C 9.7 km/h
762 15-02-2020 15:25:00 11.6 C 7.59 g/m*3 11.6 C 8.1 km/h
763 15-02-2020 15:30:00 11.7 C 7.64 g/m*3 11.7 C 9.7 km/h
764 15-02-2020 15:35:00 11.7 C 7.64 g/m*3 11.7 C 6.4 km/h
765 15-02-2020 15:40:00 11.6 C 7.59 g/m*3 11.6 C 8.1 km/h
766 15-02-2020 15:45:00 11.7 C 7.53 g/m*3 11.7 C 8.1 km/h
767 15-02-2020 15:50:00 11.7 C 7.64 g/m*3 11.7 C 12.9 km/h
768 15-02-2020 15:55:00 11.8 C 7.79 g/m*3 11.8 C 6.4 km/h
769 15-02-2020 16:00:00 11.7 C 7.53 g/m*3 11.7 C 6.4 km/h
770 15-02-2020 16:05:00 11.7 C 7.64 g/m*3 11.7 C 3.2 km/h
771 15-02-2020 16:10:00 11.6 C 7.59 g/m*3 11.6 C 3.2 km/h
772 15-02-2020 16:15:00 11.6 C 7.69 g/m*3 11.6 C 4.8 km/h
773 15-02-2020 16:20:00 11.4 C 7.7 g/m*3 11.4 C 0 km/h
774 15-02-2020 16:25:00 11.2 C 7.7 g/m*3 11.2 C 0 km/h
775 15-02-2020 16:30:00 11.1 C 7.76 g/m*3 11.1 C 6.4 km/h
Sensor: Nr:Datum:Temp:Abs-Feuchte:Windchill:Wind:
Aussen-T/F 776 15-02-2020 16:35:00 10.7 C 7.66 g/m*3 10.7 C 3.2 km/h
777 15-02-2020 16:40:00 10.4 C 7.61 g/m*3 10.4 C 0 km/h
778 15-02-2020 16:45:00 10.2 C 7.61 g/m*3 10.2 C 0 km/h
779 15-02-2020 16:50:00 9.9 C 7.47 g/m*3 9.9 C 1.6 km/h
780 15-02-2020 16:55:00 9.9 C 7.56 g/m*3 9.9 C 0 km/h
781 15-02-2020 17:00:00 9.8 C 7.52 g/m*3 9.8 C 0 km/h
782 15-02-2020 17:05:00 9.6 C 7.42 g/m*3 9.6 C 0 km/h
783 15-02-2020 17:10:00 9.5 C 7.37 g/m*3 9.5 C 3.2 km/h
784 15-02-2020 17:15:00 9.3 C 7.46 g/m*3 9.3 C 4.8 km/h
785 15-02-2020 17:20:00 9.2 C 7.41 g/m*3 9.2 C 3.2 km/h
786 15-02-2020 17:25:00 8.9 C 7.36 g/m*3 8.9 C 0 km/h
787 15-02-2020 17:30:00 8.8 C 7.31 g/m*3 8.8 C 0 km/h
788 15-02-2020 17:35:00 8.6 C 7.3 g/m*3 8.6 C 0 km/h
789 15-02-2020 17:40:00 8.4 C 7.21 g/m*3 8.4 C 0 km/h
790 15-02-2020 17:45:00 8.3 C 7.16 g/m*3 8.3 C 3.2 km/h
791 15-02-2020 17:50:00 8.2 C 7.2 g/m*3 8.2 C 3.2 km/h
792 15-02-2020 17:55:00 8.1 C 7.16 g/m*3 8.1 C 4.8 km/h
793 15-02-2020 18:00:00 7.9 C 7.15 g/m*3 7.9 C 4.8 km/h
794 15-02-2020 18:05:00 7.7 C 7.05 g/m*3 7.7 C 0 km/h
795 15-02-2020 18:10:00 7.7 C 7.14 g/m*3 7.7 C 3.2 km/h
796 15-02-2020 18:15:00 7.6 C 7.09 g/m*3 7.6 C 4.8 km/h
797 15-02-2020 18:20:00 7.6 C 7.09 g/m*3 7.6 C 4.8 km/h
798 15-02-2020 18:25:00 7.6 C 7.17 g/m*3 7.6 C 3.2 km/h
799 15-02-2020 18:30:00 7.6 C 7.17 g/m*3 7.6 C 4.8 km/h
800 15-02-2020 18:35:00 7.5 C 7.12 g/m*3 7.5 C 1.6 km/h
Sensor: Nr:Datum:Temp:Abs-Feuchte:Windchill:Wind:
Aussen-T/F 801 15-02-2020 18:40:00 7.5 C 7.12 g/m*3 7.5 C 4.8 km/h
802 15-02-2020 18:45:00 7.4 C 7.08 g/m*3 7.4 C 0 km/h
803 15-02-2020 18:50:00 7.4 C 7.16 g/m*3 7.4 C 4.8 km/h
804 15-02-2020 18:55:00 7.4 C 7.16 g/m*3 7.4 C 1.6 km/h
805 15-02-2020 19:00:00 7.4 C 7.16 g/m*3 7.4 C 1.6 km/h
806 15-02-2020 19:05:00 7.4 C 7.08 g/m*3 7.4 C 0 km/h
807 15-02-2020 19:10:00 7.4 C 7.16 g/m*3 7.4 C 0 km/h
808 15-02-2020 19:15:00 7.4 C 7.08 g/m*3 7.4 C 3.2 km/h
809 15-02-2020 19:20:00 7.4 C 7.08 g/m*3 7.4 C 0 km/h
810 15-02-2020 19:25:00 7.4 C 7.16 g/m*3 7.4 C 3.2 km/h
811 15-02-2020 19:30:00 7.4 C 7.08 g/m*3 7.4 C 1.6 km/h
812 15-02-2020 19:35:00 7.3 C 7.11 g/m*3 7.3 C 3.2 km/h
813 15-02-2020 19:40:00 7.3 C 7.11 g/m*3 7.3 C 1.6 km/h
814 15-02-2020 19:45:00 7.3 C 7.11 g/m*3 7.3 C 4.8 km/h
815 15-02-2020 19:50:00 7.3 C 7.11 g/m*3 7.3 C 3.2 km/h
816 15-02-2020 19:55:00 7.2 C 7.06 g/m*3 7.2 C 0 km/h
817 15-02-2020 20:00:00 7.2 C 7.06 g/m*3 7.2 C 4.8 km/h
818 15-02-2020 20:05:00 7.3 C 7.11 g/m*3 6.25 C 6.4 km/h
819 15-02-2020 20:10:00 7.3 C 7.03 g/m*3 7.3 C 3.2 km/h
820 15-02-2020 20:15:00 7.5 C 7.12 g/m*3 7.5 C 1.6 km/h
821 15-02-2020 20:20:00 7.6 C 7.17 g/m*3 7.6 C 0 km/h
822 15-02-2020 20:25:00 7.7 C 7.22 g/m*3 7.7 C 1.6 km/h
823 15-02-2020 20:30:00 7.7 C 7.22 g/m*3 7.7 C 0 km/h
824 15-02-2020 20:35:00 7.7 C 7.14 g/m*3 7.7 C 1.6 km/h
825 15-02-2020 20:40:00 7.8 C 7.18 g/m*3 7.8 C 3.2 km/h
Sensor: Nr:Datum:Temp:Abs-Feuchte:Windchill:Wind:
Aussen-T/F 826 15-02-2020 20:45:00 7.8 C 7.18 g/m*3 7.8 C 1.6 km/h
827 15-02-2020 20:50:00 7.9 C 7.23 g/m*3 7.9 C 0 km/h
828 15-02-2020 20:55:00 7.9 C 7.23 g/m*3 7.9 C 3.2 km/h
829 15-02-2020 21:00:00 7.9 C 7.23 g/m*3 7.9 C 0 km/h
830 15-02-2020 21:05:00 7.9 C 7.15 g/m*3 7.9 C 0 km/h
831 15-02-2020 21:10:00 8 C 7.28 g/m*3 8 C 1.6 km/h
832 15-02-2020 21:15:00 7.9 C 7.15 g/m*3 7.9 C 0 km/h
833 15-02-2020 21:20:00 7.9 C 7.15 g/m*3 7.9 C 3.2 km/h
834 15-02-2020 21:25:00 8 C 7.11 g/m*3 8 C 3.2 km/h
835 15-02-2020 21:30:00 8.2 C 7.2 g/m*3 8.2 C 1.6 km/h
836 15-02-2020 21:35:00 8.2 C 7.12 g/m*3 8.2 C 0 km/h
837 15-02-2020 21:40:00 8.3 C 7.16 g/m*3 8.3 C 0 km/h
838 15-02-2020 21:45:00 8.3 C 7.16 g/m*3 8.3 C 0 km/h
839 15-02-2020 21:50:00 8.3 C 7.16 g/m*3 8.3 C 0 km/h
840 15-02-2020 21:55:00 8.3 C 7.08 g/m*3 8.3 C 0 km/h
841 15-02-2020 22:00:00 8.3 C 7.16 g/m*3 8.3 C 0 km/h
842 15-02-2020 22:05:00 8.3 C 7.08 g/m*3 8.3 C 0 km/h
843 15-02-2020 22:10:00 8.3 C 7.08 g/m*3 8.3 C 0 km/h
844 15-02-2020 22:15:00 8.4 C 7.13 g/m*3 8.4 C 0 km/h
845 15-02-2020 22:20:00 8.3 C 7.08 g/m*3 8.3 C 1.6 km/h
846 15-02-2020 22:25:00 8.4 C 7.04 g/m*3 8.4 C 4.8 km/h
847 15-02-2020 22:30:00 8.6 C 7.13 g/m*3 8.6 C 0 km/h
848 15-02-2020 22:35:00 8.7 C 7.18 g/m*3 8.7 C 3.2 km/h
849 15-02-2020 22:40:00 8.8 C 7.22 g/m*3 7.58 C 8.1 km/h
850 15-02-2020 22:45:00 9.1 C 7.28 g/m*3 9.1 C 1.6 km/h
Sensor: Nr:Datum:Temp:Abs-Feuchte:Windchill:Wind:
Aussen-T/F 851 15-02-2020 22:50:00 9.2 C 7.23 g/m*3 9.2 C 4.8 km/h
852 15-02-2020 22:55:00 9.3 C 7.28 g/m*3 9.3 C 0 km/h
853 15-02-2020 23:00:00 9.3 C 7.28 g/m*3 9.3 C 0 km/h
854 15-02-2020 23:05:00 9.4 C 7.15 g/m*3 7.7 C 11.3 km/h
855 15-02-2020 23:10:00 9.9 C 7.19 g/m*3 7.48 C 17.7 km/h
856 15-02-2020 23:15:00 10.2 C 7.33 g/m*3 9.6 C 6.4 km/h
857 15-02-2020 23:20:00 10.3 C 7.37 g/m*3 10.3 C 3.2 km/h
858 15-02-2020 23:25:00 10.2 C 7.33 g/m*3 10.2 C 0 km/h
859 15-02-2020 23:30:00 10.1 C 7.38 g/m*3 10.1 C 3.2 km/h
860 15-02-2020 23:35:00 9.9 C 7.38 g/m*3 9.9 C 3.2 km/h
861 15-02-2020 23:40:00 9.9 C 7.28 g/m*3 9.9 C 4.8 km/h
862 15-02-2020 23:45:00 10.1 C 7.19 g/m*3 10.1 C 1.6 km/h
863 15-02-2020 23:50:00 10.3 C 7.28 g/m*3 9.72 C 6.4 km/h
864 15-02-2020 23:55:00 10.4 C 7.42 g/m*3 10.4 C 3.2 km/h
865 16-02-2020 00:00:00 10.4 C 7.32 g/m*3 10.4 C 4.8 km/h
866 16-02-2020 00:05:00 10.4 C 7.42 g/m*3 10.4 C 4.8 km/h
867 16-02-2020 00:10:00 10.3 C 7.37 g/m*3 9.72 C 6.4 km/h
868 16-02-2020 00:15:00 10.1 C 7.19 g/m*3 9.48 C 6.4 km/h
869 16-02-2020 00:20:00 10.2 C 7.23 g/m*3 8.92 C 9.7 km/h
870 16-02-2020 00:25:00 10.2 C 7.33 g/m*3 10.2 C 3.2 km/h
871 16-02-2020 00:30:00 10.2 C 7.33 g/m*3 10.2 C 4.8 km/h
872 16-02-2020 00:35:00 10.1 C 7.38 g/m*3 10.1 C 4.8 km/h
873 16-02-2020 00:40:00 10.2 C 7.33 g/m*3 8.66 C 11.3 km/h
874 16-02-2020 00:45:00 10.2 C 7.33 g/m*3 8.66 C 11.3 km/h
875 16-02-2020 00:50:00 10.4 C 7.32 g/m*3 8.11 C 17.7 km/h
Sensor: Nr:Datum:Temp:Abs-Feuchte:Windchill:Wind:
Aussen-T/F 876 16-02-2020 00:55:00 10.6 C 7.42 g/m*3 10.6 C 4.8 km/h
877 16-02-2020 01:00:00 10.5 C 7.37 g/m*3 9.95 C 6.4 km/h
878 16-02-2020 01:05:00 10.4 C 7.32 g/m*3 8.47 C 14.5 km/h
879 16-02-2020 01:10:00 10.4 C 7.32 g/m*3 9.83 C 6.4 km/h
880 16-02-2020 01:15:00 10.6 C 7.42 g/m*3 9.69 C 8.1 km/h
881 16-02-2020 01:20:00 10.8 C 7.51 g/m*3 10.8 C 4.8 km/h
882 16-02-2020 01:25:00 10.8 C 7.41 g/m*3 9.38 C 11.3 km/h
883 16-02-2020 01:30:00 10.8 C 7.51 g/m*3 10.29 C 6.4 km/h
884 16-02-2020 01:35:00 10.7 C 7.56 g/m*3 10.7 C 3.2 km/h
885 16-02-2020 01:40:00 10.6 C 7.52 g/m*3 10.6 C 3.2 km/h
886 16-02-2020 01:45:00 10.5 C 7.57 g/m*3 9.95 C 6.4 km/h
887 16-02-2020 01:50:00 10.5 C 7.57 g/m*3 10.5 C 0 km/h
888 16-02-2020 01:55:00 10.4 C 7.52 g/m*3 9.16 C 9.7 km/h
889 16-02-2020 02:00:00 10.6 C 7.61 g/m*3 10.6 C 4.8 km/h
890 16-02-2020 02:05:00 10.8 C 7.61 g/m*3 9.64 C 9.7 km/h
891 16-02-2020 02:10:00 10.9 C 7.66 g/m*3 10.41 C 6.4 km/h
892 16-02-2020 02:15:00 11.1 C 7.66 g/m*3 11.1 C 3.2 km/h
893 16-02-2020 02:20:00 11.1 C 7.76 g/m*3 11.1 C 1.6 km/h
894 16-02-2020 02:25:00 11.1 C 7.76 g/m*3 11.1 C 8.1 km/h
895 16-02-2020 02:30:00 11.3 C 7.75 g/m*3 11.3 C 8.1 km/h
896 16-02-2020 02:35:00 11.4 C 7.8 g/m*3 11.4 C 3.2 km/h
897 16-02-2020 02:40:00 11.4 C 7.8 g/m*3 11.4 C 8.1 km/h
898 16-02-2020 02:45:00 11.4 C 7.8 g/m*3 11.4 C 8.1 km/h
899 16-02-2020 02:50:00 11.6 C 7.8 g/m*3 11.6 C 4.8 km/h
900 16-02-2020 02:55:00 11.8 C 7.79 g/m*3 11.8 C 4.8 km/h
Sensor: Nr:Datum:Temp:Abs-Feuchte:Windchill:Wind:
Aussen-T/F 901 16-02-2020 03:00:00 11.9 C 7.73 g/m*3 11.9 C 4.8 km/h
902 16-02-2020 03:05:00 11.9 C 7.84 g/m*3 11.9 C 0 km/h
903 16-02-2020 03:10:00 12 C 7.89 g/m*3 12 C 0 km/h
904 16-02-2020 03:15:00 12.1 C 7.94 g/m*3 12.1 C 8.1 km/h
905 16-02-2020 03:20:00 12.1 C 7.94 g/m*3 12.1 C 6.4 km/h
906 16-02-2020 03:25:00 12.2 C 7.88 g/m*3 12.2 C 12.9 km/h
907 16-02-2020 03:30:00 12.6 C 7.97 g/m*3 12.6 C 12.9 km/h
908 16-02-2020 03:35:00 12.6 C 7.97 g/m*3 12.6 C 8.1 km/h
909 16-02-2020 03:40:00 12.7 C 7.9 g/m*3 12.7 C 11.3 km/h
910 16-02-2020 03:45:00 12.7 C 7.9 g/m*3 12.7 C 8.1 km/h
911 16-02-2020 03:50:00 12.7 C 7.9 g/m*3 12.7 C 14.5 km/h
912 16-02-2020 03:55:00 12.8 C 7.84 g/m*3 12.8 C 14.5 km/h
913 16-02-2020 04:00:00 12.8 C 7.84 g/m*3 12.8 C 6.4 km/h
914 16-02-2020 04:05:00 12.7 C 7.9 g/m*3 12.7 C 9.7 km/h
915 16-02-2020 04:10:00 12.8 C 7.84 g/m*3 12.8 C 11.3 km/h
916 16-02-2020 04:15:00 12.8 C 7.84 g/m*3 12.8 C 6.4 km/h
917 16-02-2020 04:20:00 12.8 C 7.84 g/m*3 12.8 C 12.9 km/h
918 16-02-2020 04:25:00 12.8 C 7.84 g/m*3 12.8 C 4.8 km/h
919 16-02-2020 04:30:00 12.7 C 7.79 g/m*3 12.7 C 6.4 km/h
920 16-02-2020 04:35:00 12.5 C 7.81 g/m*3 12.5 C 6.4 km/h
921 16-02-2020 04:40:00 12.4 C 7.76 g/m*3 12.4 C 4.8 km/h
922 16-02-2020 04:45:00 12.3 C 7.71 g/m*3 12.3 C 6.4 km/h
923 16-02-2020 04:50:00 12.2 C 7.55 g/m*3 12.2 C 6.4 km/h
924 16-02-2020 04:55:00 12.2 C 7.55 g/m*3 12.2 C 11.3 km/h
925 16-02-2020 05:00:00 12.2 C 7.55 g/m*3 12.2 C 4.8 km/h
Sensor: Nr:Datum:Temp:Abs-Feuchte:Windchill:Wind:
Aussen-T/F 926 16-02-2020 05:05:00 12.2 C 7.77 g/m*3 12.2 C 4.8 km/h
927 16-02-2020 05:10:00 12.1 C 7.61 g/m*3 12.1 C 8.1 km/h
928 16-02-2020 05:15:00 12.1 C 7.61 g/m*3 12.1 C 3.2 km/h
929 16-02-2020 05:20:00 12.1 C 7.72 g/m*3 12.1 C 4.8 km/h
930 16-02-2020 05:25:00 12 C 7.67 g/m*3 12 C 1.6 km/h
931 16-02-2020 05:30:00 12.1 C 7.72 g/m*3 12.1 C 8.1 km/h
932 16-02-2020 05:35:00 12.1 C 7.72 g/m*3 12.1 C 1.6 km/h
933 16-02-2020 05:40:00 12.1 C 7.61 g/m*3 12.1 C 3.2 km/h
934 16-02-2020 05:45:00 12.2 C 7.77 g/m*3 12.2 C 0 km/h
935 16-02-2020 05:50:00 12.3 C 7.71 g/m*3 12.3 C 6.4 km/h
936 16-02-2020 05:55:00 12.4 C 7.65 g/m*3 12.4 C 9.7 km/h
937 16-02-2020 06:00:00 12.5 C 7.59 g/m*3 12.5 C 12.9 km/h
938 16-02-2020 06:05:00 12.8 C 7.62 g/m*3 12.8 C 11.3 km/h
939 16-02-2020 06:10:00 12.9 C 7.78 g/m*3 12.9 C 6.4 km/h
940 16-02-2020 06:15:00 12.9 C 7.66 g/m*3 12.9 C 11.3 km/h
941 16-02-2020 06:20:00 13 C 7.6 g/m*3 13 C 14.5 km/h
942 16-02-2020 06:25:00 13.1 C 7.65 g/m*3 13.1 C 11.3 km/h
943 16-02-2020 06:30:00 13.3 C 7.74 g/m*3 13.3 C 9.7 km/h
944 16-02-2020 06:35:00 13.4 C 7.79 g/m*3 13.4 C 8.1 km/h
945 16-02-2020 06:40:00 13.4 C 7.79 g/m*3 13.4 C 14.5 km/h
946 16-02-2020 06:45:00 13.6 C 7.89 g/m*3 13.6 C 11.3 km/h
947 16-02-2020 06:50:00 13.7 C 7.82 g/m*3 13.7 C 19.3 km/h
948 16-02-2020 06:55:00 13.7 C 7.93 g/m*3 13.7 C 9.7 km/h
949 16-02-2020 07:00:00 13.7 C 7.93 g/m*3 13.7 C 9.7 km/h
950 16-02-2020 07:05:00 13.7 C 8.05 g/m*3 13.7 C 24.1 km/h
Sensor: Nr:Datum:Temp:Abs-Feuchte:Windchill:Wind:
Aussen-T/F 951 16-02-2020 07:10:00 13.7 C 8.05 g/m*3 13.7 C 11.3 km/h
952 16-02-2020 07:15:00 13.7 C 8.05 g/m*3 13.7 C 11.3 km/h
953 16-02-2020 07:20:00 13.7 C 8.17 g/m*3 13.7 C 14.5 km/h
954 16-02-2020 07:25:00 13.8 C 8.34 g/m*3 13.8 C 17.7 km/h
955 16-02-2020 07:30:00 14 C 8.44 g/m*3 14 C 24.1 km/h
956 16-02-2020 07:35:00 14.1 C 8.5 g/m*3 14.1 C 32.2 km/h
957 16-02-2020 07:40:00 14.1 C 8.62 g/m*3 14.1 C 19.3 km/h
958 16-02-2020 07:45:00 14.1 C 8.62 g/m*3 14.1 C 17.7 km/h
959 16-02-2020 07:50:00 14.1 C 8.62 g/m*3 14.1 C 20.9 km/h
960 16-02-2020 07:55:00 14.1 C 8.62 g/m*3 14.1 C 30.6 km/h
961 16-02-2020 08:00:00 14 C 8.68 g/m*3 14 C 17.7 km/h
962 16-02-2020 08:05:00 13.9 C 8.63 g/m*3 13.9 C 30.6 km/h
963 16-02-2020 08:10:00 13.9 C 8.75 g/m*3 13.9 C 24.1 km/h
964 16-02-2020 08:15:00 13.8 C 8.7 g/m*3 13.8 C 24.1 km/h
965 16-02-2020 08:20:00 13.8 C 8.82 g/m*3 13.8 C 19.3 km/h
966 16-02-2020 08:25:00 13.7 C 8.76 g/m*3 13.7 C 20.9 km/h
967 16-02-2020 08:30:00 13.7 C 8.88 g/m*3 13.7 C 16.1 km/h
968 16-02-2020 08:35:00 13.6 C 8.83 g/m*3 13.6 C 14.5 km/h
969 16-02-2020 08:40:00 13.6 C 8.83 g/m*3 13.6 C 25.7 km/h
970 16-02-2020 08:45:00 13.7 C 8.88 g/m*3 13.7 C 17.7 km/h
971 16-02-2020 08:50:00 13.7 C 8.88 g/m*3 13.7 C 19.3 km/h
972 16-02-2020 08:55:00 13.7 C 8.88 g/m*3 13.7 C 29 km/h
973 16-02-2020 09:00:00 13.8 C 8.94 g/m*3 13.8 C 29 km/h
974 16-02-2020 09:05:00 13.8 C 8.94 g/m*3 13.8 C 17.7 km/h
975 16-02-2020 09:10:00 13.8 C 8.82 g/m*3 13.8 C 19.3 km/h
Sensor: Nr:Datum:Temp:Abs-Feuchte:Windchill:Wind:
Aussen-T/F 976 16-02-2020 09:15:00 13.8 C 8.82 g/m*3 13.8 C 17.7 km/h
977 16-02-2020 09:20:00 13.8 C 8.82 g/m*3 13.8 C 14.5 km/h
978 16-02-2020 09:25:00 13.9 C 8.75 g/m*3 13.9 C 20.9 km/h
979 16-02-2020 09:30:00 14 C 8.81 g/m*3 14 C 19.3 km/h
980 16-02-2020 09:35:00 14.1 C 8.74 g/m*3 14.1 C 16.1 km/h
981 16-02-2020 09:40:00 14.1 C 8.62 g/m*3 14.1 C 17.7 km/h
982 16-02-2020 09:45:00 14.1 C 8.62 g/m*3 14.1 C 20.9 km/h
983 16-02-2020 09:50:00 14.1 C 8.62 g/m*3 14.1 C 12.9 km/h
984 16-02-2020 09:55:00 14.2 C 8.55 g/m*3 14.2 C 22.5 km/h
985 16-02-2020 10:00:00 14.2 C 8.55 g/m*3 14.2 C 12.9 km/h
986 16-02-2020 10:05:00 14.2 C 8.55 g/m*3 14.2 C 22.5 km/h
987 16-02-2020 10:10:00 14.2 C 8.55 g/m*3 14.2 C 14.5 km/h
988 16-02-2020 10:15:00 14.2 C 8.67 g/m*3 14.2 C 19.3 km/h
989 16-02-2020 10:20:00 14.2 C 8.55 g/m*3 14.2 C 16.1 km/h
990 16-02-2020 10:25:00 14.3 C 8.72 g/m*3 14.3 C 14.5 km/h
991 16-02-2020 10:30:00 14.3 C 8.6 g/m*3 14.3 C 12.9 km/h
992 16-02-2020 10:35:00 14.4 C 8.65 g/m*3 14.4 C 11.3 km/h
993 16-02-2020 10:40:00 14.6 C 8.63 g/m*3 14.6 C 12.9 km/h
994 16-02-2020 10:45:00 14.7 C 8.69 g/m*3 14.7 C 11.3 km/h
995 16-02-2020 10:50:00 14.7 C 8.69 g/m*3 14.7 C 9.7 km/h
996 16-02-2020 10:55:00 14.8 C 8.61 g/m*3 14.8 C 11.3 km/h
997 16-02-2020 11:00:00 14.8 C 8.61 g/m*3 14.8 C 12.9 km/h
998 16-02-2020 11:05:00 14.9 C 8.67 g/m*3 14.9 C 9.7 km/h
999 16-02-2020 11:10:00 15.1 C 8.51 g/m*3 15.1 C 22.5 km/h
1000 16-02-2020 11:15:00 15.2 C 8.57 g/m*3 15.2 C 24.1 km/h
Sensor: Nr:Datum:Temp:Abs-Feuchte:Windchill:Wind:
Aussen-T/F 1001 16-02-2020 11:20:00 15.3 C 8.49 g/m*3 15.3 C 8.1 km/h
1002 16-02-2020 11:25:00 15.4 C 8.41 g/m*3 15.4 C 22.5 km/h
1003 16-02-2020 11:30:00 15.6 C 8.51 g/m*3 15.6 C 14.5 km/h
1004 16-02-2020 11:35:00 15.7 C 8.56 g/m*3 15.7 C 14.5 km/h
1005 16-02-2020 11:40:00 15.7 C 8.43 g/m*3 15.7 C 9.7 km/h
1006 16-02-2020 11:45:00 15.8 C 8.35 g/m*3 15.8 C 9.7 km/h
1007 16-02-2020 11:50:00 15.9 C 8.4 g/m*3 15.9 C 3.2 km/h
1008 16-02-2020 11:55:00 15.9 C 8.26 g/m*3 15.9 C 9.7 km/h
1009 16-02-2020 12:00:00 16 C 8.31 g/m*3 16 C 12.9 km/h
1010 16-02-2020 12:05:00 16.1 C 8.22 g/m*3 16.1 C 9.7 km/h
1011 16-02-2020 12:10:00 16.1 C 8.22 g/m*3 16.1 C 9.7 km/h
1012 16-02-2020 12:15:00 16.2 C 8.14 g/m*3 16.2 C 12.9 km/h
1013 16-02-2020 12:20:00 16.3 C 8.19 g/m*3 16.3 C 19.3 km/h
1014 16-02-2020 12:25:00 16.4 C 8.1 g/m*3 16.4 C 12.9 km/h
1015 16-02-2020 12:30:00 16.6 C 8.19 g/m*3 16.6 C 19.3 km/h
1016 16-02-2020 12:35:00 16.6 C 8.19 g/m*3 16.6 C 12.9 km/h
1017 16-02-2020 12:40:00 16.6 C 8.05 g/m*3 16.6 C 17.7 km/h
1018 16-02-2020 12:45:00 16.7 C 8.1 g/m*3 16.7 C 11.3 km/h
1019 16-02-2020 12:50:00 16.8 C 8.15 g/m*3 16.8 C 14.5 km/h
1020 16-02-2020 12:55:00 16.8 C 8.15 g/m*3 16.8 C 9.7 km/h
1021 16-02-2020 13:00:00 17 C 8.1 g/m*3 17 C 16.1 km/h
1022 16-02-2020 13:05:00 17.1 C 8.01 g/m*3 17.1 C 20.9 km/h
1023 16-02-2020 13:10:00 17.1 C 8.01 g/m*3 17.1 C 14.5 km/h
1024 16-02-2020 13:15:00 17 C 8.1 g/m*3 17 C 24.1 km/h
1025 16-02-2020 13:20:00 17 C 7.96 g/m*3 17 C 16.1 km/h
Sensor: Nr:Datum:Temp:Abs-Feuchte:Windchill:Wind:
Aussen-T/F 1026 16-02-2020 13:25:00 17 C 7.96 g/m*3 17 C 12.9 km/h
1027 16-02-2020 13:30:00 17 C 7.81 g/m*3 17 C 24.1 km/h
1028 16-02-2020 13:35:00 17.2 C 8.05 g/m*3 17.2 C 17.7 km/h
1029 16-02-2020 13:40:00 17.4 C 8.15 g/m*3 17.4 C 14.5 km/h
1030 16-02-2020 13:45:00 17.7 C 8 g/m*3 17.7 C 22.5 km/h
1031 16-02-2020 13:50:00 17.8 C 8.04 g/m*3 17.8 C 17.7 km/h
1032 16-02-2020 13:55:00 17.9 C 8.09 g/m*3 17.9 C 24.1 km/h
1033 16-02-2020 14:00:00 17.9 C 7.94 g/m*3 17.9 C 22.5 km/h
1034 16-02-2020 14:05:00 17.8 C 7.89 g/m*3 17.8 C 19.3 km/h
1035 16-02-2020 14:10:00 17.8 C 8.04 g/m*3 17.8 C 16.1 km/h
1036 16-02-2020 14:15:00 17.8 C 7.89 g/m*3 17.8 C 22.5 km/h
1037 16-02-2020 14:20:00 17.8 C 7.89 g/m*3 17.8 C 25.7 km/h
1038 16-02-2020 14:25:00 17.9 C 7.94 g/m*3 17.9 C 22.5 km/h
1039 16-02-2020 14:30:00 17.9 C 7.94 g/m*3 17.9 C 22.5 km/h
1040 16-02-2020 14:35:00 17.9 C 7.94 g/m*3 17.9 C 19.3 km/h
1041 16-02-2020 14:40:00 17.8 C 7.89 g/m*3 17.8 C 19.3 km/h
1042 16-02-2020 14:45:00 17.8 C 8.04 g/m*3 17.8 C 17.7 km/h
1043 16-02-2020 14:50:00 17.8 C 8.04 g/m*3 17.8 C 8.1 km/h
1044 16-02-2020 14:55:00 17.8 C 8.04 g/m*3 17.8 C 16.1 km/h
1045 16-02-2020 15:00:00 17.8 C 8.04 g/m*3 17.8 C 12.9 km/h
1046 16-02-2020 15:05:00 17.7 C 8 g/m*3 17.7 C 12.9 km/h
1047 16-02-2020 15:10:00 17.7 C 8 g/m*3 17.7 C 8.1 km/h
1048 16-02-2020 15:15:00 17.7 C 8 g/m*3 17.7 C 11.3 km/h
1049 16-02-2020 15:20:00 17.6 C 8.25 g/m*3 17.6 C 9.7 km/h
1050 16-02-2020 15:25:00 17.6 C 8.1 g/m*3 17.6 C 6.4 km/h
Sensor: Nr:Datum:Temp:Abs-Feuchte:Windchill:Wind:
Aussen-T/F 1051 16-02-2020 15:30:00 17.6 C 7.95 g/m*3 17.6 C 12.9 km/h
1052 16-02-2020 15:35:00 17.6 C 8.1 g/m*3 17.6 C 9.7 km/h
1053 16-02-2020 15:40:00 17.6 C 7.95 g/m*3 17.6 C 14.5 km/h
1054 16-02-2020 15:45:00 17.7 C 8.15 g/m*3 17.7 C 9.7 km/h
1055 16-02-2020 15:50:00 17.8 C 8.04 g/m*3 17.8 C 11.3 km/h
1056 16-02-2020 15:55:00 17.9 C 7.94 g/m*3 17.9 C 16.1 km/h
1057 16-02-2020 16:00:00 18 C 7.83 g/m*3 18 C 20.9 km/h
1058 16-02-2020 16:05:00 18 C 7.83 g/m*3 18 C 24.1 km/h
1059 16-02-2020 16:10:00 18.1 C 8.03 g/m*3 18.1 C 22.5 km/h
1060 16-02-2020 16:15:00 17.9 C 7.94 g/m*3 17.9 C 9.7 km/h
1061 16-02-2020 16:20:00 17.8 C 7.89 g/m*3 17.8 C 19.3 km/h
1062 16-02-2020 16:25:00 17.8 C 7.89 g/m*3 17.8 C 25.7 km/h
1063 16-02-2020 16:30:00 17.8 C 7.89 g/m*3 17.8 C 22.5 km/h
1064 16-02-2020 16:35:00 17.8 C 8.04 g/m*3 17.8 C 11.3 km/h
1065 16-02-2020 16:40:00 17.7 C 7.85 g/m*3 17.7 C 16.1 km/h
1066 16-02-2020 16:45:00 17.6 C 7.95 g/m*3 17.6 C 14.5 km/h
1067 16-02-2020 16:50:00 17.4 C 7.85 g/m*3 17.4 C 14.5 km/h
1068 16-02-2020 16:55:00 17.2 C 7.91 g/m*3 17.2 C 8.1 km/h
1069 16-02-2020 17:00:00 17.1 C 7.86 g/m*3 17.1 C 9.7 km/h
1070 16-02-2020 17:05:00 16.9 C 7.91 g/m*3 16.9 C 11.3 km/h
1071 16-02-2020 17:10:00 16.8 C 7.86 g/m*3 16.8 C 14.5 km/h
1072 16-02-2020 17:15:00 16.7 C 7.96 g/m*3 16.7 C 9.7 km/h
1073 16-02-2020 17:20:00 16.5 C 8.14 g/m*3 16.5 C 0 km/h
1074 16-02-2020 17:25:00 16.2 C 7.86 g/m*3 16.2 C 8.1 km/h
1075 16-02-2020 17:30:00 16.1 C 7.95 g/m*3 16.1 C 3.2 km/h
Sensor: Nr:Datum:Temp:Abs-Feuchte:Windchill:Wind:
Aussen-T/F 1076 16-02-2020 17:35:00 15.9 C 7.85 g/m*3 15.9 C 12.9 km/h
1077 16-02-2020 17:40:00 15.9 C 7.85 g/m*3 15.9 C 8.1 km/h
1078 16-02-2020 17:45:00 15.8 C 7.81 g/m*3 15.8 C 8.1 km/h
1079 16-02-2020 17:50:00 15.7 C 7.89 g/m*3 15.7 C 3.2 km/h
1080 16-02-2020 17:55:00 15.4 C 7.75 g/m*3 15.4 C 6.4 km/h
1081 16-02-2020 18:00:00 15.3 C 7.7 g/m*3 15.3 C 8.1 km/h
1082 16-02-2020 18:05:00 15.3 C 7.7 g/m*3 15.3 C 14.5 km/h
1083 16-02-2020 18:10:00 15.3 C 7.7 g/m*3 15.3 C 8.1 km/h
1084 16-02-2020 18:15:00 15.3 C 7.7 g/m*3 15.3 C 11.3 km/h
1085 16-02-2020 18:20:00 15.4 C 7.75 g/m*3 15.4 C 12.9 km/h
1086 16-02-2020 18:25:00 15.4 C 7.62 g/m*3 15.4 C 12.9 km/h
1087 16-02-2020 18:30:00 15.5 C 7.67 g/m*3 15.5 C 11.3 km/h
1088 16-02-2020 18:35:00 15.5 C 7.67 g/m*3 15.5 C 11.3 km/h
1089 16-02-2020 18:40:00 15.5 C 7.67 g/m*3 15.5 C 11.3 km/h
1090 16-02-2020 18:45:00 15.6 C 7.58 g/m*3 15.6 C 11.3 km/h
1091 16-02-2020 18:50:00 15.7 C 7.63 g/m*3 15.7 C 22.5 km/h
1092 16-02-2020 18:55:00 15.7 C 7.63 g/m*3 15.7 C 9.7 km/h
1093 16-02-2020 19:00:00 15.7 C 7.63 g/m*3 15.7 C 8.1 km/h
1094 16-02-2020 19:05:00 15.6 C 7.58 g/m*3 15.6 C 11.3 km/h
1095 16-02-2020 19:10:00 15.8 C 7.67 g/m*3 15.8 C 14.5 km/h
1096 16-02-2020 19:15:00 15.8 C 7.54 g/m*3 15.8 C 14.5 km/h
1097 16-02-2020 19:20:00 15.8 C 7.67 g/m*3 15.8 C 8.1 km/h
1098 16-02-2020 19:25:00 15.9 C 7.58 g/m*3 15.9 C 14.5 km/h
1099 16-02-2020 19:30:00 15.9 C 7.72 g/m*3 15.9 C 9.7 km/h
1100 16-02-2020 19:35:00 15.9 C 7.72 g/m*3 15.9 C 9.7 km/h
Sensor: Nr:Datum:Temp:Abs-Feuchte:Windchill:Wind:
Aussen-T/F 1101 16-02-2020 19:40:00 15.9 C 7.72 g/m*3 15.9 C 22.5 km/h
1102 16-02-2020 19:45:00 15.9 C 7.72 g/m*3 15.9 C 4.8 km/h
1103 16-02-2020 19:50:00 15.8 C 7.81 g/m*3 15.8 C 14.5 km/h
1104 16-02-2020 19:55:00 15.8 C 7.81 g/m*3 15.8 C 11.3 km/h
1105 16-02-2020 20:00:00 15.9 C 7.72 g/m*3 15.9 C 19.3 km/h
1106 16-02-2020 20:05:00 16 C 7.77 g/m*3 16 C 16.1 km/h
1107 16-02-2020 20:10:00 16.1 C 7.81 g/m*3 16.1 C 11.3 km/h
1108 16-02-2020 20:15:00 16.1 C 7.81 g/m*3 16.1 C 19.3 km/h
1109 16-02-2020 20:20:00 16.1 C 7.81 g/m*3 16.1 C 24.1 km/h
1110 16-02-2020 20:25:00 16.2 C 7.86 g/m*3 16.2 C 12.9 km/h
1111 16-02-2020 20:30:00 16.2 C 7.86 g/m*3 16.2 C 14.5 km/h
1112 16-02-2020 20:35:00 16.2 C 7.86 g/m*3 16.2 C 12.9 km/h
1113 16-02-2020 20:40:00 16.2 C 7.86 g/m*3 16.2 C 16.1 km/h
1114 16-02-2020 20:45:00 16.2 C 8 g/m*3 16.2 C 16.1 km/h
1115 16-02-2020 20:50:00 16.1 C 7.95 g/m*3 16.1 C 19.3 km/h
1116 16-02-2020 20:55:00 16.2 C 8 g/m*3 16.2 C 20.9 km/h
1117 16-02-2020 21:00:00 16.3 C 7.91 g/m*3 16.3 C 30.6 km/h
1118 16-02-2020 21:05:00 16.4 C 7.96 g/m*3 16.4 C 17.7 km/h
1119 16-02-2020 21:10:00 16.3 C 7.91 g/m*3 16.3 C 24.1 km/h
1120 16-02-2020 21:15:00 16.3 C 8.05 g/m*3 16.3 C 24.1 km/h
1121 16-02-2020 21:20:00 16.3 C 8.05 g/m*3 16.3 C 24.1 km/h
1122 16-02-2020 21:25:00 16.3 C 8.05 g/m*3 16.3 C 27.4 km/h
1123 16-02-2020 21:30:00 16.4 C 8.1 g/m*3 16.4 C 45 km/h
1124 16-02-2020 21:35:00 16.5 C 8.14 g/m*3 16.5 C 25.7 km/h
1125 16-02-2020 21:40:00 16.6 C 8.19 g/m*3 16.6 C 29 km/h
Sensor: Nr:Datum:Temp:Abs-Feuchte:Windchill:Wind:
Aussen-T/F 1126 16-02-2020 21:45:00 16.5 C 8.14 g/m*3 16.5 C 25.7 km/h
1127 16-02-2020 21:50:00 16.6 C 8.19 g/m*3 16.6 C 32.2 km/h
1128 16-02-2020 21:55:00 16.6 C 8.19 g/m*3 16.6 C 38.6 km/h
1129 16-02-2020 22:00:00 16.6 C 8.33 g/m*3 16.6 C 30.6 km/h
1130 16-02-2020 22:05:00 16.6 C 8.33 g/m*3 16.6 C 40.2 km/h
1131 16-02-2020 22:10:00 16.4 C 8.23 g/m*3 16.4 C 22.5 km/h
1132 16-02-2020 22:15:00 16.4 C 8.37 g/m*3 16.4 C 19.3 km/h
1133 16-02-2020 22:20:00 16.3 C 8.32 g/m*3 16.3 C 20.9 km/h
1134 16-02-2020 22:25:00 16.3 C 8.46 g/m*3 16.3 C 33.8 km/h
1135 16-02-2020 22:30:00 16.3 C 8.46 g/m*3 16.3 C 25.7 km/h
1136 16-02-2020 22:35:00 16.3 C 8.6 g/m*3 16.3 C 32.2 km/h
1137 16-02-2020 22:40:00 16.2 C 8.55 g/m*3 16.2 C 17.7 km/h
1138 16-02-2020 22:45:00 16.2 C 8.55 g/m*3 16.2 C 20.9 km/h
1139 16-02-2020 22:50:00 16.2 C 8.69 g/m*3 16.2 C 27.4 km/h
1140 16-02-2020 22:55:00 16.2 C 8.69 g/m*3 16.2 C 32.2 km/h
1141 16-02-2020 23:00:00 16.1 C 8.91 g/m*3 16.1 C 25.7 km/h
1142 16-02-2020 23:05:00 15.8 C 9.02 g/m*3 15.8 C 25.7 km/h
1143 16-02-2020 23:10:00 15.5 C 9.12 g/m*3 15.5 C 25.7 km/h
1144 16-02-2020 23:15:00 14.8 C 9.63 g/m*3 14.8 C 33.8 km/h
1145 16-02-2020 23:20:00 13.6 C 9.18 g/m*3 13.6 C 20.9 km/h
1146 16-02-2020 23:25:00 12.8 C 8.96 g/m*3 12.8 C 17.7 km/h
1147 16-02-2020 23:30:00 12 C 8.63 g/m*3 12 C 16.1 km/h
1148 16-02-2020 23:35:00 11.5 C 8.68 g/m*3 11.5 C 11.3 km/h
1149 16-02-2020 23:40:00 11.2 C 8.62 g/m*3 11.2 C 12.9 km/h
1150 16-02-2020 23:45:00 10.9 C 8.45 g/m*3 9.51 C 11.3 km/h
Sensor: Nr:Datum:Temp:Abs-Feuchte:Windchill:Wind:
Aussen-T/F 1151 16-02-2020 23:50:00 10.7 C 8.45 g/m*3 9.04 C 12.9 km/h
1152 16-02-2020 23:55:00 10.6 C 8.39 g/m*3 9.14 C 11.3 km/h
1153 17-02-2020 00:00:00 10.3 C 8.24 g/m*3 8.55 C 12.9 km/h
1154 17-02-2020 00:05:00 10.2 C 8.28 g/m*3 7.86 C 17.7 km/h
1155 17-02-2020 00:10:00 10.2 C 8.28 g/m*3 9.6 C 6.4 km/h
1156 17-02-2020 00:15:00 10.1 C 8.32 g/m*3 10.1 C 3.2 km/h
1157 17-02-2020 00:20:00 10 C 8.36 g/m*3 10 C 4.8 km/h
1158 17-02-2020 00:25:00 9.9 C 8.31 g/m*3 9.25 C 6.4 km/h
1159 17-02-2020 00:30:00 9.8 C 8.26 g/m*3 8.75 C 8.1 km/h
1160 17-02-2020 00:35:00 9.8 C 8.26 g/m*3 8.18 C 11.3 km/h
1161 17-02-2020 00:40:00 9.8 C 8.26 g/m*3 8.18 C 11.3 km/h
1162 17-02-2020 00:45:00 9.8 C 8.26 g/m*3 8.18 C 11.3 km/h
1163 17-02-2020 00:50:00 9.8 C 8.16 g/m*3 7.94 C 12.9 km/h
1164 17-02-2020 00:55:00 9.8 C 8.16 g/m*3 8.75 C 8.1 km/h
1165 17-02-2020 01:00:00 9.7 C 8.11 g/m*3 8.63 C 8.1 km/h
1166 17-02-2020 01:05:00 9.7 C 8.11 g/m*3 8.06 C 11.3 km/h
1167 17-02-2020 01:10:00 9.7 C 8.11 g/m*3 8.06 C 11.3 km/h
1168 17-02-2020 01:15:00 9.6 C 8.06 g/m*3 7.7 C 12.9 km/h
1169 17-02-2020 01:20:00 9.6 C 7.97 g/m*3 7.7 C 12.9 km/h
1170 17-02-2020 01:25:00 9.5 C 7.92 g/m*3 7.58 C 12.9 km/h
1171 17-02-2020 01:30:00 9.5 C 7.92 g/m*3 6.66 C 20.9 km/h
1172 17-02-2020 01:35:00 9.4 C 7.78 g/m*3 6.86 C 17.7 km/h
1173 17-02-2020 01:40:00 9.3 C 7.73 g/m*3 7.33 C 12.9 km/h
1174 17-02-2020 01:45:00 9.3 C 7.82 g/m*3 8.56 C 6.4 km/h
1175 17-02-2020 01:50:00 9.2 C 7.86 g/m*3 8.05 C 8.1 km/h
Sensor: Nr:Datum:Temp:Abs-Feuchte:Windchill:Wind:
Aussen-T/F 1176 17-02-2020 01:55:00 9.1 C 7.9 g/m*3 9.1 C 3.2 km/h
1177 17-02-2020 02:00:00 9 C 7.93 g/m*3 9 C 1.6 km/h
1178 17-02-2020 02:05:00 8.9 C 7.97 g/m*3 7.09 C 11.3 km/h
1179 17-02-2020 02:10:00 8.8 C 7.83 g/m*3 5.62 C 22.5 km/h
1180 17-02-2020 02:15:00 8.7 C 7.7 g/m*3 6.38 C 14.5 km/h
1181 17-02-2020 02:20:00 8.6 C 7.39 g/m*3 5.52 C 20.9 km/h
1182 17-02-2020 02:25:00 8.6 C 7.39 g/m*3 5.68 C 19.3 km/h
1183 17-02-2020 02:30:00 8.4 C 7.3 g/m*3 5.8 C 16.1 km/h
1184 17-02-2020 02:35:00 8.3 C 7 g/m*3 4.98 C 22.5 km/h
1185 17-02-2020 02:40:00 8.3 C 7.08 g/m*3 5.14 C 20.9 km/h
1186 17-02-2020 02:45:00 8.2 C 6.95 g/m*3 5.99 C 12.9 km/h
1187 17-02-2020 02:50:00 8.2 C 6.87 g/m*3 5.76 C 14.5 km/h
1188 17-02-2020 02:55:00 8.2 C 6.87 g/m*3 5.76 C 14.5 km/h
1189 17-02-2020 03:00:00 8.2 C 6.87 g/m*3 5.99 C 12.9 km/h
1190 17-02-2020 03:05:00 8.3 C 6.91 g/m*3 5.89 C 14.5 km/h
1191 17-02-2020 03:10:00 8.3 C 6.91 g/m*3 5.48 C 17.7 km/h
1192 17-02-2020 03:15:00 8.3 C 6.91 g/m*3 7.41 C 6.4 km/h
1193 17-02-2020 03:20:00 8.3 C 6.91 g/m*3 6.37 C 11.3 km/h
1194 17-02-2020 03:25:00 8.3 C 7 g/m*3 6.12 C 12.9 km/h
1195 17-02-2020 03:30:00 8.3 C 7 g/m*3 6.37 C 11.3 km/h
1196 17-02-2020 03:35:00 8.3 C 7 g/m*3 6.12 C 12.9 km/h
1197 17-02-2020 03:40:00 8.3 C 6.91 g/m*3 6.37 C 11.3 km/h
1198 17-02-2020 03:45:00 8.4 C 6.96 g/m*3 5.43 C 19.3 km/h
1199 17-02-2020 03:50:00 8.4 C 6.96 g/m*3 6.01 C 14.5 km/h
1200 17-02-2020 03:55:00 8.4 C 6.96 g/m*3 6.24 C 12.9 km/h
Sensor: Nr:Datum:Temp:Abs-Feuchte:Windchill:Wind:
Aussen-T/F 1201 17-02-2020 04:00:00 8.4 C 6.96 g/m*3 6.01 C 14.5 km/h
1202 17-02-2020 04:05:00 8.4 C 6.96 g/m*3 5.43 C 19.3 km/h
1203 17-02-2020 04:10:00 8.3 C 6.91 g/m*3 5.48 C 17.7 km/h
1204 17-02-2020 04:15:00 8.3 C 6.91 g/m*3 6.12 C 12.9 km/h
1205 17-02-2020 04:20:00 8.3 C 6.91 g/m*3 5.89 C 14.5 km/h
1206 17-02-2020 04:25:00 8.3 C 6.91 g/m*3 6.12 C 12.9 km/h
1207 17-02-2020 04:30:00 8.3 C 7 g/m*3 6.12 C 12.9 km/h
1208 17-02-2020 04:35:00 8.3 C 7 g/m*3 5.68 C 16.1 km/h
1209 17-02-2020 04:40:00 8.2 C 6.95 g/m*3 7.29 C 6.4 km/h
1210 17-02-2020 04:45:00 8.2 C 6.95 g/m*3 6.87 C 8.1 km/h
1211 17-02-2020 04:50:00 8.2 C 6.95 g/m*3 6.54 C 9.7 km/h
1212 17-02-2020 04:55:00 8.2 C 7.03 g/m*3 6.87 C 8.1 km/h
1213 17-02-2020 05:00:00 8.1 C 6.99 g/m*3 6.13 C 11.3 km/h
1214 17-02-2020 05:05:00 8.1 C 6.99 g/m*3 6.75 C 8.1 km/h
1215 17-02-2020 05:10:00 8.1 C 6.99 g/m*3 6.42 C 9.7 km/h
1216 17-02-2020 05:15:00 8.1 C 6.99 g/m*3 7.17 C 6.4 km/h
1217 17-02-2020 05:20:00 8.1 C 6.99 g/m*3 6.42 C 9.7 km/h
1218 17-02-2020 05:25:00 8.1 C 6.99 g/m*3 7.17 C 6.4 km/h
1219 17-02-2020 05:30:00 8.1 C 7.07 g/m*3 7.17 C 6.4 km/h
1220 17-02-2020 05:35:00 8 C 7.03 g/m*3 8 C 4.8 km/h
1221 17-02-2020 05:40:00 7.9 C 6.98 g/m*3 6.94 C 6.4 km/h
1222 17-02-2020 05:45:00 7.9 C 6.98 g/m*3 5.63 C 12.9 km/h
1223 17-02-2020 05:50:00 8 C 7.03 g/m*3 6.01 C 11.3 km/h
1224 17-02-2020 05:55:00 7.9 C 6.98 g/m*3 7.9 C 4.8 km/h
1225 17-02-2020 06:00:00 7.9 C 7.06 g/m*3 6.94 C 6.4 km/h
Sensor: Nr:Datum:Temp:Abs-Feuchte:Windchill:Wind:
Aussen-T/F 1226 17-02-2020 06:05:00 7.9 C 7.06 g/m*3 7.9 C 4.8 km/h
1227 17-02-2020 06:10:00 7.9 C 7.06 g/m*3 7.9 C 4.8 km/h
1228 17-02-2020 06:15:00 7.9 C 7.06 g/m*3 6.52 C 8.1 km/h
1229 17-02-2020 06:20:00 7.9 C 7.06 g/m*3 6.94 C 6.4 km/h
1230 17-02-2020 06:25:00 8 C 7.11 g/m*3 5.52 C 14.5 km/h
1231 17-02-2020 06:30:00 8.1 C 7.16 g/m*3 6.13 C 11.3 km/h
1232 17-02-2020 06:35:00 8.2 C 7.12 g/m*3 6.25 C 11.3 km/h
1233 17-02-2020 06:40:00 8.2 C 7.12 g/m*3 6.87 C 8.1 km/h
1234 17-02-2020 06:45:00 8.2 C 7.12 g/m*3 5.99 C 12.9 km/h
1235 17-02-2020 06:50:00 8.2 C 7.12 g/m*3 6.54 C 9.7 km/h
1236 17-02-2020 06:55:00 8.2 C 7.12 g/m*3 6.25 C 11.3 km/h
1237 17-02-2020 07:00:00 8.3 C 7.16 g/m*3 5.89 C 14.5 km/h
1238 17-02-2020 07:05:00 8.3 C 7.16 g/m*3 6.12 C 12.9 km/h
1239 17-02-2020 07:10:00 8.3 C 7.16 g/m*3 8.3 C 3.2 km/h
1240 17-02-2020 07:15:00 8.3 C 7.16 g/m*3 6.66 C 9.7 km/h
1241 17-02-2020 07:20:00 8.2 C 7.12 g/m*3 6.87 C 8.1 km/h
1242 17-02-2020 07:25:00 8.2 C 7.12 g/m*3 8.2 C 3.2 km/h
1243 17-02-2020 07:30:00 8.1 C 7.07 g/m*3 8.1 C 0 km/h
1244 17-02-2020 07:35:00 8.1 C 7.16 g/m*3 6.75 C 8.1 km/h
1245 17-02-2020 07:40:00 8.1 C 7.16 g/m*3 8.1 C 1.6 km/h
1246 17-02-2020 07:45:00 8.1 C 7.16 g/m*3 5.87 C 12.9 km/h
1247 17-02-2020 07:50:00 8.1 C 7.16 g/m*3 8.1 C 3.2 km/h
1248 17-02-2020 07:55:00 8 C 7.11 g/m*3 8 C 1.6 km/h
1249 17-02-2020 08:00:00 7.9 C 7.06 g/m*3 7.9 C 4.8 km/h
1250 17-02-2020 08:05:00 7.9 C 7.06 g/m*3 6.94 C 6.4 km/h
Sensor: Nr:Datum:Temp:Abs-Feuchte:Windchill:Wind:
Aussen-T/F 1251 17-02-2020 08:10:00 7.9 C 7.06 g/m*3 7.9 C 3.2 km/h
1252 17-02-2020 08:15:00 8 C 7.11 g/m*3 7.06 C 6.4 km/h
1253 17-02-2020 08:20:00 8.1 C 7.16 g/m*3 8.1 C 3.2 km/h
1254 17-02-2020 08:25:00 8.1 C 7.16 g/m*3 8.1 C 3.2 km/h
1255 17-02-2020 08:30:00 8.1 C 7.16 g/m*3 8.1 C 3.2 km/h
1256 17-02-2020 08:35:00 8.2 C 7.2 g/m*3 8.2 C 1.6 km/h
1257 17-02-2020 08:40:00 8.1 C 7.16 g/m*3 8.1 C 3.2 km/h
1258 17-02-2020 08:45:00 8.2 C 7.12 g/m*3 5.99 C 12.9 km/h
1259 17-02-2020 08:50:00 8.3 C 7.16 g/m*3 6.99 C 8.1 km/h
1260 17-02-2020 08:55:00 8.4 C 7.21 g/m*3 8.4 C 4.8 km/h
1261 17-02-2020 09:00:00 8.5 C 7.26 g/m*3 7.64 C 6.4 km/h
1262 17-02-2020 09:05:00 8.6 C 7.22 g/m*3 6.48 C 12.9 km/h
1263 17-02-2020 09:10:00 8.6 C 7.22 g/m*3 7.01 C 9.7 km/h
1264 17-02-2020 09:15:00 8.7 C 7.18 g/m*3 7.46 C 8.1 km/h
1265 17-02-2020 09:20:00 8.7 C 7.18 g/m*3 8.7 C 3.2 km/h
1266 17-02-2020 09:25:00 8.7 C 7.18 g/m*3 6.38 C 14.5 km/h
1267 17-02-2020 09:30:00 8.8 C 7.22 g/m*3 8.8 C 4.8 km/h
1268 17-02-2020 09:35:00 8.8 C 7.22 g/m*3 7.98 C 6.4 km/h
1269 17-02-2020 09:40:00 8.8 C 7.31 g/m*3 8.8 C 1.6 km/h
1270 17-02-2020 09:45:00 8.8 C 7.31 g/m*3 8.8 C 4.8 km/h
1271 17-02-2020 09:50:00 8.7 C 7.18 g/m*3 8.7 C 4.8 km/h
1272 17-02-2020 09:55:00 8.7 C 7.18 g/m*3 7.46 C 8.1 km/h
1273 17-02-2020 10:00:00 8.7 C 7.18 g/m*3 7.46 C 8.1 km/h
1274 17-02-2020 10:05:00 8.7 C 7.18 g/m*3 7.13 C 9.7 km/h
1275 17-02-2020 10:10:00 8.8 C 7.22 g/m*3 8.8 C 3.2 km/h
Sensor: Nr:Datum:Temp:Abs-Feuchte:Windchill:Wind:
Aussen-T/F 1276 17-02-2020 10:15:00 8.8 C 7.14 g/m*3 7.25 C 9.7 km/h
1277 17-02-2020 10:20:00 8.8 C 7.14 g/m*3 6.97 C 11.3 km/h
1278 17-02-2020 10:25:00 8.9 C 7.27 g/m*3 7.37 C 9.7 km/h
1279 17-02-2020 10:30:00 9 C 7.23 g/m*3 7.49 C 9.7 km/h
1280 17-02-2020 10:35:00 9.1 C 7.36 g/m*3 8.33 C 6.4 km/h
1281 17-02-2020 10:40:00 9.1 C 7.36 g/m*3 8.33 C 6.4 km/h
1282 17-02-2020 10:45:00 9.2 C 7.32 g/m*3 7.46 C 11.3 km/h
1283 17-02-2020 10:50:00 9.2 C 7.32 g/m*3 7.21 C 12.9 km/h
1284 17-02-2020 10:55:00 9.3 C 7.37 g/m*3 7.85 C 9.7 km/h
1285 17-02-2020 11:00:00 9.3 C 7.28 g/m*3 7.85 C 9.7 km/h
1286 17-02-2020 11:05:00 9.3 C 7.19 g/m*3 6.56 C 19.3 km/h
1287 17-02-2020 11:10:00 9.3 C 7.1 g/m*3 6.73 C 17.7 km/h
1288 17-02-2020 11:15:00 9.4 C 7.15 g/m*3 6.53 C 20.9 km/h
1289 17-02-2020 11:20:00 9.4 C 7.24 g/m*3 7.46 C 12.9 km/h
1290 17-02-2020 11:25:00 9.4 C 7.15 g/m*3 7.24 C 14.5 km/h
1291 17-02-2020 11:30:00 9.5 C 7.19 g/m*3 7.36 C 14.5 km/h
1292 17-02-2020 11:35:00 9.5 C 7.1 g/m*3 7.16 C 16.1 km/h
1293 17-02-2020 11:40:00 9.6 C 7.15 g/m*3 7.48 C 14.5 km/h
1294 17-02-2020 11:45:00 9.5 C 7.1 g/m*3 7.36 C 14.5 km/h
1295 17-02-2020 11:50:00 9.5 C 7.1 g/m*3 7.58 C 12.9 km/h
1296 17-02-2020 11:55:00 9.5 C 7.01 g/m*3 7.36 C 14.5 km/h
1297 17-02-2020 12:00:00 9.5 C 7.1 g/m*3 8.09 C 9.7 km/h
1298 17-02-2020 12:05:00 9.6 C 7.05 g/m*3 7.11 C 17.7 km/h
1299 17-02-2020 12:10:00 9.6 C 7.05 g/m*3 7.7 C 12.9 km/h
1300 17-02-2020 12:15:00 9.6 C 7.05 g/m*3 8.21 C 9.7 km/h
Sensor: Nr:Datum:Temp:Abs-Feuchte:Windchill:Wind:
Aussen-T/F 1301 17-02-2020 12:20:00 9.6 C 6.96 g/m*3 7.48 C 14.5 km/h
1302 17-02-2020 12:25:00 9.5 C 6.83 g/m*3 6.82 C 19.3 km/h
1303 17-02-2020 12:30:00 9.5 C 6.83 g/m*3 7.82 C 11.3 km/h
1304 17-02-2020 12:35:00 9.5 C 6.92 g/m*3 6.98 C 17.7 km/h
1305 17-02-2020 12:40:00 9.5 C 6.92 g/m*3 7.16 C 16.1 km/h
1306 17-02-2020 12:45:00 9.6 C 6.87 g/m*3 7.11 C 17.7 km/h
1307 17-02-2020 12:50:00 9.6 C 6.78 g/m*3 7.94 C 11.3 km/h
1308 17-02-2020 12:55:00 9.6 C 6.87 g/m*3 7.29 C 16.1 km/h
1309 17-02-2020 13:00:00 9.6 C 6.78 g/m*3 7.48 C 14.5 km/h
1310 17-02-2020 13:05:00 9.7 C 6.82 g/m*3 7.82 C 12.9 km/h
1311 17-02-2020 13:10:00 9.8 C 6.87 g/m*3 7.94 C 12.9 km/h
1312 17-02-2020 13:15:00 9.8 C 6.77 g/m*3 7.04 C 20.9 km/h
1313 17-02-2020 13:20:00 9.8 C 6.87 g/m*3 8.18 C 11.3 km/h
1314 17-02-2020 13:25:00 10 C 6.95 g/m*3 7.29 C 20.9 km/h
1315 17-02-2020 13:30:00 10.2 C 6.95 g/m*3 7.86 C 17.7 km/h
1316 17-02-2020 13:35:00 10.2 C 7.04 g/m*3 7.7 C 19.3 km/h
1317 17-02-2020 13:40:00 10.3 C 7.09 g/m*3 8.16 C 16.1 km/h
1318 17-02-2020 13:45:00 10.3 C 7.09 g/m*3 8.34 C 14.5 km/h
1319 17-02-2020 13:50:00 10.4 C 7.04 g/m*3 7.66 C 22.5 km/h
1320 17-02-2020 13:55:00 10.3 C 6.99 g/m*3 7.82 C 19.3 km/h
1321 17-02-2020 14:00:00 10.3 C 6.99 g/m*3 7.53 C 22.5 km/h
1322 17-02-2020 14:05:00 10.2 C 7.14 g/m*3 7.7 C 19.3 km/h
1323 17-02-2020 14:10:00 10.3 C 7.09 g/m*3 7.67 C 20.9 km/h
1324 17-02-2020 14:15:00 10.3 C 7.18 g/m*3 7.53 C 22.5 km/h
1325 17-02-2020 14:20:00 10.4 C 7.13 g/m*3 7.66 C 22.5 km/h
Sensor: Nr:Datum:Temp:Abs-Feuchte:Windchill:Wind:
Aussen-T/F 1326 17-02-2020 14:25:00 10.5 C 7.18 g/m*3 8.23 C 17.7 km/h
1327 17-02-2020 14:30:00 10.6 C 7.22 g/m*3 8.36 C 17.7 km/h
1328 17-02-2020 14:35:00 10.6 C 7.12 g/m*3 8.05 C 20.9 km/h
1329 17-02-2020 14:40:00 10.6 C 7.22 g/m*3 8.71 C 14.5 km/h
1330 17-02-2020 14:45:00 10.6 C 7.12 g/m*3 8.53 C 16.1 km/h
1331 17-02-2020 14:50:00 10.6 C 7.22 g/m*3 7.91 C 22.5 km/h
1332 17-02-2020 14:55:00 10.5 C 7.18 g/m*3 7.41 C 27.4 km/h
1333 17-02-2020 15:00:00 10.5 C 7.18 g/m*3 8.07 C 19.3 km/h
1334 17-02-2020 15:05:00 10.6 C 7.22 g/m*3 8.53 C 16.1 km/h
1335 17-02-2020 15:10:00 10.6 C 7.22 g/m*3 9.14 C 11.3 km/h
1336 17-02-2020 15:15:00 10.7 C 7.17 g/m*3 8.32 C 19.3 km/h
1337 17-02-2020 15:20:00 10.6 C 7.22 g/m*3 7.66 C 25.7 km/h
1338 17-02-2020 15:25:00 10.7 C 7.27 g/m*3 8.65 C 16.1 km/h
1339 17-02-2020 15:30:00 10.7 C 7.17 g/m*3 8.65 C 16.1 km/h
1340 17-02-2020 15:35:00 10.7 C 7.27 g/m*3 9.04 C 12.9 km/h
1341 17-02-2020 15:40:00 10.8 C 7.22 g/m*3 8.61 C 17.7 km/h
1342 17-02-2020 15:45:00 10.9 C 7.26 g/m*3 8.43 C 20.9 km/h
1343 17-02-2020 15:50:00 10.9 C 7.16 g/m*3 8.9 C 16.1 km/h
1344 17-02-2020 15:55:00 11.1 C 7.25 g/m*3 11.1 C 14.5 km/h
1345 17-02-2020 16:00:00 11.1 C 7.25 g/m*3 11.1 C 14.5 km/h
1346 17-02-2020 16:05:00 11.1 C 7.15 g/m*3 11.1 C 17.7 km/h
1347 17-02-2020 16:10:00 10.9 C 7.16 g/m*3 8.58 C 19.3 km/h
1348 17-02-2020 16:15:00 10.8 C 7.12 g/m*3 8.3 C 20.9 km/h
1349 17-02-2020 16:20:00 10.8 C 7.22 g/m*3 8.78 C 16.1 km/h
1350 17-02-2020 16:25:00 10.8 C 7.12 g/m*3 8.96 C 14.5 km/h
Sensor: Nr:Datum:Temp:Abs-Feuchte:Windchill:Wind:
Aussen-T/F 1351 17-02-2020 16:30:00 10.8 C 7.22 g/m*3 8.45 C 19.3 km/h
1352 17-02-2020 16:35:00 10.8 C 7.22 g/m*3 8.78 C 16.1 km/h
1353 17-02-2020 16:40:00 11 C 7.31 g/m*3 9.21 C 14.5 km/h
1354 17-02-2020 16:45:00 11.2 C 7.2 g/m*3 11.2 C 16.1 km/h
1355 17-02-2020 16:50:00 11.2 C 7.2 g/m*3 11.2 C 16.1 km/h
1356 17-02-2020 16:55:00 11.1 C 7.05 g/m*3 11.1 C 17.7 km/h
1357 17-02-2020 17:00:00 10.9 C 7.06 g/m*3 8.58 C 19.3 km/h
1358 17-02-2020 17:05:00 10.8 C 7.02 g/m*3 8.45 C 19.3 km/h
1359 17-02-2020 17:10:00 10.6 C 6.93 g/m*3 8.53 C 16.1 km/h
1360 17-02-2020 17:15:00 10.6 C 7.03 g/m*3 9.14 C 11.3 km/h
1361 17-02-2020 17:20:00 10.4 C 7.04 g/m*3 9.16 C 9.7 km/h
1362 17-02-2020 17:25:00 10.4 C 7.04 g/m*3 9.46 C 8.1 km/h
1363 17-02-2020 17:30:00 10.1 C 7.19 g/m*3 7.28 C 22.5 km/h
1364 17-02-2020 17:35:00 9.2 C 7.32 g/m*3 7.46 C 11.3 km/h
1365 17-02-2020 17:40:00 8.4 C 6.96 g/m*3 4.83 C 25.7 km/h
1366 17-02-2020 17:45:00 7.9 C 6.9 g/m*3 5.18 C 16.1 km/h
1367 17-02-2020 17:50:00 7.7 C 6.97 g/m*3 5.65 C 11.3 km/h
1368 17-02-2020 17:55:00 7.5 C 6.88 g/m*3 5.14 C 12.9 km/h
1369 17-02-2020 18:00:00 7.4 C 6.76 g/m*3 4 C 20.9 km/h
1370 17-02-2020 18:05:00 7.4 C 6.76 g/m*3 3.14 C 30.6 km/h
1371 17-02-2020 18:10:00 7.4 C 6.76 g/m*3 4 C 20.9 km/h
1372 17-02-2020 18:15:00 7.4 C 6.68 g/m*3 4.78 C 14.5 km/h
1373 17-02-2020 18:20:00 7.4 C 6.68 g/m*3 5.93 C 8.1 km/h
1374 17-02-2020 18:25:00 7.4 C 6.68 g/m*3 5.28 C 11.3 km/h
1375 17-02-2020 18:30:00 7.3 C 6.64 g/m*3 3.87 C 20.9 km/h
Sensor: Nr:Datum:Temp:Abs-Feuchte:Windchill:Wind:
Aussen-T/F 1376 17-02-2020 18:35:00 7.3 C 6.64 g/m*3 5.81 C 8.1 km/h
1377 17-02-2020 18:40:00 7.1 C 6.55 g/m*3 4.41 C 14.5 km/h
1378 17-02-2020 18:45:00 7.1 C 6.55 g/m*3 4.41 C 14.5 km/h
1379 17-02-2020 18:50:00 7.1 C 6.55 g/m*3 4.92 C 11.3 km/h
1380 17-02-2020 18:55:00 7.2 C 6.52 g/m*3 4.53 C 14.5 km/h
1381 17-02-2020 19:00:00 7.2 C 6.59 g/m*3 5.35 C 9.7 km/h
1382 17-02-2020 19:05:00 7.1 C 6.47 g/m*3 4.19 C 16.1 km/h
1383 17-02-2020 19:10:00 7 C 6.51 g/m*3 5.11 C 9.7 km/h
1384 17-02-2020 19:15:00 6.9 C 6.47 g/m*3 4.99 C 9.7 km/h
1385 17-02-2020 19:20:00 6.8 C 6.5 g/m*3 6.8 C 1.6 km/h
1386 17-02-2020 19:25:00 6.7 C 6.46 g/m*3 5.11 C 8.1 km/h
1387 17-02-2020 19:30:00 6.6 C 6.49 g/m*3 5.44 C 6.4 km/h
1388 17-02-2020 19:35:00 6.5 C 6.45 g/m*3 4.2 C 11.3 km/h
1389 17-02-2020 19:40:00 6.4 C 6.48 g/m*3 4.08 C 11.3 km/h
1390 17-02-2020 19:45:00 6.4 C 6.48 g/m*3 3.55 C 14.5 km/h
1391 17-02-2020 19:50:00 6.5 C 6.52 g/m*3 4.2 C 11.3 km/h
1392 17-02-2020 19:55:00 6.5 C 6.52 g/m*3 6.5 C 4.8 km/h
1393 17-02-2020 20:00:00 6.3 C 6.44 g/m*3 6.3 C 0 km/h
1394 17-02-2020 20:05:00 6.2 C 6.4 g/m*3 6.2 C 3.2 km/h
1395 17-02-2020 20:10:00 6 C 6.31 g/m*3 6 C 1.6 km/h
1396 17-02-2020 20:15:00 5.8 C 6.3 g/m*3 5.8 C 1.6 km/h
1397 17-02-2020 20:20:00 5.7 C 6.26 g/m*3 5.7 C 1.6 km/h
1398 17-02-2020 20:25:00 5.5 C 6.25 g/m*3 5.5 C 3.2 km/h
1399 17-02-2020 20:30:00 5.3 C 6.17 g/m*3 5.3 C 3.2 km/h
1400 17-02-2020 20:35:00 5.2 C 6.2 g/m*3 5.2 C 3.2 km/h
Sensor: Nr:Datum:Temp:Abs-Feuchte:Windchill:Wind:
Aussen-T/F 1401 17-02-2020 20:40:00 5.1 C 6.16 g/m*3 5.1 C 1.6 km/h
1402 17-02-2020 20:45:00 5.1 C 6.22 g/m*3 5.1 C 1.6 km/h
1403 17-02-2020 20:50:00 4.9 C 6.14 g/m*3 4.9 C 0 km/h
1404 17-02-2020 20:55:00 4.9 C 6.14 g/m*3 4.9 C 3.2 km/h
1405 17-02-2020 21:00:00 4.9 C 6.21 g/m*3 4.9 C 0 km/h
1406 17-02-2020 21:05:00 4.9 C 6.21 g/m*3 4.9 C 3.2 km/h
1407 17-02-2020 21:10:00 5.1 C 6.36 g/m*3 5.1 C 0 km/h
1408 17-02-2020 21:15:00 5.2 C 6.4 g/m*3 5.2 C 3.2 km/h
1409 17-02-2020 21:20:00 5.3 C 6.45 g/m*3 5.3 C 1.6 km/h
1410 17-02-2020 21:25:00 5.4 C 6.49 g/m*3 5.4 C 1.6 km/h
1411 17-02-2020 21:30:00 5.5 C 6.6 g/m*3 5.5 C 3.2 km/h
1412 17-02-2020 21:35:00 5.6 C 6.65 g/m*3 5.6 C 1.6 km/h
1413 17-02-2020 21:40:00 5.6 C 6.57 g/m*3 5.6 C 0 km/h
1414 17-02-2020 21:45:00 5.6 C 6.57 g/m*3 5.6 C 3.2 km/h
1415 17-02-2020 21:50:00 5.6 C 6.57 g/m*3 5.6 C 1.6 km/h
1416 17-02-2020 21:55:00 5.6 C 6.57 g/m*3 5.6 C 3.2 km/h
1417 17-02-2020 22:00:00 5.6 C 6.57 g/m*3 5.6 C 1.6 km/h
1418 17-02-2020 22:05:00 5.7 C 6.69 g/m*3 5.7 C 1.6 km/h
1419 17-02-2020 22:10:00 6 C 6.82 g/m*3 6 C 4.8 km/h
1420 17-02-2020 22:15:00 6.2 C 6.91 g/m*3 4.98 C 6.4 km/h
1421 17-02-2020 22:20:00 6.5 C 6.97 g/m*3 4.51 C 9.7 km/h
1422 17-02-2020 22:25:00 6.8 C 7.04 g/m*3 3.61 C 17.7 km/h
1423 17-02-2020 22:30:00 7.1 C 7.02 g/m*3 5.23 C 9.7 km/h
1424 17-02-2020 22:35:00 7.3 C 7.03 g/m*3 5.47 C 9.7 km/h
1425 17-02-2020 22:40:00 7.6 C 7.09 g/m*3 4.81 C 16.1 km/h
Sensor: Nr:Datum:Temp:Abs-Feuchte:Windchill:Wind:
Aussen-T/F 1426 17-02-2020 22:45:00 7.7 C 6.97 g/m*3 5.65 C 11.3 km/h
1427 17-02-2020 22:50:00 7.9 C 6.98 g/m*3 4.8 C 19.3 km/h
1428 17-02-2020 22:55:00 8.1 C 6.99 g/m*3 5.64 C 14.5 km/h
1429 17-02-2020 23:00:00 8.2 C 6.95 g/m*3 5.18 C 19.3 km/h
1430 17-02-2020 23:05:00 8.3 C 7 g/m*3 5.89 C 14.5 km/h
1431 17-02-2020 23:10:00 8.3 C 7 g/m*3 6.37 C 11.3 km/h
1432 17-02-2020 23:15:00 8.2 C 6.95 g/m*3 6.25 C 11.3 km/h
1433 17-02-2020 23:20:00 8.2 C 7.03 g/m*3 6.87 C 8.1 km/h
1434 17-02-2020 23:25:00 8.1 C 6.99 g/m*3 6.75 C 8.1 km/h
1435 17-02-2020 23:30:00 7.9 C 6.98 g/m*3 6.94 C 6.4 km/h
1436 17-02-2020 23:35:00 7.8 C 6.94 g/m*3 5.51 C 12.9 km/h
1437 17-02-2020 23:40:00 7.8 C 6.86 g/m*3 5.77 C 11.3 km/h
1438 17-02-2020 23:45:00 7.8 C 6.86 g/m*3 5.77 C 11.3 km/h
1439 17-02-2020 23:50:00 7.8 C 6.77 g/m*3 5.27 C 14.5 km/h
1440 17-02-2020 23:55:00 7.8 C 6.69 g/m*3 5.77 C 11.3 km/h
1441 18-02-2020 00:00:00 7.8 C 6.77 g/m*3 7.8 C 4.8 km/h
1442 18-02-2020 00:05:00 7.8 C 6.69 g/m*3 6.06 C 9.7 km/h
1443 18-02-2020 00:10:00 7.9 C 6.74 g/m*3 4.8 C 19.3 km/h
1444 18-02-2020 00:15:00 8 C 6.7 g/m*3 7.06 C 6.4 km/h
1445 18-02-2020 00:20:00 8 C 6.7 g/m*3 5.52 C 14.5 km/h
1446 18-02-2020 00:25:00 8 C 6.61 g/m*3 5.52 C 14.5 km/h
1447 18-02-2020 00:30:00 8.1 C 6.66 g/m*3 6.42 C 9.7 km/h
1448 18-02-2020 00:35:00 8.1 C 6.57 g/m*3 5.64 C 14.5 km/h
1449 18-02-2020 00:40:00 8.1 C 6.57 g/m*3 5.43 C 16.1 km/h
1450 18-02-2020 00:45:00 8.2 C 6.62 g/m*3 5.76 C 14.5 km/h
Sensor: Nr:Datum:Temp:Abs-Feuchte:Windchill:Wind:
Aussen-T/F 1451 18-02-2020 00:50:00 8.2 C 6.62 g/m*3 5.18 C 19.3 km/h
1452 18-02-2020 00:55:00 8.1 C 6.57 g/m*3 5.05 C 19.3 km/h
1453 18-02-2020 01:00:00 8.1 C 6.57 g/m*3 5.64 C 14.5 km/h
1454 18-02-2020 01:05:00 8.2 C 6.53 g/m*3 5.55 C 16.1 km/h
1455 18-02-2020 01:10:00 8.2 C 6.53 g/m*3 5.76 C 14.5 km/h
1456 18-02-2020 01:15:00 8.2 C 6.62 g/m*3 5.99 C 12.9 km/h
1457 18-02-2020 01:20:00 8.2 C 6.62 g/m*3 6.87 C 8.1 km/h
1458 18-02-2020 01:25:00 8.1 C 6.57 g/m*3 6.75 C 8.1 km/h
1459 18-02-2020 01:30:00 8.1 C 6.57 g/m*3 6.75 C 8.1 km/h
1460 18-02-2020 01:35:00 8 C 6.61 g/m*3 6.3 C 9.7 km/h
1461 18-02-2020 01:40:00 8 C 6.61 g/m*3 5.75 C 12.9 km/h
1462 18-02-2020 01:45:00 7.9 C 6.65 g/m*3 4.98 C 17.7 km/h
1463 18-02-2020 01:50:00 7.9 C 6.65 g/m*3 7.9 C 4.8 km/h
1464 18-02-2020 01:55:00 7.9 C 6.65 g/m*3 5.63 C 12.9 km/h
1465 18-02-2020 02:00:00 7.8 C 6.61 g/m*3 5.06 C 16.1 km/h
1466 18-02-2020 02:05:00 7.8 C 6.61 g/m*3 5.77 C 11.3 km/h
1467 18-02-2020 02:10:00 7.8 C 6.61 g/m*3 6.06 C 9.7 km/h
1468 18-02-2020 02:15:00 7.8 C 6.61 g/m*3 6.06 C 9.7 km/h
1469 18-02-2020 02:20:00 7.7 C 6.57 g/m*3 5.65 C 11.3 km/h
1470 18-02-2020 02:25:00 7.6 C 6.53 g/m*3 4.81 C 16.1 km/h
1471 18-02-2020 02:30:00 7.6 C 6.53 g/m*3 5.02 C 14.5 km/h
1472 18-02-2020 02:35:00 7.5 C 6.48 g/m*3 5.7 C 9.7 km/h
1473 18-02-2020 02:40:00 7.4 C 6.44 g/m*3 5.58 C 9.7 km/h
1474 18-02-2020 02:45:00 7.4 C 6.44 g/m*3 5.58 C 9.7 km/h
1475 18-02-2020 02:50:00 7.3 C 6.4 g/m*3 5.47 C 9.7 km/h
Sensor: Nr:Datum:Temp:Abs-Feuchte:Windchill:Wind:
Aussen-T/F 1476 18-02-2020 02:55:00 7.3 C 6.48 g/m*3 5.47 C 9.7 km/h
1477 18-02-2020 03:00:00 7.3 C 6.48 g/m*3 5.16 C 11.3 km/h
1478 18-02-2020 03:05:00 7.3 C 6.48 g/m*3 6.25 C 6.4 km/h
1479 18-02-2020 03:10:00 7.3 C 6.48 g/m*3 5.81 C 8.1 km/h
1480 18-02-2020 03:15:00 7.4 C 6.52 g/m*3 4.78 C 14.5 km/h
1481 18-02-2020 03:20:00 7.5 C 6.48 g/m*3 5.14 C 12.9 km/h
1482 18-02-2020 03:25:00 7.6 C 6.44 g/m*3 4.42 C 19.3 km/h
1483 18-02-2020 03:30:00 7.6 C 6.53 g/m*3 5.53 C 11.3 km/h
1484 18-02-2020 03:35:00 7.6 C 6.53 g/m*3 5.26 C 12.9 km/h
1485 18-02-2020 03:40:00 7.5 C 6.4 g/m*3 4.68 C 16.1 km/h
1486 18-02-2020 03:45:00 7.4 C 6.44 g/m*3 4.56 C 16.1 km/h
1487 18-02-2020 03:50:00 7.3 C 6.4 g/m*3 5.81 C 8.1 km/h
1488 18-02-2020 03:55:00 7.2 C 6.44 g/m*3 5.04 C 11.3 km/h
1489 18-02-2020 04:00:00 7.2 C 6.44 g/m*3 4.53 C 14.5 km/h
1490 18-02-2020 04:05:00 7.1 C 6.4 g/m*3 4.92 C 11.3 km/h
1491 18-02-2020 04:10:00 6.9 C 6.31 g/m*3 5.79 C 6.4 km/h
1492 18-02-2020 04:15:00 6.8 C 6.27 g/m*3 4.87 C 9.7 km/h
1493 18-02-2020 04:20:00 6.8 C 6.27 g/m*3 4.04 C 14.5 km/h
1494 18-02-2020 04:25:00 6.8 C 6.27 g/m*3 3.82 C 16.1 km/h
1495 18-02-2020 04:30:00 6.8 C 6.27 g/m*3 4.87 C 9.7 km/h
1496 18-02-2020 04:35:00 6.7 C 6.23 g/m*3 4.44 C 11.3 km/h
1497 18-02-2020 04:40:00 6.7 C 6.31 g/m*3 5.11 C 8.1 km/h
1498 18-02-2020 04:45:00 6.7 C 6.31 g/m*3 4.75 C 9.7 km/h
1499 18-02-2020 04:50:00 6.7 C 6.31 g/m*3 4.17 C 12.9 km/h
1500 18-02-2020 04:55:00 6.6 C 6.19 g/m*3 2.99 C 20.9 km/h
Sensor: Nr:Datum:Temp:Abs-Feuchte:Windchill:Wind:
Aussen-T/F 1501 18-02-2020 05:00:00 6.6 C 6.27 g/m*3 2.99 C 20.9 km/h
1502 18-02-2020 05:05:00 6.6 C 6.19 g/m*3 4.32 C 11.3 km/h
1503 18-02-2020 05:10:00 6.5 C 6.15 g/m*3 3.67 C 14.5 km/h
1504 18-02-2020 05:15:00 6.4 C 6.18 g/m*3 3.55 C 14.5 km/h
1505 18-02-2020 05:20:00 6.4 C 6.18 g/m*3 3.55 C 14.5 km/h
1506 18-02-2020 05:25:00 6.3 C 6.14 g/m*3 2.61 C 20.9 km/h
1507 18-02-2020 05:30:00 6.4 C 6.18 g/m*3 2.91 C 19.3 km/h
1508 18-02-2020 05:35:00 6.3 C 6.14 g/m*3 3.68 C 12.9 km/h
1509 18-02-2020 05:40:00 6.3 C 6.14 g/m*3 3.43 C 14.5 km/h
1510 18-02-2020 05:45:00 6.3 C 6.14 g/m*3 2.12 C 25.7 km/h
1511 18-02-2020 05:50:00 6.3 C 6.14 g/m*3 3.96 C 11.3 km/h
1512 18-02-2020 05:55:00 6.2 C 6.18 g/m*3 2.66 C 19.3 km/h
1513 18-02-2020 06:00:00 6.2 C 6.18 g/m*3 2.86 C 17.7 km/h
1514 18-02-2020 06:05:00 6.2 C 6.18 g/m*3 3.56 C 12.9 km/h
1515 18-02-2020 06:10:00 6.1 C 6.14 g/m*3 4.04 C 9.7 km/h
1516 18-02-2020 06:15:00 6.1 C 6.14 g/m*3 3.43 C 12.9 km/h
1517 18-02-2020 06:20:00 6 C 6.17 g/m*3 2.41 C 19.3 km/h
1518 18-02-2020 06:25:00 6.1 C 6.21 g/m*3 3.18 C 14.5 km/h
1519 18-02-2020 06:30:00 6.2 C 6.25 g/m*3 4.15 C 9.7 km/h
1520 18-02-2020 06:35:00 6.2 C 6.18 g/m*3 3.84 C 11.3 km/h
1521 18-02-2020 06:40:00 6.2 C 6.18 g/m*3 3.3 C 14.5 km/h
1522 18-02-2020 06:45:00 6.1 C 6.14 g/m*3 2.73 C 17.7 km/h
1523 18-02-2020 06:50:00 6.1 C 6.14 g/m*3 2.95 C 16.1 km/h
1524 18-02-2020 06:55:00 6.1 C 6.14 g/m*3 3.72 C 11.3 km/h
1525 18-02-2020 07:00:00 5.9 C 6.06 g/m*3 3.8 C 9.7 km/h
Sensor: Nr:Datum:Temp:Abs-Feuchte:Windchill:Wind:
Aussen-T/F 1526 18-02-2020 07:05:00 5.9 C 6.06 g/m*3 3.48 C 11.3 km/h
1527 18-02-2020 07:10:00 5.8 C 6.02 g/m*3 2.58 C 16.1 km/h
1528 18-02-2020 07:15:00 5.8 C 6.09 g/m*3 3.68 C 9.7 km/h
1529 18-02-2020 07:20:00 5.9 C 6.13 g/m*3 3.48 C 11.3 km/h
1530 18-02-2020 07:25:00 5.9 C 6.13 g/m*3 4.17 C 8.1 km/h
1531 18-02-2020 07:30:00 5.9 C 6.13 g/m*3 3.8 C 9.7 km/h
1532 18-02-2020 07:35:00 5.8 C 6.09 g/m*3 3.68 C 9.7 km/h
1533 18-02-2020 07:40:00 5.8 C 6.09 g/m*3 2.81 C 14.5 km/h
1534 18-02-2020 07:45:00 5.8 C 6.09 g/m*3 2.81 C 14.5 km/h
1535 18-02-2020 07:50:00 5.8 C 6.09 g/m*3 3.36 C 11.3 km/h
1536 18-02-2020 07:55:00 5.8 C 6.09 g/m*3 3.07 C 12.9 km/h
1537 18-02-2020 08:00:00 5.8 C 6.09 g/m*3 4.52 C 6.4 km/h
1538 18-02-2020 08:05:00 5.8 C 6.09 g/m*3 4.05 C 8.1 km/h
1539 18-02-2020 08:10:00 5.7 C 6.05 g/m*3 2.45 C 16.1 km/h
1540 18-02-2020 08:15:00 5.7 C 5.98 g/m*3 2.24 C 17.7 km/h
1541 18-02-2020 08:20:00 5.7 C 5.98 g/m*3 2.69 C 14.5 km/h
1542 18-02-2020 08:25:00 5.7 C 6.05 g/m*3 4.4 C 6.4 km/h
1543 18-02-2020 08:30:00 5.7 C 6.12 g/m*3 3.56 C 9.7 km/h
1544 18-02-2020 08:35:00 5.7 C 6.12 g/m*3 3.93 C 8.1 km/h
1545 18-02-2020 08:40:00 5.8 C 6.16 g/m*3 3.07 C 12.9 km/h
1546 18-02-2020 08:45:00 5.8 C 6.16 g/m*3 3.36 C 11.3 km/h
1547 18-02-2020 08:50:00 5.8 C 6.09 g/m*3 2.58 C 16.1 km/h
1548 18-02-2020 08:55:00 5.8 C 6.09 g/m*3 4.52 C 6.4 km/h
1549 18-02-2020 09:00:00 5.8 C 6.09 g/m*3 4.52 C 6.4 km/h
1550 18-02-2020 09:05:00 5.9 C 6.13 g/m*3 3.8 C 9.7 km/h
Sensor: Nr:Datum:Temp:Abs-Feuchte:Windchill:Wind:
Aussen-T/F 1551 18-02-2020 09:10:00 5.9 C 6.2 g/m*3 3.8 C 9.7 km/h
1552 18-02-2020 09:15:00 5.9 C 6.2 g/m*3 3.8 C 9.7 km/h
1553 18-02-2020 09:20:00 6 C 6.17 g/m*3 4.75 C 6.4 km/h
1554 18-02-2020 09:25:00 6.1 C 6.21 g/m*3 3.43 C 12.9 km/h
1555 18-02-2020 09:30:00 6.1 C 6.14 g/m*3 3.43 C 12.9 km/h
1556 18-02-2020 09:35:00 6.2 C 6.18 g/m*3 3.3 C 14.5 km/h
1557 18-02-2020 09:40:00 6.2 C 6.18 g/m*3 4.52 C 8.1 km/h
1558 18-02-2020 09:45:00 6.3 C 6.22 g/m*3 3.96 C 11.3 km/h
1559 18-02-2020 09:50:00 6.4 C 6.18 g/m*3 2.73 C 20.9 km/h
1560 18-02-2020 09:55:00 6.6 C 6.27 g/m*3 3.79 C 14.5 km/h
1561 18-02-2020 10:00:00 6.6 C 6.19 g/m*3 4.99 C 8.1 km/h
1562 18-02-2020 10:05:00 6.7 C 6.15 g/m*3 3.11 C 20.9 km/h
1563 18-02-2020 10:10:00 6.7 C 6.15 g/m*3 3.29 C 19.3 km/h
1564 18-02-2020 10:15:00 6.7 C 6.15 g/m*3 3.48 C 17.7 km/h
1565 18-02-2020 10:20:00 6.7 C 6.15 g/m*3 4.17 C 12.9 km/h
1566 18-02-2020 10:25:00 6.6 C 6.11 g/m*3 4.04 C 12.9 km/h
1567 18-02-2020 10:30:00 6.7 C 6.15 g/m*3 3.92 C 14.5 km/h
1568 18-02-2020 10:35:00 6.8 C 6.12 g/m*3 4.04 C 14.5 km/h
1569 18-02-2020 10:40:00 6.8 C 6.12 g/m*3 4.29 C 12.9 km/h
1570 18-02-2020 10:45:00 6.9 C 6.08 g/m*3 4.16 C 14.5 km/h
1571 18-02-2020 10:50:00 7 C 6.12 g/m*3 3.02 C 25.7 km/h
1572 18-02-2020 10:55:00 7.1 C 6.16 g/m*3 4.65 C 12.9 km/h
1573 18-02-2020 11:00:00 7.2 C 6.2 g/m*3 3.92 C 19.3 km/h
1574 18-02-2020 11:05:00 7.3 C 6.24 g/m*3 5.16 C 11.3 km/h
1575 18-02-2020 11:10:00 7.3 C 6.24 g/m*3 4.44 C 16.1 km/h
Sensor: Nr:Datum:Temp:Abs-Feuchte:Windchill:Wind:
Aussen-T/F 1576 18-02-2020 11:15:00 7.3 C 6.16 g/m*3 4.66 C 14.5 km/h
1577 18-02-2020 11:20:00 7.3 C 6.16 g/m*3 4.66 C 14.5 km/h
1578 18-02-2020 11:25:00 7.3 C 6.16 g/m*3 4.05 C 19.3 km/h
1579 18-02-2020 11:30:00 7.4 C 6.2 g/m*3 5.02 C 12.9 km/h
1580 18-02-2020 11:35:00 7.5 C 6.24 g/m*3 5.7 C 9.7 km/h
1581 18-02-2020 11:40:00 7.6 C 6.2 g/m*3 4.09 C 22.5 km/h
1582 18-02-2020 11:45:00 7.7 C 6.24 g/m*3 4.93 C 16.1 km/h
1583 18-02-2020 11:50:00 7.7 C 6.24 g/m*3 5.65 C 11.3 km/h
1584 18-02-2020 11:55:00 7.8 C 6.28 g/m*3 5.06 C 16.1 km/h
1585 18-02-2020 12:00:00 7.8 C 6.28 g/m*3 4.86 C 17.7 km/h
1586 18-02-2020 12:05:00 7.8 C 6.28 g/m*3 5.77 C 11.3 km/h
1587 18-02-2020 12:10:00 7.9 C 6.32 g/m*3 6.52 C 8.1 km/h
1588 18-02-2020 12:15:00 8.1 C 6.41 g/m*3 5.87 C 12.9 km/h
1589 18-02-2020 12:20:00 8.1 C 6.41 g/m*3 6.13 C 11.3 km/h
1590 18-02-2020 12:25:00 8.1 C 6.24 g/m*3 5.64 C 14.5 km/h
1591 18-02-2020 12:30:00 8.1 C 6.24 g/m*3 5.23 C 17.7 km/h
1592 18-02-2020 12:35:00 8.1 C 6.24 g/m*3 5.23 C 17.7 km/h
1593 18-02-2020 12:40:00 8.1 C 6.16 g/m*3 4.58 C 24.1 km/h
1594 18-02-2020 12:45:00 8.1 C 6.24 g/m*3 5.43 C 16.1 km/h
1595 18-02-2020 12:50:00 8.2 C 6.36 g/m*3 5.99 C 12.9 km/h
1596 18-02-2020 12:55:00 8.4 C 6.28 g/m*3 4.96 C 24.1 km/h
1597 18-02-2020 13:00:00 8.6 C 6.44 g/m*3 6.48 C 12.9 km/h
1598 18-02-2020 13:05:00 8.8 C 6.44 g/m*3 5.93 C 19.3 km/h
1599 18-02-2020 13:10:00 8.8 C 6.44 g/m*3 6.3 C 16.1 km/h
1600 18-02-2020 13:15:00 8.8 C 6.27 g/m*3 5.34 C 25.7 km/h
Sensor: Nr:Datum:Temp:Abs-Feuchte:Windchill:Wind:
Aussen-T/F 1601 18-02-2020 13:20:00 8.6 C 6.27 g/m*3 5.86 C 17.7 km/h
1602 18-02-2020 13:25:00 8.5 C 6.32 g/m*3 5.56 C 19.3 km/h
1603 18-02-2020 13:30:00 8.4 C 6.28 g/m*3 5.61 C 17.7 km/h
1604 18-02-2020 13:35:00 8.3 C 6.32 g/m*3 5.14 C 20.9 km/h
1605 18-02-2020 13:40:00 8.3 C 6.41 g/m*3 5.68 C 16.1 km/h
1606 18-02-2020 13:45:00 8.4 C 6.45 g/m*3 6.01 C 14.5 km/h
1607 18-02-2020 13:50:00 8.6 C 6.44 g/m*3 6.05 C 16.1 km/h
1608 18-02-2020 13:55:00 8.6 C 6.27 g/m*3 4.59 C 32.2 km/h
1609 18-02-2020 14:00:00 8.5 C 6.32 g/m*3 6.13 C 14.5 km/h
1610 18-02-2020 14:05:00 8.4 C 6.28 g/m*3 6.24 C 12.9 km/h
1611 18-02-2020 14:10:00 8.4 C 6.36 g/m*3 5.43 C 19.3 km/h
1612 18-02-2020 14:15:00 8.4 C 6.45 g/m*3 6.01 C 14.5 km/h
1613 18-02-2020 14:20:00 8.3 C 6.41 g/m*3 5.68 C 16.1 km/h
1614 18-02-2020 14:25:00 8.3 C 6.41 g/m*3 4.98 C 22.5 km/h
1615 18-02-2020 14:30:00 8.2 C 6.36 g/m*3 5.55 C 16.1 km/h
1616 18-02-2020 14:35:00 8.2 C 6.36 g/m*3 4.57 C 25.7 km/h
1617 18-02-2020 14:40:00 8.2 C 6.28 g/m*3 5.99 C 12.9 km/h
1618 18-02-2020 14:45:00 8.1 C 6.32 g/m*3 4.58 C 24.1 km/h
1619 18-02-2020 14:50:00 8.2 C 6.28 g/m*3 5.99 C 12.9 km/h
1620 18-02-2020 14:55:00 8.3 C 6.24 g/m*3 5.68 C 16.1 km/h
1621 18-02-2020 15:00:00 8.4 C 6.36 g/m*3 6.01 C 14.5 km/h
1622 18-02-2020 15:05:00 8.6 C 6.27 g/m*3 5.86 C 17.7 km/h
1623 18-02-2020 15:10:00 8.7 C 6.31 g/m*3 5.49 C 22.5 km/h
1624 18-02-2020 15:15:00 8.7 C 6.4 g/m*3 6.85 C 11.3 km/h
1625 18-02-2020 15:20:00 8.7 C 6.31 g/m*3 6.6 C 12.9 km/h
Sensor: Nr:Datum:Temp:Abs-Feuchte:Windchill:Wind:
Aussen-T/F 1626 18-02-2020 15:25:00 8.7 C 6.23 g/m*3 6.17 C 16.1 km/h
1627 18-02-2020 15:30:00 8.6 C 6.19 g/m*3 6.05 C 16.1 km/h
1628 18-02-2020 15:35:00 8.6 C 6.19 g/m*3 5.37 C 22.5 km/h
1629 18-02-2020 15:40:00 8.6 C 6.27 g/m*3 6.73 C 11.3 km/h
1630 18-02-2020 15:45:00 8.6 C 6.27 g/m*3 6.48 C 12.9 km/h
1631 18-02-2020 15:50:00 8.5 C 6.23 g/m*3 6.36 C 12.9 km/h
1632 18-02-2020 15:55:00 8.5 C 6.23 g/m*3 6.36 C 12.9 km/h
1633 18-02-2020 16:00:00 8.6 C 6.27 g/m*3 7.01 C 9.7 km/h
1634 18-02-2020 16:05:00 8.6 C 6.19 g/m*3 6.25 C 14.5 km/h
1635 18-02-2020 16:10:00 8.6 C 6.27 g/m*3 6.25 C 14.5 km/h
1636 18-02-2020 16:15:00 8.6 C 6.27 g/m*3 6.25 C 14.5 km/h
1637 18-02-2020 16:20:00 8.4 C 6.19 g/m*3 6.49 C 11.3 km/h
1638 18-02-2020 16:25:00 8.4 C 6.19 g/m*3 6.78 C 9.7 km/h
1639 18-02-2020 16:30:00 8.4 C 6.28 g/m*3 6.49 C 11.3 km/h
1640 18-02-2020 16:35:00 8.3 C 6.24 g/m*3 6.66 C 9.7 km/h
1641 18-02-2020 16:40:00 8.3 C 6.24 g/m*3 6.66 C 9.7 km/h
1642 18-02-2020 16:45:00 8.3 C 6.24 g/m*3 6.37 C 11.3 km/h
1643 18-02-2020 16:50:00 8.2 C 6.2 g/m*3 5.76 C 14.5 km/h
1644 18-02-2020 16:55:00 8.2 C 6.28 g/m*3 8.2 C 4.8 km/h
1645 18-02-2020 17:00:00 8.2 C 6.28 g/m*3 6.87 C 8.1 km/h
1646 18-02-2020 17:05:00 8.2 C 6.36 g/m*3 6.54 C 9.7 km/h
1647 18-02-2020 17:10:00 8.1 C 6.32 g/m*3 7.17 C 6.4 km/h
1648 18-02-2020 17:15:00 8.1 C 6.32 g/m*3 7.17 C 6.4 km/h
1649 18-02-2020 17:20:00 8.1 C 6.32 g/m*3 6.42 C 9.7 km/h
1650 18-02-2020 17:25:00 8.2 C 6.36 g/m*3 6.54 C 9.7 km/h
Sensor: Nr:Datum:Temp:Abs-Feuchte:Windchill:Wind:
Aussen-T/F 1651 18-02-2020 17:30:00 8.2 C 6.28 g/m*3 8.2 C 4.8 km/h
1652 18-02-2020 17:35:00 8.2 C 6.28 g/m*3 6.87 C 8.1 km/h
1653 18-02-2020 17:40:00 8.2 C 6.36 g/m*3 5.76 C 14.5 km/h
1654 18-02-2020 17:45:00 8.1 C 6.32 g/m*3 6.75 C 8.1 km/h
1655 18-02-2020 17:50:00 8 C 6.28 g/m*3 5.3 C 16.1 km/h
1656 18-02-2020 17:55:00 7.9 C 6.24 g/m*3 6.18 C 9.7 km/h
1657 18-02-2020 18:00:00 7.8 C 6.28 g/m*3 6.06 C 9.7 km/h
1658 18-02-2020 18:05:00 7.8 C 6.37 g/m*3 5.51 C 12.9 km/h
1659 18-02-2020 18:10:00 7.7 C 6.32 g/m*3 5.94 C 9.7 km/h
1660 18-02-2020 18:15:00 7.7 C 6.32 g/m*3 5.65 C 11.3 km/h
1661 18-02-2020 18:20:00 7.6 C 6.36 g/m*3 6.6 C 6.4 km/h
1662 18-02-2020 18:25:00 7.4 C 6.28 g/m*3 5.58 C 9.7 km/h
1663 18-02-2020 18:30:00 7.4 C 6.28 g/m*3 5.28 C 11.3 km/h
1664 18-02-2020 18:35:00 7.3 C 6.24 g/m*3 7.3 C 3.2 km/h
1665 18-02-2020 18:40:00 7.2 C 6.28 g/m*3 7.2 C 1.6 km/h
1666 18-02-2020 18:45:00 7.1 C 6.24 g/m*3 5.58 C 8.1 km/h
1667 18-02-2020 18:50:00 7 C 6.28 g/m*3 7 C 4.8 km/h
1668 18-02-2020 18:55:00 6.9 C 6.24 g/m*3 6.9 C 4.8 km/h
1669 18-02-2020 19:00:00 6.8 C 6.19 g/m*3 6.8 C 4.8 km/h
1670 18-02-2020 19:05:00 6.7 C 6.23 g/m*3 6.7 C 3.2 km/h
1671 18-02-2020 19:10:00 6.6 C 6.19 g/m*3 6.6 C 0 km/h
1672 18-02-2020 19:15:00 6.4 C 6.11 g/m*3 6.4 C 1.6 km/h
1673 18-02-2020 19:20:00 6.3 C 6.07 g/m*3 6.3 C 0 km/h
1674 18-02-2020 19:25:00 6.2 C 6.1 g/m*3 6.2 C 3.2 km/h
1675 18-02-2020 19:30:00 6.1 C 6.14 g/m*3 6.1 C 3.2 km/h
Sensor: Nr:Datum:Temp:Abs-Feuchte:Windchill:Wind:
Aussen-T/F 1676 18-02-2020 19:35:00 6.1 C 6.14 g/m*3 6.1 C 0 km/h
1677 18-02-2020 19:40:00 6.1 C 6.14 g/m*3 6.1 C 3.2 km/h
1678 18-02-2020 19:45:00 6.2 C 6.18 g/m*3 6.2 C 1.6 km/h
1679 18-02-2020 19:50:00 6.2 C 6.18 g/m*3 6.2 C 1.6 km/h
1680 18-02-2020 19:55:00 6.2 C 6.18 g/m*3 6.2 C 0 km/h
1681 18-02-2020 20:00:00 6.3 C 6.22 g/m*3 4.64 C 8.1 km/h
1682 18-02-2020 20:05:00 6.3 C 6.22 g/m*3 6.3 C 3.2 km/h
1683 18-02-2020 20:10:00 6.3 C 6.14 g/m*3 6.3 C 1.6 km/h
1684 18-02-2020 20:15:00 6.2 C 6.1 g/m*3 6.2 C 3.2 km/h
1685 18-02-2020 20:20:00 6.2 C 6.18 g/m*3 3.84 C 11.3 km/h
1686 18-02-2020 20:25:00 6.3 C 6.22 g/m*3 3.96 C 11.3 km/h
1687 18-02-2020 20:30:00 6.6 C 6.27 g/m*3 4.63 C 9.7 km/h
1688 18-02-2020 20:35:00 6.8 C 6.27 g/m*3 4.04 C 14.5 km/h
1689 18-02-2020 20:40:00 6.9 C 6.31 g/m*3 5.79 C 6.4 km/h
1690 18-02-2020 20:45:00 6.9 C 6.31 g/m*3 6.9 C 4.8 km/h
1691 18-02-2020 20:50:00 6.9 C 6.31 g/m*3 4.68 C 11.3 km/h
1692 18-02-2020 20:55:00 6.8 C 6.27 g/m*3 6.8 C 3.2 km/h
1693 18-02-2020 21:00:00 6.8 C 6.27 g/m*3 4.87 C 9.7 km/h
1694 18-02-2020 21:05:00 6.8 C 6.27 g/m*3 4.56 C 11.3 km/h
1695 18-02-2020 21:10:00 6.8 C 6.27 g/m*3 6.8 C 4.8 km/h
1696 18-02-2020 21:15:00 6.8 C 6.27 g/m*3 5.67 C 6.4 km/h
1697 18-02-2020 21:20:00 6.8 C 6.27 g/m*3 5.67 C 6.4 km/h
1698 18-02-2020 21:25:00 6.8 C 6.35 g/m*3 5.22 C 8.1 km/h
1699 18-02-2020 21:30:00 6.9 C 6.31 g/m*3 5.34 C 8.1 km/h
1700 18-02-2020 21:35:00 6.9 C 6.31 g/m*3 6.9 C 3.2 km/h
Sensor: Nr:Datum:Temp:Abs-Feuchte:Windchill:Wind:
Aussen-T/F 1701 18-02-2020 21:40:00 6.8 C 6.27 g/m*3 5.67 C 6.4 km/h
1702 18-02-2020 21:45:00 6.8 C 6.27 g/m*3 5.22 C 8.1 km/h
1703 18-02-2020 21:50:00 6.9 C 6.39 g/m*3 5.34 C 8.1 km/h
1704 18-02-2020 21:55:00 7 C 6.43 g/m*3 5.9 C 6.4 km/h
1705 18-02-2020 22:00:00 7 C 6.35 g/m*3 5.46 C 8.1 km/h
1706 18-02-2020 22:05:00 7 C 6.35 g/m*3 5.9 C 6.4 km/h
1707 18-02-2020 22:10:00 7.2 C 6.44 g/m*3 5.69 C 8.1 km/h
1708 18-02-2020 22:15:00 7.3 C 6.48 g/m*3 4.9 C 12.9 km/h
1709 18-02-2020 22:20:00 7.4 C 6.52 g/m*3 6.37 C 6.4 km/h
1710 18-02-2020 22:25:00 7.4 C 6.52 g/m*3 5.28 C 11.3 km/h
1711 18-02-2020 22:30:00 7.4 C 6.52 g/m*3 7.4 C 3.2 km/h
1712 18-02-2020 22:35:00 7.4 C 6.6 g/m*3 6.37 C 6.4 km/h
1713 18-02-2020 22:40:00 7.4 C 6.6 g/m*3 7.4 C 0 km/h
1714 18-02-2020 22:45:00 7.4 C 6.6 g/m*3 5.93 C 8.1 km/h
1715 18-02-2020 22:50:00 7.3 C 6.56 g/m*3 5.81 C 8.1 km/h
1716 18-02-2020 22:55:00 7.3 C 6.56 g/m*3 6.25 C 6.4 km/h
1717 18-02-2020 23:00:00 7.3 C 6.56 g/m*3 4.9 C 12.9 km/h
1718 18-02-2020 23:05:00 7.3 C 6.56 g/m*3 4.9 C 12.9 km/h
1719 18-02-2020 23:10:00 7.3 C 6.56 g/m*3 5.81 C 8.1 km/h
1720 18-02-2020 23:15:00 7.3 C 6.56 g/m*3 5.81 C 8.1 km/h
1721 18-02-2020 23:20:00 7.2 C 6.52 g/m*3 5.35 C 9.7 km/h
1722 18-02-2020 23:25:00 7.2 C 6.52 g/m*3 5.69 C 8.1 km/h
1723 18-02-2020 23:30:00 7.1 C 6.55 g/m*3 7.1 C 4.8 km/h
1724 18-02-2020 23:35:00 7.1 C 6.55 g/m*3 7.1 C 3.2 km/h
1725 18-02-2020 23:40:00 7 C 6.51 g/m*3 5.9 C 6.4 km/h
Sensor: Nr:Datum:Temp:Abs-Feuchte:Windchill:Wind:
Aussen-T/F 1726 18-02-2020 23:45:00 7.1 C 6.55 g/m*3 4.65 C 12.9 km/h
1727 18-02-2020 23:50:00 7.1 C 6.55 g/m*3 4.92 C 11.3 km/h
1728 18-02-2020 23:55:00 7.1 C 6.55 g/m*3 7.1 C 3.2 km/h
1729 19-02-2020 00:00:00 7.1 C 6.47 g/m*3 6.02 C 6.4 km/h
1730 19-02-2020 00:05:00 7 C 6.51 g/m*3 4.8 C 11.3 km/h
1731 19-02-2020 00:10:00 7.1 C 6.47 g/m*3 4.19 C 16.1 km/h
1732 19-02-2020 00:15:00 7.2 C 6.44 g/m*3 4.53 C 14.5 km/h
1733 19-02-2020 00:20:00 7.3 C 6.48 g/m*3 4.23 C 17.7 km/h
1734 19-02-2020 00:25:00 7.4 C 6.44 g/m*3 5.28 C 11.3 km/h
1735 19-02-2020 00:30:00 7.4 C 6.44 g/m*3 4.78 C 14.5 km/h
1736 19-02-2020 00:35:00 7.4 C 6.44 g/m*3 5.02 C 12.9 km/h
1737 19-02-2020 00:40:00 7.4 C 6.44 g/m*3 5.02 C 12.9 km/h
1738 19-02-2020 00:45:00 7.4 C 6.44 g/m*3 4.36 C 17.7 km/h
1739 19-02-2020 00:50:00 7.5 C 6.48 g/m*3 3.81 C 24.1 km/h
1740 19-02-2020 00:55:00 7.6 C 6.44 g/m*3 3.94 C 24.1 km/h
1741 19-02-2020 01:00:00 7.5 C 6.4 g/m*3 7.5 C 4.8 km/h
1742 19-02-2020 01:05:00 7.5 C 6.48 g/m*3 3.96 C 22.5 km/h
1743 19-02-2020 01:10:00 7.4 C 6.36 g/m*3 4.78 C 14.5 km/h
1744 19-02-2020 01:15:00 7.5 C 6.4 g/m*3 4.48 C 17.7 km/h
1745 19-02-2020 01:20:00 7.5 C 6.4 g/m*3 6.48 C 6.4 km/h
1746 19-02-2020 01:25:00 7.4 C 6.36 g/m*3 5.02 C 12.9 km/h
1747 19-02-2020 01:30:00 7.4 C 6.36 g/m*3 4.78 C 14.5 km/h
1748 19-02-2020 01:35:00 7.4 C 6.36 g/m*3 5.28 C 11.3 km/h
1749 19-02-2020 01:40:00 7.4 C 6.36 g/m*3 4.56 C 16.1 km/h
1750 19-02-2020 01:45:00 7.4 C 6.36 g/m*3 4.36 C 17.7 km/h
Sensor: Nr:Datum:Temp:Abs-Feuchte:Windchill:Wind:
Aussen-T/F 1751 19-02-2020 01:50:00 7.4 C 6.36 g/m*3 5.28 C 11.3 km/h
1752 19-02-2020 01:55:00 7.4 C 6.36 g/m*3 5.93 C 8.1 km/h
1753 19-02-2020 02:00:00 7.4 C 6.36 g/m*3 4.17 C 19.3 km/h
1754 19-02-2020 02:05:00 7.5 C 6.4 g/m*3 5.7 C 9.7 km/h
1755 19-02-2020 02:10:00 7.5 C 6.4 g/m*3 4.68 C 16.1 km/h
1756 19-02-2020 02:15:00 7.6 C 6.44 g/m*3 5.02 C 14.5 km/h
1757 19-02-2020 02:20:00 7.7 C 6.41 g/m*3 4.22 C 22.5 km/h
1758 19-02-2020 02:25:00 7.7 C 6.41 g/m*3 4.38 C 20.9 km/h
1759 19-02-2020 02:30:00 7.7 C 6.49 g/m*3 5.94 C 9.7 km/h
1760 19-02-2020 02:35:00 7.7 C 6.49 g/m*3 4.93 C 16.1 km/h
1761 19-02-2020 02:40:00 7.7 C 6.49 g/m*3 4.38 C 20.9 km/h
1762 19-02-2020 02:45:00 7.6 C 6.53 g/m*3 4.25 C 20.9 km/h
1763 19-02-2020 02:50:00 7.6 C 6.53 g/m*3 4.42 C 19.3 km/h
1764 19-02-2020 02:55:00 7.6 C 6.53 g/m*3 4.61 C 17.7 km/h
1765 19-02-2020 03:00:00 7.5 C 6.48 g/m*3 5.7 C 9.7 km/h
1766 19-02-2020 03:05:00 7.5 C 6.48 g/m*3 4.48 C 17.7 km/h
1767 19-02-2020 03:10:00 7.5 C 6.48 g/m*3 5.14 C 12.9 km/h
1768 19-02-2020 03:15:00 7.5 C 6.56 g/m*3 4.13 C 20.9 km/h
1769 19-02-2020 03:20:00 7.4 C 6.52 g/m*3 4 C 20.9 km/h
1770 19-02-2020 03:25:00 7.4 C 6.52 g/m*3 3.54 C 25.7 km/h
1771 19-02-2020 03:30:00 7.4 C 6.6 g/m*3 4.36 C 17.7 km/h
1772 19-02-2020 03:35:00 7.4 C 6.6 g/m*3 5.28 C 11.3 km/h
1773 19-02-2020 03:40:00 7.3 C 6.56 g/m*3 4.05 C 19.3 km/h
1774 19-02-2020 03:45:00 7.3 C 6.64 g/m*3 3.87 C 20.9 km/h
1775 19-02-2020 03:50:00 7.2 C 6.67 g/m*3 4.53 C 14.5 km/h
Sensor: Nr:Datum:Temp:Abs-Feuchte:Windchill:Wind:
Aussen-T/F 1776 19-02-2020 03:55:00 7.2 C 6.75 g/m*3 5.69 C 8.1 km/h
1777 19-02-2020 04:00:00 7.1 C 6.71 g/m*3 4.41 C 14.5 km/h
1778 19-02-2020 04:05:00 7 C 6.74 g/m*3 4.8 C 11.3 km/h
1779 19-02-2020 04:10:00 6.9 C 6.7 g/m*3 4.99 C 9.7 km/h
1780 19-02-2020 04:15:00 6.9 C 6.7 g/m*3 4.68 C 11.3 km/h
1781 19-02-2020 04:20:00 6.8 C 6.65 g/m*3 3.42 C 19.3 km/h
1782 19-02-2020 04:25:00 6.8 C 6.73 g/m*3 4.56 C 11.3 km/h
1783 19-02-2020 04:30:00 6.8 C 6.73 g/m*3 3.61 C 17.7 km/h
1784 19-02-2020 04:35:00 6.8 C 6.73 g/m*3 4.04 C 14.5 km/h
1785 19-02-2020 04:40:00 6.8 C 6.73 g/m*3 3.82 C 16.1 km/h
1786 19-02-2020 04:45:00 6.8 C 6.73 g/m*3 3.82 C 16.1 km/h
1787 19-02-2020 04:50:00 6.8 C 6.73 g/m*3 2.76 C 25.7 km/h
1788 19-02-2020 04:55:00 6.8 C 6.73 g/m*3 3.24 C 20.9 km/h
1789 19-02-2020 05:00:00 6.8 C 6.73 g/m*3 3.61 C 17.7 km/h
1790 19-02-2020 05:05:00 6.9 C 6.77 g/m*3 4.41 C 12.9 km/h
1791 19-02-2020 05:10:00 6.9 C 6.7 g/m*3 2.36 C 32.2 km/h
1792 19-02-2020 05:15:00 6.9 C 6.7 g/m*3 3.73 C 17.7 km/h
1793 19-02-2020 05:20:00 6.9 C 6.7 g/m*3 3.04 C 24.1 km/h
1794 19-02-2020 05:25:00 6.9 C 6.7 g/m*3 4.68 C 11.3 km/h
1795 19-02-2020 05:30:00 6.8 C 6.58 g/m*3 4.56 C 11.3 km/h
1796 19-02-2020 05:35:00 6.8 C 6.58 g/m*3 3.42 C 19.3 km/h
1797 19-02-2020 05:40:00 6.8 C 6.58 g/m*3 3.42 C 19.3 km/h
1798 19-02-2020 05:45:00 6.8 C 6.5 g/m*3 3.61 C 17.7 km/h
1799 19-02-2020 05:50:00 6.7 C 6.46 g/m*3 3.92 C 14.5 km/h
1800 19-02-2020 05:55:00 6.7 C 6.46 g/m*3 4.44 C 11.3 km/h
Sensor: Nr:Datum:Temp:Abs-Feuchte:Windchill:Wind:
Aussen-T/F 1801 19-02-2020 06:00:00 6.6 C 6.34 g/m*3 4.04 C 12.9 km/h
1802 19-02-2020 06:05:00 6.6 C 6.34 g/m*3 4.04 C 12.9 km/h
1803 19-02-2020 06:10:00 6.6 C 6.34 g/m*3 4.32 C 11.3 km/h
1804 19-02-2020 06:15:00 6.6 C 6.42 g/m*3 4.99 C 8.1 km/h
1805 19-02-2020 06:20:00 6.5 C 6.37 g/m*3 4.51 C 9.7 km/h
1806 19-02-2020 06:25:00 6.4 C 6.26 g/m*3 3.11 C 17.7 km/h
1807 19-02-2020 06:30:00 6.4 C 6.26 g/m*3 4.39 C 9.7 km/h
1808 19-02-2020 06:35:00 6.4 C 6.33 g/m*3 4.08 C 11.3 km/h
1809 19-02-2020 06:40:00 6.3 C 6.29 g/m*3 4.27 C 9.7 km/h
1810 19-02-2020 06:45:00 6.3 C 6.29 g/m*3 3.2 C 16.1 km/h
1811 19-02-2020 06:50:00 6.2 C 6.18 g/m*3 3.84 C 11.3 km/h
1812 19-02-2020 06:55:00 6.1 C 6.14 g/m*3 4.04 C 9.7 km/h
1813 19-02-2020 07:00:00 6 C 6.1 g/m*3 3.06 C 14.5 km/h
1814 19-02-2020 07:05:00 5.9 C 6.06 g/m*3 2.7 C 16.1 km/h
1815 19-02-2020 07:10:00 6 C 6.1 g/m*3 2.82 C 16.1 km/h
1816 19-02-2020 07:15:00 6 C 6.1 g/m*3 3.92 C 9.7 km/h
1817 19-02-2020 07:20:00 6 C 6.1 g/m*3 2.61 C 17.7 km/h
1818 19-02-2020 07:25:00 6 C 6.1 g/m*3 3.6 C 11.3 km/h
1819 19-02-2020 07:30:00 6.1 C 6.14 g/m*3 3.43 C 12.9 km/h
1820 19-02-2020 07:35:00 6.1 C 6.14 g/m*3 4.04 C 9.7 km/h
1821 19-02-2020 07:40:00 6.1 C 6.14 g/m*3 3.43 C 12.9 km/h
1822 19-02-2020 07:45:00 6 C 6.1 g/m*3 3.92 C 9.7 km/h
1823 19-02-2020 07:50:00 5.9 C 6.06 g/m*3 3.19 C 12.9 km/h
1824 19-02-2020 07:55:00 5.9 C 5.98 g/m*3 2.48 C 17.7 km/h
1825 19-02-2020 08:00:00 5.8 C 5.95 g/m*3 1.97 C 20.9 km/h
Sensor: Nr:Datum:Temp:Abs-Feuchte:Windchill:Wind:
Aussen-T/F 1826 19-02-2020 08:05:00 5.8 C 5.95 g/m*3 2.16 C 19.3 km/h
1827 19-02-2020 08:10:00 5.8 C 5.95 g/m*3 3.07 C 12.9 km/h
1828 19-02-2020 08:15:00 5.7 C 5.98 g/m*3 3.93 C 8.1 km/h
1829 19-02-2020 08:20:00 5.7 C 5.98 g/m*3 3.93 C 8.1 km/h
1830 19-02-2020 08:25:00 5.6 C 5.87 g/m*3 3.44 C 9.7 km/h
1831 19-02-2020 08:30:00 5.5 C 5.83 g/m*3 2.7 C 12.9 km/h
1832 19-02-2020 08:35:00 5.4 C 5.79 g/m*3 2.58 C 12.9 km/h
1833 19-02-2020 08:40:00 5.4 C 5.79 g/m*3 2.87 C 11.3 km/h
1834 19-02-2020 08:45:00 5.4 C 5.79 g/m*3 2.87 C 11.3 km/h
1835 19-02-2020 08:50:00 5.4 C 5.79 g/m*3 3.58 C 8.1 km/h
1836 19-02-2020 08:55:00 5.4 C 5.79 g/m*3 3.58 C 8.1 km/h
1837 19-02-2020 09:00:00 5.4 C 5.79 g/m*3 3.2 C 9.7 km/h
1838 19-02-2020 09:05:00 5.4 C 5.79 g/m*3 4.06 C 6.4 km/h
1839 19-02-2020 09:10:00 5.5 C 5.83 g/m*3 5.5 C 4.8 km/h
1840 19-02-2020 09:15:00 5.5 C 5.83 g/m*3 5.5 C 4.8 km/h
1841 19-02-2020 09:20:00 5.5 C 5.76 g/m*3 5.5 C 3.2 km/h
1842 19-02-2020 09:25:00 5.5 C 5.83 g/m*3 4.17 C 6.4 km/h
1843 19-02-2020 09:30:00 5.5 C 5.83 g/m*3 2.7 C 12.9 km/h
1844 19-02-2020 09:35:00 5.6 C 5.87 g/m*3 4.29 C 6.4 km/h
1845 19-02-2020 09:40:00 5.6 C 5.8 g/m*3 5.6 C 3.2 km/h
1846 19-02-2020 09:45:00 5.7 C 5.91 g/m*3 3.56 C 9.7 km/h
1847 19-02-2020 09:50:00 5.7 C 5.84 g/m*3 4.4 C 6.4 km/h
1848 19-02-2020 09:55:00 5.7 C 5.84 g/m*3 4.4 C 6.4 km/h
1849 19-02-2020 10:00:00 5.7 C 5.84 g/m*3 2.95 C 12.9 km/h
1850 19-02-2020 10:05:00 5.6 C 5.87 g/m*3 2.83 C 12.9 km/h
Sensor: Nr:Datum:Temp:Abs-Feuchte:Windchill:Wind:
Aussen-T/F 1851 19-02-2020 10:10:00 5.4 C 5.79 g/m*3 2.87 C 11.3 km/h
1852 19-02-2020 10:15:00 5.3 C 5.75 g/m*3 3.94 C 6.4 km/h
1853 19-02-2020 10:20:00 5.3 C 5.82 g/m*3 5.3 C 4.8 km/h
1854 19-02-2020 10:25:00 5.4 C 5.86 g/m*3 4.06 C 6.4 km/h
1855 19-02-2020 10:30:00 5.6 C 5.94 g/m*3 5.6 C 3.2 km/h
1856 19-02-2020 10:35:00 5.7 C 5.91 g/m*3 3.23 C 11.3 km/h
1857 19-02-2020 10:40:00 5.8 C 5.87 g/m*3 4.52 C 6.4 km/h
1858 19-02-2020 10:45:00 5.9 C 5.77 g/m*3 4.17 C 8.1 km/h
1859 19-02-2020 10:50:00 6.1 C 5.84 g/m*3 4.4 C 8.1 km/h
1860 19-02-2020 10:55:00 6.2 C 5.81 g/m*3 3.56 C 12.9 km/h
1861 19-02-2020 11:00:00 6.2 C 5.81 g/m*3 3.07 C 16.1 km/h
1862 19-02-2020 11:05:00 6.2 C 5.88 g/m*3 3.56 C 12.9 km/h
1863 19-02-2020 11:10:00 6.2 C 5.81 g/m*3 4.15 C 9.7 km/h
1864 19-02-2020 11:15:00 6.3 C 5.77 g/m*3 4.27 C 9.7 km/h
1865 19-02-2020 11:20:00 6.4 C 5.81 g/m*3 4.08 C 11.3 km/h
1866 19-02-2020 11:25:00 6.5 C 5.85 g/m*3 3.92 C 12.9 km/h
1867 19-02-2020 11:30:00 6.6 C 5.74 g/m*3 3.57 C 16.1 km/h
1868 19-02-2020 11:35:00 6.7 C 5.7 g/m*3 3.92 C 14.5 km/h
1869 19-02-2020 11:40:00 6.7 C 5.55 g/m*3 3.69 C 16.1 km/h
1870 19-02-2020 11:45:00 6.7 C 5.55 g/m*3 3.29 C 19.3 km/h
1871 19-02-2020 11:50:00 6.7 C 5.55 g/m*3 3.92 C 14.5 km/h
1872 19-02-2020 11:55:00 6.8 C 5.58 g/m*3 4.04 C 14.5 km/h
1873 19-02-2020 12:00:00 6.9 C 5.62 g/m*3 4.16 C 14.5 km/h
1874 19-02-2020 12:05:00 6.9 C 5.54 g/m*3 4.68 C 11.3 km/h
1875 19-02-2020 12:10:00 6.9 C 5.54 g/m*3 4.16 C 14.5 km/h
Sensor: Nr:Datum:Temp:Abs-Feuchte:Windchill:Wind:
Aussen-T/F 1876 19-02-2020 12:15:00 6.9 C 5.47 g/m*3 4.41 C 12.9 km/h
1877 19-02-2020 12:20:00 6.9 C 5.47 g/m*3 4.16 C 14.5 km/h
1878 19-02-2020 12:25:00 7 C 5.5 g/m*3 3.67 C 19.3 km/h
1879 19-02-2020 12:30:00 7 C 5.35 g/m*3 4.29 C 14.5 km/h
1880 19-02-2020 12:35:00 7.1 C 5.46 g/m*3 4.41 C 14.5 km/h
1881 19-02-2020 12:40:00 7.1 C 5.38 g/m*3 3.62 C 20.9 km/h
1882 19-02-2020 12:45:00 7.1 C 5.38 g/m*3 4.41 C 14.5 km/h
1883 19-02-2020 12:50:00 7.2 C 5.42 g/m*3 4.77 C 12.9 km/h
1884 19-02-2020 12:55:00 7.2 C 5.42 g/m*3 4.53 C 14.5 km/h
1885 19-02-2020 13:00:00 7.2 C 5.42 g/m*3 4.77 C 12.9 km/h
1886 19-02-2020 13:05:00 7.2 C 5.42 g/m*3 3.75 C 20.9 km/h
1887 19-02-2020 13:10:00 7.3 C 5.37 g/m*3 4.44 C 16.1 km/h
1888 19-02-2020 13:15:00 7.3 C 5.29 g/m*3 4.66 C 14.5 km/h
1889 19-02-2020 13:20:00 7.3 C 5.14 g/m*3 4.9 C 12.9 km/h
1890 19-02-2020 13:25:00 7.4 C 5.25 g/m*3 4.17 C 19.3 km/h
1891 19-02-2020 13:30:00 7.4 C 5.17 g/m*3 4.17 C 19.3 km/h
1892 19-02-2020 13:35:00 7.4 C 5.17 g/m*3 3.84 C 22.5 km/h
1893 19-02-2020 13:40:00 7.4 C 5.17 g/m*3 4.56 C 16.1 km/h
1894 19-02-2020 13:45:00 7.5 C 5.2 g/m*3 4.48 C 17.7 km/h
1895 19-02-2020 13:50:00 7.6 C 5.32 g/m*3 4.81 C 16.1 km/h
1896 19-02-2020 13:55:00 7.7 C 5.19 g/m*3 4.38 C 20.9 km/h
1897 19-02-2020 14:00:00 7.7 C 5.19 g/m*3 4.93 C 16.1 km/h
1898 19-02-2020 14:05:00 7.8 C 5.22 g/m*3 4.86 C 17.7 km/h
1899 19-02-2020 14:10:00 7.8 C 5.3 g/m*3 5.27 C 14.5 km/h
1900 19-02-2020 14:15:00 7.9 C 5.34 g/m*3 5.63 C 12.9 km/h
Sensor: Nr:Datum:Temp:Abs-Feuchte:Windchill:Wind:
Aussen-T/F 1901 19-02-2020 14:20:00 7.9 C 5.26 g/m*3 5.63 C 12.9 km/h
1902 19-02-2020 14:25:00 7.8 C 5.22 g/m*3 5.27 C 14.5 km/h
1903 19-02-2020 14:30:00 7.7 C 5.27 g/m*3 5.15 C 14.5 km/h
1904 19-02-2020 14:35:00 7.6 C 5.24 g/m*3 5.26 C 12.9 km/h
1905 19-02-2020 14:40:00 7.6 C 5.24 g/m*3 3.94 C 24.1 km/h
1906 19-02-2020 14:45:00 7.6 C 5.32 g/m*3 5.02 C 14.5 km/h
1907 19-02-2020 14:50:00 7.6 C 5.24 g/m*3 4.09 C 22.5 km/h
1908 19-02-2020 14:55:00 7.5 C 5.2 g/m*3 4.68 C 16.1 km/h
1909 19-02-2020 15:00:00 7.5 C 5.2 g/m*3 5.14 C 12.9 km/h
1910 19-02-2020 15:05:00 7.6 C 5.24 g/m*3 5.02 C 14.5 km/h
1911 19-02-2020 15:10:00 7.8 C 5.14 g/m*3 4.86 C 17.7 km/h
1912 19-02-2020 15:15:00 7.9 C 5.17 g/m*3 4.32 C 24.1 km/h
1913 19-02-2020 15:20:00 8 C 5.21 g/m*3 5.11 C 17.7 km/h
1914 19-02-2020 15:25:00 8.1 C 5.16 g/m*3 5.05 C 19.3 km/h
1915 19-02-2020 15:30:00 8.1 C 5.24 g/m*3 5.43 C 16.1 km/h
1916 19-02-2020 15:35:00 8 C 5.21 g/m*3 6.3 C 9.7 km/h
1917 19-02-2020 15:40:00 7.9 C 5.26 g/m*3 6.52 C 8.1 km/h
1918 19-02-2020 15:45:00 7.8 C 5.22 g/m*3 5.06 C 16.1 km/h
1919 19-02-2020 15:50:00 7.8 C 5.22 g/m*3 5.51 C 12.9 km/h
1920 19-02-2020 15:55:00 8.1 C 5.24 g/m*3 5.87 C 12.9 km/h
1921 19-02-2020 16:00:00 8.3 C 5.23 g/m*3 5.68 C 16.1 km/h
1922 19-02-2020 16:05:00 8.3 C 5.23 g/m*3 6.12 C 12.9 km/h
1923 19-02-2020 16:10:00 8.2 C 5.19 g/m*3 4.86 C 22.5 km/h
1924 19-02-2020 16:15:00 8.1 C 5.08 g/m*3 5.43 C 16.1 km/h
1925 19-02-2020 16:20:00 8 C 5.13 g/m*3 6.3 C 9.7 km/h
Sensor: Nr:Datum:Temp:Abs-Feuchte:Windchill:Wind:
Aussen-T/F 1926 19-02-2020 16:25:00 7.9 C 5.17 g/m*3 5.89 C 11.3 km/h
1927 19-02-2020 16:30:00 7.9 C 5.09 g/m*3 5.63 C 12.9 km/h
1928 19-02-2020 16:35:00 7.8 C 5.14 g/m*3 5.77 C 11.3 km/h
1929 19-02-2020 16:40:00 7.7 C 5.19 g/m*3 5.15 C 14.5 km/h
1930 19-02-2020 16:45:00 7.7 C 5.11 g/m*3 5.38 C 12.9 km/h
1931 19-02-2020 16:50:00 7.6 C 5.16 g/m*3 5.26 C 12.9 km/h
1932 19-02-2020 16:55:00 7.5 C 5.2 g/m*3 5.7 C 9.7 km/h
1933 19-02-2020 17:00:00 7.4 C 5.17 g/m*3 5.28 C 11.3 km/h
1934 19-02-2020 17:05:00 7.4 C 5.09 g/m*3 5.02 C 12.9 km/h
1935 19-02-2020 17:10:00 7.4 C 5.17 g/m*3 5.28 C 11.3 km/h
1936 19-02-2020 17:15:00 7.3 C 5.06 g/m*3 5.16 C 11.3 km/h
1937 19-02-2020 17:20:00 7.3 C 5.06 g/m*3 5.81 C 8.1 km/h
1938 19-02-2020 17:25:00 7.2 C 5.1 g/m*3 5.69 C 8.1 km/h
1939 19-02-2020 17:30:00 7.1 C 4.99 g/m*3 4.41 C 14.5 km/h
1940 19-02-2020 17:35:00 6.9 C 4.93 g/m*3 4.16 C 14.5 km/h
1941 19-02-2020 17:40:00 6.9 C 5 g/m*3 5.79 C 6.4 km/h
1942 19-02-2020 17:45:00 6.8 C 5.05 g/m*3 5.67 C 6.4 km/h
1943 19-02-2020 17:50:00 6.7 C 5.09 g/m*3 6.7 C 1.6 km/h
1944 19-02-2020 17:55:00 6.4 C 5.07 g/m*3 6.4 C 0 km/h
1945 19-02-2020 18:00:00 6.2 C 5.07 g/m*3 6.2 C 0 km/h
1946 19-02-2020 18:05:00 5.9 C 5.12 g/m*3 5.9 C 0 km/h
1947 19-02-2020 18:10:00 5.7 C 5.19 g/m*3 5.7 C 0 km/h
1948 19-02-2020 18:15:00 5.4 C 5.09 g/m*3 5.4 C 0 km/h
1949 19-02-2020 18:20:00 5.3 C 5.2 g/m*3 5.3 C 0 km/h
1950 19-02-2020 18:25:00 5.1 C 5.2 g/m*3 5.1 C 0 km/h
Sensor: Nr:Datum:Temp:Abs-Feuchte:Windchill:Wind:
Aussen-T/F 1951 19-02-2020 18:30:00 4.9 C 5.2 g/m*3 4.9 C 0 km/h
1952 19-02-2020 18:35:00 4.8 C 5.23 g/m*3 4.8 C 0 km/h
1953 19-02-2020 18:40:00 4.6 C 5.23 g/m*3 4.6 C 0 km/h
1954 19-02-2020 18:45:00 4.4 C 5.16 g/m*3 4.4 C 0 km/h
1955 19-02-2020 18:50:00 4.2 C 5.15 g/m*3 4.2 C 0 km/h
1956 19-02-2020 18:55:00 4.1 C 5.18 g/m*3 4.1 C 0 km/h
1957 19-02-2020 19:00:00 3.9 C 5.12 g/m*3 3.9 C 0 km/h
1958 19-02-2020 19:05:00 3.8 C 5.14 g/m*3 3.8 C 0 km/h
1959 19-02-2020 19:10:00 3.7 C 5.11 g/m*3 3.7 C 0 km/h
1960 19-02-2020 19:15:00 3.6 C 5.08 g/m*3 3.6 C 0 km/h
1961 19-02-2020 19:20:00 3.4 C 5.07 g/m*3 3.4 C 0 km/h
1962 19-02-2020 19:25:00 3.3 C 5.04 g/m*3 3.3 C 0 km/h
1963 19-02-2020 19:30:00 3.2 C 5 g/m*3 3.2 C 0 km/h
1964 19-02-2020 19:35:00 3.2 C 5 g/m*3 3.2 C 0 km/h
1965 19-02-2020 19:40:00 3.2 C 5 g/m*3 3.2 C 0 km/h
1966 19-02-2020 19:45:00 3.1 C 4.97 g/m*3 3.1 C 0 km/h
1967 19-02-2020 19:50:00 3 C 4.93 g/m*3 3 C 0 km/h
1968 19-02-2020 19:55:00 2.9 C 4.96 g/m*3 2.9 C 0 km/h
1969 19-02-2020 20:00:00 2.8 C 4.93 g/m*3 2.8 C 0 km/h
1970 19-02-2020 20:05:00 2.8 C 4.93 g/m*3 2.8 C 0 km/h
1971 19-02-2020 20:10:00 2.8 C 4.93 g/m*3 2.8 C 0 km/h
1972 19-02-2020 20:15:00 2.7 C 4.89 g/m*3 2.7 C 0 km/h
1973 19-02-2020 20:20:00 2.7 C 4.89 g/m*3 2.7 C 0 km/h
1974 19-02-2020 20:25:00 2.7 C 4.89 g/m*3 2.7 C 1.6 km/h
1975 19-02-2020 20:30:00 2.7 C 4.89 g/m*3 2.7 C 1.6 km/h
Sensor: Nr:Datum:Temp:Abs-Feuchte:Windchill:Wind:
Aussen-T/F 1976 19-02-2020 20:35:00 2.7 C 4.95 g/m*3 2.7 C 1.6 km/h
1977 19-02-2020 20:40:00 2.8 C 4.99 g/m*3 2.8 C 0 km/h
1978 19-02-2020 20:45:00 2.8 C 4.93 g/m*3 2.8 C 0 km/h
1979 19-02-2020 20:50:00 2.8 C 4.93 g/m*3 2.8 C 0 km/h
1980 19-02-2020 20:55:00 2.9 C 5.02 g/m*3 2.9 C 0 km/h
1981 19-02-2020 21:00:00 3.1 C 5.09 g/m*3 3.1 C 0 km/h
1982 19-02-2020 21:05:00 3.2 C 5.06 g/m*3 3.2 C 1.6 km/h
1983 19-02-2020 21:10:00 3.3 C 5.1 g/m*3 3.3 C 4.8 km/h
1984 19-02-2020 21:15:00 3.4 C 5.07 g/m*3 3.4 C 0 km/h
1985 19-02-2020 21:20:00 3.5 C 5.04 g/m*3 3.5 C 0 km/h
1986 19-02-2020 21:25:00 3.5 C 5.1 g/m*3 3.5 C 0 km/h
1987 19-02-2020 21:30:00 3.5 C 5.04 g/m*3 3.5 C 1.6 km/h
1988 19-02-2020 21:35:00 3.6 C 5.14 g/m*3 3.6 C 3.2 km/h
1989 19-02-2020 21:40:00 3.8 C 5.14 g/m*3 3.8 C 4.8 km/h
1990 19-02-2020 21:45:00 3.9 C 5.18 g/m*3 2.32 C 6.4 km/h
1991 19-02-2020 21:50:00 4.1 C 5.18 g/m*3 4.1 C 4.8 km/h
1992 19-02-2020 21:55:00 4.2 C 5.22 g/m*3 2.67 C 6.4 km/h
1993 19-02-2020 22:00:00 4.3 C 5.25 g/m*3 4.3 C 4.8 km/h
1994 19-02-2020 22:05:00 4.6 C 5.29 g/m*3 3.13 C 6.4 km/h
1995 19-02-2020 22:10:00 4.8 C 5.3 g/m*3 2.87 C 8.1 km/h
1996 19-02-2020 22:15:00 5.2 C 5.37 g/m*3 2.34 C 12.9 km/h
1997 19-02-2020 22:20:00 5.5 C 5.41 g/m*3 3.32 C 9.7 km/h
1998 19-02-2020 22:25:00 5.7 C 5.41 g/m*3 2.45 C 16.1 km/h
1999 19-02-2020 22:30:00 5.9 C 5.48 g/m*3 3.19 C 12.9 km/h
2000 19-02-2020 22:35:00 6 C 5.52 g/m*3 1.89 C 24.1 km/h
Sensor: Nr:Datum:Temp:Abs-Feuchte:Windchill:Wind:
Aussen-T/F 2001 19-02-2020 22:40:00 6.1 C 5.55 g/m*3 2.95 C 16.1 km/h
2002 19-02-2020 22:45:00 6 C 5.59 g/m*3 2.61 C 17.7 km/h
2003 19-02-2020 22:50:00 5.9 C 5.55 g/m*3 1.93 C 22.5 km/h
2004 19-02-2020 22:55:00 5.9 C 5.55 g/m*3 3.19 C 12.9 km/h
2005 19-02-2020 23:00:00 5.9 C 5.62 g/m*3 2.93 C 14.5 km/h
2006 19-02-2020 23:05:00 5.8 C 5.73 g/m*3 3.07 C 12.9 km/h
2007 19-02-2020 23:10:00 5.7 C 5.84 g/m*3 2.24 C 17.7 km/h
2008 19-02-2020 23:15:00 5.6 C 5.87 g/m*3 3.44 C 9.7 km/h
2009 19-02-2020 23:20:00 5.5 C 5.97 g/m*3 3.32 C 9.7 km/h
2010 19-02-2020 23:25:00 5.4 C 5.93 g/m*3 3.58 C 8.1 km/h
2011 19-02-2020 23:30:00 5.4 C 6 g/m*3 4.06 C 6.4 km/h
2012 19-02-2020 23:35:00 5.3 C 5.96 g/m*3 3.46 C 8.1 km/h
2013 19-02-2020 23:40:00 5.3 C 6.03 g/m*3 3.46 C 8.1 km/h
2014 19-02-2020 23:45:00 5.4 C 6.07 g/m*3 1.47 C 20.9 km/h
2015 19-02-2020 23:50:00 5.4 C 6.07 g/m*3 2.32 C 14.5 km/h
2016 19-02-2020 23:55:00 5.4 C 6.07 g/m*3 2.87 C 11.3 km/h
2017 20-02-2020 00:00:00 5.4 C 6.07 g/m*3 2.87 C 11.3 km/h
2018 20-02-2020 00:05:00 5.5 C 6.11 g/m*3 3.32 C 9.7 km/h
2019 20-02-2020 00:10:00 5.6 C 6.15 g/m*3 2.57 C 14.5 km/h
2020 20-02-2020 00:15:00 5.6 C 6.15 g/m*3 3.81 C 8.1 km/h
2021 20-02-2020 00:20:00 5.6 C 6.15 g/m*3 2.33 C 16.1 km/h
2022 20-02-2020 00:25:00 5.6 C 6.08 g/m*3 3.44 C 9.7 km/h
2023 20-02-2020 00:30:00 5.6 C 6.15 g/m*3 1.91 C 19.3 km/h
2024 20-02-2020 00:35:00 5.8 C 6.16 g/m*3 2.16 C 19.3 km/h
2025 20-02-2020 00:40:00 5.8 C 6.16 g/m*3 4.52 C 6.4 km/h
Sensor: Nr:Datum:Temp:Abs-Feuchte:Windchill:Wind:
Aussen-T/F 2026 20-02-2020 00:45:00 5.8 C 6.16 g/m*3 3.36 C 11.3 km/h
2027 20-02-2020 00:50:00 5.9 C 6.2 g/m*3 3.8 C 9.7 km/h
2028 20-02-2020 00:55:00 5.9 C 6.2 g/m*3 3.8 C 9.7 km/h
2029 20-02-2020 01:00:00 5.9 C 6.27 g/m*3 5.9 C 3.2 km/h
2030 20-02-2020 01:05:00 5.9 C 6.35 g/m*3 4.63 C 6.4 km/h
2031 20-02-2020 01:10:00 5.9 C 6.35 g/m*3 4.63 C 6.4 km/h
2032 20-02-2020 01:15:00 5.8 C 6.3 g/m*3 4.05 C 8.1 km/h
2033 20-02-2020 01:20:00 5.8 C 6.38 g/m*3 5.8 C 4.8 km/h
2034 20-02-2020 01:25:00 5.8 C 6.38 g/m*3 5.8 C 4.8 km/h
2035 20-02-2020 01:30:00 5.8 C 6.38 g/m*3 4.52 C 6.4 km/h
2036 20-02-2020 01:35:00 5.8 C 6.38 g/m*3 3.68 C 9.7 km/h
2037 20-02-2020 01:40:00 5.9 C 6.42 g/m*3 5.9 C 1.6 km/h
2038 20-02-2020 01:45:00 5.9 C 6.42 g/m*3 4.17 C 8.1 km/h
2039 20-02-2020 01:50:00 5.9 C 6.35 g/m*3 3.8 C 9.7 km/h
2040 20-02-2020 01:55:00 5.9 C 6.35 g/m*3 5.9 C 4.8 km/h
2041 20-02-2020 02:00:00 6 C 6.39 g/m*3 4.28 C 8.1 km/h
2042 20-02-2020 02:05:00 6.1 C 6.43 g/m*3 4.86 C 6.4 km/h
2043 20-02-2020 02:10:00 6.1 C 6.36 g/m*3 4.86 C 6.4 km/h
2044 20-02-2020 02:15:00 6.1 C 6.36 g/m*3 2.95 C 16.1 km/h
2045 20-02-2020 02:20:00 6.2 C 6.4 g/m*3 3.84 C 11.3 km/h
2046 20-02-2020 02:25:00 6.2 C 6.4 g/m*3 4.98 C 6.4 km/h
2047 20-02-2020 02:30:00 6.2 C 6.4 g/m*3 3.56 C 12.9 km/h
2048 20-02-2020 02:35:00 6.3 C 6.37 g/m*3 3.68 C 12.9 km/h
2049 20-02-2020 02:40:00 6.3 C 6.37 g/m*3 4.27 C 9.7 km/h
2050 20-02-2020 02:45:00 6.4 C 6.41 g/m*3 6.4 C 4.8 km/h
Sensor: Nr:Datum:Temp:Abs-Feuchte:Windchill:Wind:
Aussen-T/F 2051 20-02-2020 02:50:00 6.4 C 6.41 g/m*3 3.55 C 14.5 km/h
2052 20-02-2020 02:55:00 6.4 C 6.41 g/m*3 4.39 C 9.7 km/h
2053 20-02-2020 03:00:00 6.5 C 6.45 g/m*3 4.2 C 11.3 km/h
2054 20-02-2020 03:05:00 6.5 C 6.45 g/m*3 4.87 C 8.1 km/h
2055 20-02-2020 03:10:00 6.5 C 6.45 g/m*3 4.87 C 8.1 km/h
2056 20-02-2020 03:15:00 6.6 C 6.49 g/m*3 4.99 C 8.1 km/h
2057 20-02-2020 03:20:00 6.6 C 6.49 g/m*3 3.79 C 14.5 km/h
2058 20-02-2020 03:25:00 6.7 C 6.53 g/m*3 3.11 C 20.9 km/h
2059 20-02-2020 03:30:00 6.7 C 6.53 g/m*3 4.75 C 9.7 km/h
2060 20-02-2020 03:35:00 6.8 C 6.58 g/m*3 4.56 C 11.3 km/h
2061 20-02-2020 03:40:00 6.8 C 6.58 g/m*3 3.82 C 16.1 km/h
2062 20-02-2020 03:45:00 6.8 C 6.58 g/m*3 5.22 C 8.1 km/h
2063 20-02-2020 03:50:00 6.8 C 6.58 g/m*3 5.67 C 6.4 km/h
2064 20-02-2020 03:55:00 6.8 C 6.58 g/m*3 4.56 C 11.3 km/h
2065 20-02-2020 04:00:00 6.8 C 6.58 g/m*3 6.8 C 4.8 km/h
2066 20-02-2020 04:05:00 6.8 C 6.58 g/m*3 3.61 C 17.7 km/h
2067 20-02-2020 04:10:00 6.9 C 6.62 g/m*3 4.68 C 11.3 km/h
2068 20-02-2020 04:15:00 6.9 C 6.62 g/m*3 4.68 C 11.3 km/h
2069 20-02-2020 04:20:00 6.9 C 6.62 g/m*3 4.99 C 9.7 km/h
2070 20-02-2020 04:25:00 6.9 C 6.62 g/m*3 4.41 C 12.9 km/h
2071 20-02-2020 04:30:00 7 C 6.66 g/m*3 4.8 C 11.3 km/h
2072 20-02-2020 04:35:00 7 C 6.66 g/m*3 4.8 C 11.3 km/h
2073 20-02-2020 04:40:00 7.1 C 6.71 g/m*3 4.41 C 14.5 km/h
2074 20-02-2020 04:45:00 7.1 C 6.71 g/m*3 5.58 C 8.1 km/h
2075 20-02-2020 04:50:00 7.1 C 6.71 g/m*3 4.92 C 11.3 km/h
Sensor: Nr:Datum:Temp:Abs-Feuchte:Windchill:Wind:
Aussen-T/F 2076 20-02-2020 04:55:00 7 C 6.66 g/m*3 5.46 C 8.1 km/h
2077 20-02-2020 05:00:00 7 C 6.66 g/m*3 5.46 C 8.1 km/h
2078 20-02-2020 05:05:00 7 C 6.66 g/m*3 5.46 C 8.1 km/h
2079 20-02-2020 05:10:00 7 C 6.66 g/m*3 4.53 C 12.9 km/h
2080 20-02-2020 05:15:00 7 C 6.66 g/m*3 7 C 4.8 km/h
2081 20-02-2020 05:20:00 7 C 6.66 g/m*3 4.8 C 11.3 km/h
2082 20-02-2020 05:25:00 7.1 C 6.71 g/m*3 4.92 C 11.3 km/h
2083 20-02-2020 05:30:00 7.1 C 6.71 g/m*3 7.1 C 4.8 km/h
2084 20-02-2020 05:35:00 7.1 C 6.71 g/m*3 4.92 C 11.3 km/h
2085 20-02-2020 05:40:00 7.2 C 6.75 g/m*3 5.35 C 9.7 km/h
2086 20-02-2020 05:45:00 7.2 C 6.75 g/m*3 5.69 C 8.1 km/h
2087 20-02-2020 05:50:00 7.2 C 6.83 g/m*3 5.69 C 8.1 km/h
2088 20-02-2020 05:55:00 7.2 C 6.83 g/m*3 4.77 C 12.9 km/h
2089 20-02-2020 06:00:00 7.2 C 6.83 g/m*3 5.04 C 11.3 km/h
2090 20-02-2020 06:05:00 7.2 C 6.83 g/m*3 5.35 C 9.7 km/h
2091 20-02-2020 06:10:00 7.2 C 6.83 g/m*3 7.2 C 4.8 km/h
2092 20-02-2020 06:15:00 7.2 C 6.83 g/m*3 7.2 C 3.2 km/h
2093 20-02-2020 06:20:00 7.2 C 6.83 g/m*3 7.2 C 4.8 km/h
2094 20-02-2020 06:25:00 7.1 C 6.79 g/m*3 7.1 C 0 km/h
2095 20-02-2020 06:30:00 7.1 C 6.86 g/m*3 5.58 C 8.1 km/h
2096 20-02-2020 06:35:00 7.1 C 6.86 g/m*3 6.02 C 6.4 km/h
2097 20-02-2020 06:40:00 7.1 C 6.86 g/m*3 7.1 C 4.8 km/h
2098 20-02-2020 06:45:00 7.2 C 6.91 g/m*3 6.13 C 6.4 km/h
2099 20-02-2020 06:50:00 7.2 C 6.91 g/m*3 7.2 C 1.6 km/h
2100 20-02-2020 06:55:00 7.2 C 6.91 g/m*3 7.2 C 0 km/h
Sensor: Nr:Datum:Temp:Abs-Feuchte:Windchill:Wind:
Aussen-T/F 2101 20-02-2020 07:00:00 7.2 C 6.91 g/m*3 7.2 C 3.2 km/h
2102 20-02-2020 07:05:00 7.2 C 6.91 g/m*3 5.35 C 9.7 km/h
2103 20-02-2020 07:10:00 7.2 C 6.91 g/m*3 7.2 C 0 km/h
2104 20-02-2020 07:15:00 7.2 C 6.91 g/m*3 7.2 C 0 km/h
2105 20-02-2020 07:20:00 7.2 C 6.91 g/m*3 7.2 C 0 km/h
2106 20-02-2020 07:25:00 7.2 C 6.91 g/m*3 7.2 C 4.8 km/h
2107 20-02-2020 07:30:00 7.2 C 6.99 g/m*3 7.2 C 1.6 km/h
2108 20-02-2020 07:35:00 7.2 C 6.99 g/m*3 5.04 C 11.3 km/h
2109 20-02-2020 07:40:00 7.2 C 6.99 g/m*3 7.2 C 0 km/h
2110 20-02-2020 07:45:00 7.2 C 6.99 g/m*3 7.2 C 3.2 km/h
2111 20-02-2020 07:50:00 7.2 C 6.99 g/m*3 7.2 C 0 km/h
2112 20-02-2020 07:55:00 7.2 C 6.99 g/m*3 7.2 C 0 km/h
2113 20-02-2020 08:00:00 7.2 C 6.99 g/m*3 7.2 C 0 km/h
2114 20-02-2020 08:05:00 7.2 C 6.99 g/m*3 7.2 C 0 km/h
2115 20-02-2020 08:10:00 7.2 C 6.99 g/m*3 7.2 C 0 km/h
2116 20-02-2020 08:15:00 7.2 C 6.99 g/m*3 7.2 C 0 km/h
2117 20-02-2020 08:20:00 7.2 C 6.99 g/m*3 7.2 C 0 km/h
2118 20-02-2020 08:25:00 7.2 C 7.06 g/m*3 7.2 C 0 km/h
2119 20-02-2020 08:30:00 7.2 C 7.06 g/m*3 7.2 C 0 km/h
2120 20-02-2020 08:35:00 7.2 C 7.06 g/m*3 7.2 C 0 km/h
2121 20-02-2020 08:40:00 7.2 C 7.06 g/m*3 7.2 C 0 km/h
2122 20-02-2020 08:45:00 7.3 C 7.11 g/m*3 6.25 C 6.4 km/h
2123 20-02-2020 08:50:00 7.3 C 7.11 g/m*3 7.3 C 1.6 km/h
2124 20-02-2020 08:55:00 7.4 C 7.16 g/m*3 7.4 C 0 km/h
2125 20-02-2020 09:00:00 7.4 C 7.16 g/m*3 7.4 C 0 km/h
Sensor: Nr:Datum:Temp:Abs-Feuchte:Windchill:Wind:
Aussen-T/F 2126 20-02-2020 09:05:00 7.5 C 7.2 g/m*3 7.5 C 0 km/h
2127 20-02-2020 09:10:00 7.6 C 7.17 g/m*3 7.6 C 4.8 km/h
2128 20-02-2020 09:15:00 7.6 C 7.17 g/m*3 6.6 C 6.4 km/h
2129 20-02-2020 09:20:00 7.7 C 7.22 g/m*3 6.71 C 6.4 km/h
2130 20-02-2020 09:25:00 7.8 C 7.18 g/m*3 6.06 C 9.7 km/h
2131 20-02-2020 09:30:00 7.8 C 7.18 g/m*3 7.8 C 1.6 km/h
2132 20-02-2020 09:35:00 7.9 C 7.23 g/m*3 7.9 C 3.2 km/h
2133 20-02-2020 09:40:00 8 C 7.28 g/m*3 8 C 1.6 km/h
2134 20-02-2020 09:45:00 8.1 C 7.24 g/m*3 6.75 C 8.1 km/h
2135 20-02-2020 09:50:00 8.1 C 7.24 g/m*3 8.1 C 3.2 km/h
2136 20-02-2020 09:55:00 8.2 C 7.29 g/m*3 8.2 C 4.8 km/h
2137 20-02-2020 10:00:00 8.2 C 7.2 g/m*3 7.29 C 6.4 km/h
2138 20-02-2020 10:05:00 8.3 C 7.25 g/m*3 8.3 C 4.8 km/h
2139 20-02-2020 10:10:00 8.4 C 7.21 g/m*3 8.4 C 4.8 km/h
2140 20-02-2020 10:15:00 8.4 C 7.21 g/m*3 8.4 C 4.8 km/h
2141 20-02-2020 10:20:00 8.6 C 7.3 g/m*3 7.34 C 8.1 km/h
2142 20-02-2020 10:25:00 8.6 C 7.22 g/m*3 6.73 C 11.3 km/h
2143 20-02-2020 10:30:00 8.7 C 7.18 g/m*3 6.85 C 11.3 km/h
2144 20-02-2020 10:35:00 8.8 C 7.14 g/m*3 6.97 C 11.3 km/h
2145 20-02-2020 10:40:00 8.9 C 7.27 g/m*3 8.9 C 4.8 km/h
2146 20-02-2020 10:45:00 8.9 C 7.18 g/m*3 8.9 C 0 km/h
2147 20-02-2020 10:50:00 9 C 7.14 g/m*3 6.75 C 14.5 km/h
2148 20-02-2020 10:55:00 9.1 C 7.19 g/m*3 7.09 C 12.9 km/h
2149 20-02-2020 11:00:00 9.1 C 7.19 g/m*3 7.33 C 11.3 km/h
2150 20-02-2020 11:05:00 9.2 C 7.32 g/m*3 8.45 C 6.4 km/h
Sensor: Nr:Datum:Temp:Abs-Feuchte:Windchill:Wind:
Aussen-T/F 2151 20-02-2020 11:10:00 9.3 C 7.37 g/m*3 7.85 C 9.7 km/h
2152 20-02-2020 11:15:00 9.5 C 7.37 g/m*3 7.82 C 11.3 km/h
2153 20-02-2020 11:20:00 9.7 C 7.47 g/m*3 6.63 C 24.1 km/h
2154 20-02-2020 11:25:00 9.8 C 7.24 g/m*3 7.94 C 12.9 km/h
2155 20-02-2020 11:30:00 9.8 C 7.24 g/m*3 6.89 C 22.5 km/h
2156 20-02-2020 11:35:00 9.8 C 7.14 g/m*3 7.73 C 14.5 km/h
2157 20-02-2020 11:40:00 9.7 C 7.1 g/m*3 7.61 C 14.5 km/h
2158 20-02-2020 11:45:00 9.7 C 7.19 g/m*3 7.41 C 16.1 km/h
2159 20-02-2020 11:50:00 9.6 C 7.15 g/m*3 8.52 C 8.1 km/h
2160 20-02-2020 11:55:00 9.6 C 7.24 g/m*3 7.94 C 11.3 km/h
2161 20-02-2020 12:00:00 9.5 C 7.19 g/m*3 8.09 C 9.7 km/h
2162 20-02-2020 12:05:00 9.5 C 7.19 g/m*3 8.4 C 8.1 km/h
2163 20-02-2020 12:10:00 9.5 C 7.01 g/m*3 8.09 C 9.7 km/h
2164 20-02-2020 12:15:00 9.6 C 7.15 g/m*3 8.21 C 9.7 km/h
2165 20-02-2020 12:20:00 9.7 C 7.01 g/m*3 8.06 C 11.3 km/h
2166 20-02-2020 12:25:00 9.8 C 6.96 g/m*3 7.54 C 16.1 km/h
2167 20-02-2020 12:30:00 9.9 C 7.1 g/m*3 8.87 C 8.1 km/h
2168 20-02-2020 12:35:00 9.9 C 7 g/m*3 8.56 C 9.7 km/h
2169 20-02-2020 12:40:00 9.8 C 7.14 g/m*3 7.54 C 16.1 km/h
2170 20-02-2020 12:45:00 9.7 C 7.38 g/m*3 7.82 C 12.9 km/h
2171 20-02-2020 12:50:00 9.5 C 7.46 g/m*3 7.58 C 12.9 km/h
2172 20-02-2020 12:55:00 9.4 C 7.6 g/m*3 8.68 C 6.4 km/h
2173 20-02-2020 13:00:00 9.4 C 7.6 g/m*3 8.68 C 6.4 km/h
2174 20-02-2020 13:05:00 9.4 C 7.51 g/m*3 7.7 C 11.3 km/h
2175 20-02-2020 13:10:00 9.5 C 7.46 g/m*3 8.79 C 6.4 km/h
Sensor: Nr:Datum:Temp:Abs-Feuchte:Windchill:Wind:
Aussen-T/F 2176 20-02-2020 13:15:00 9.6 C 7.42 g/m*3 7.94 C 11.3 km/h
2177 20-02-2020 13:20:00 9.7 C 7.38 g/m*3 7.82 C 12.9 km/h
2178 20-02-2020 13:25:00 9.8 C 7.42 g/m*3 9.14 C 6.4 km/h
2179 20-02-2020 13:30:00 9.8 C 7.33 g/m*3 9.8 C 4.8 km/h
2180 20-02-2020 13:35:00 9.9 C 7.28 g/m*3 8.56 C 9.7 km/h
2181 20-02-2020 13:40:00 10 C 7.24 g/m*3 7.01 C 24.1 km/h
2182 20-02-2020 13:45:00 9.9 C 7.38 g/m*3 7.48 C 17.7 km/h
2183 20-02-2020 13:50:00 9.8 C 7.42 g/m*3 8.45 C 9.7 km/h
2184 20-02-2020 13:55:00 9.9 C 7.47 g/m*3 8.3 C 11.3 km/h
2185 20-02-2020 14:00:00 10.1 C 7.28 g/m*3 7.28 C 22.5 km/h
2186 20-02-2020 14:05:00 10.2 C 7.23 g/m*3 8.22 C 14.5 km/h
2187 20-02-2020 14:10:00 10.2 C 7.14 g/m*3 7.86 C 17.7 km/h
2188 20-02-2020 14:15:00 10.2 C 7.23 g/m*3 7.7 C 19.3 km/h
2189 20-02-2020 14:20:00 10.2 C 7.23 g/m*3 8.03 C 16.1 km/h
2190 20-02-2020 14:25:00 10.1 C 7.09 g/m*3 7.42 C 20.9 km/h
2191 20-02-2020 14:30:00 10.1 C 7.19 g/m*3 7.91 C 16.1 km/h
2192 20-02-2020 14:35:00 10.2 C 7.14 g/m*3 8.43 C 12.9 km/h
2193 20-02-2020 14:40:00 10.3 C 7.18 g/m*3 8.34 C 14.5 km/h
2194 20-02-2020 14:45:00 10.2 C 7.04 g/m*3 7.86 C 17.7 km/h
2195 20-02-2020 14:50:00 10.1 C 7.09 g/m*3 8.54 C 11.3 km/h
2196 20-02-2020 14:55:00 10 C 7.05 g/m*3 8.68 C 9.7 km/h
2197 20-02-2020 15:00:00 9.9 C 7 g/m*3 8.87 C 8.1 km/h
2198 20-02-2020 15:05:00 9.8 C 7.05 g/m*3 8.18 C 11.3 km/h
2199 20-02-2020 15:10:00 9.8 C 7.14 g/m*3 8.75 C 8.1 km/h
2200 20-02-2020 15:15:00 9.9 C 7.19 g/m*3 8.06 C 12.9 km/h
Sensor: Nr:Datum:Temp:Abs-Feuchte:Windchill:Wind:
Aussen-T/F 2201 20-02-2020 15:20:00 9.9 C 7.1 g/m*3 7.32 C 19.3 km/h
2202 20-02-2020 15:25:00 10.1 C 7.28 g/m*3 8.54 C 11.3 km/h
2203 20-02-2020 15:30:00 10.1 C 7.28 g/m*3 8.1 C 14.5 km/h
2204 20-02-2020 15:35:00 10.1 C 7.28 g/m*3 9.1 C 8.1 km/h
2205 20-02-2020 15:40:00 10.1 C 7.28 g/m*3 8.8 C 9.7 km/h
2206 20-02-2020 15:45:00 10.1 C 7.28 g/m*3 8.1 C 14.5 km/h
2207 20-02-2020 15:50:00 10.1 C 7.19 g/m*3 7.57 C 19.3 km/h
2208 20-02-2020 15:55:00 9.9 C 7.1 g/m*3 7.02 C 22.5 km/h
2209 20-02-2020 16:00:00 9.8 C 7.05 g/m*3 7.73 C 14.5 km/h
2210 20-02-2020 16:05:00 9.8 C 7.05 g/m*3 8.18 C 11.3 km/h
2211 20-02-2020 16:10:00 9.7 C 7.01 g/m*3 7.61 C 14.5 km/h
2212 20-02-2020 16:15:00 9.7 C 7.01 g/m*3 9.7 C 4.8 km/h
2213 20-02-2020 16:20:00 9.7 C 7.1 g/m*3 8.63 C 8.1 km/h
2214 20-02-2020 16:25:00 9.6 C 7.05 g/m*3 7.94 C 11.3 km/h
2215 20-02-2020 16:30:00 9.6 C 6.96 g/m*3 7.29 C 16.1 km/h
2216 20-02-2020 16:35:00 9.5 C 7.01 g/m*3 7.16 C 16.1 km/h
2217 20-02-2020 16:40:00 9.4 C 6.96 g/m*3 8.68 C 6.4 km/h
2218 20-02-2020 16:45:00 9.4 C 6.96 g/m*3 7.97 C 9.7 km/h
2219 20-02-2020 16:50:00 9.4 C 6.96 g/m*3 6.69 C 19.3 km/h
2220 20-02-2020 16:55:00 9.3 C 6.92 g/m*3 7.58 C 11.3 km/h
2221 20-02-2020 17:00:00 9.3 C 6.92 g/m*3 8.16 C 8.1 km/h
2222 20-02-2020 17:05:00 9.3 C 6.92 g/m*3 7.12 C 14.5 km/h
2223 20-02-2020 17:10:00 9.3 C 6.92 g/m*3 7.85 C 9.7 km/h
2224 20-02-2020 17:15:00 9.3 C 6.92 g/m*3 7.33 C 12.9 km/h
2225 20-02-2020 17:20:00 9.4 C 6.87 g/m*3 7.46 C 12.9 km/h
Sensor: Nr:Datum:Temp:Abs-Feuchte:Windchill:Wind:
Aussen-T/F 2226 20-02-2020 17:25:00 9.4 C 6.87 g/m*3 7.46 C 12.9 km/h
2227 20-02-2020 17:30:00 9.5 C 6.83 g/m*3 7.16 C 16.1 km/h
2228 20-02-2020 17:35:00 9.5 C 6.83 g/m*3 7.58 C 12.9 km/h
2229 20-02-2020 17:40:00 9.5 C 6.83 g/m*3 7.82 C 11.3 km/h
2230 20-02-2020 17:45:00 9.4 C 6.78 g/m*3 7.46 C 12.9 km/h
2231 20-02-2020 17:50:00 9.4 C 6.78 g/m*3 7.7 C 11.3 km/h
2232 20-02-2020 17:55:00 9.4 C 6.78 g/m*3 7.97 C 9.7 km/h
2233 20-02-2020 18:00:00 9.5 C 6.83 g/m*3 8.4 C 8.1 km/h
2234 20-02-2020 18:05:00 9.5 C 6.83 g/m*3 9.5 C 0 km/h
2235 20-02-2020 18:10:00 9.4 C 6.69 g/m*3 8.68 C 6.4 km/h
2236 20-02-2020 18:15:00 9.4 C 6.78 g/m*3 7.97 C 9.7 km/h
2237 20-02-2020 18:20:00 9.4 C 6.78 g/m*3 7.46 C 12.9 km/h
2238 20-02-2020 18:25:00 9.5 C 6.83 g/m*3 6.37 C 24.1 km/h
2239 20-02-2020 18:30:00 9.5 C 6.83 g/m*3 7.36 C 14.5 km/h
2240 20-02-2020 18:35:00 9.4 C 6.87 g/m*3 7.24 C 14.5 km/h
2241 20-02-2020 18:40:00 9.3 C 6.92 g/m*3 6.92 C 16.1 km/h
2242 20-02-2020 18:45:00 9.2 C 7.05 g/m*3 9.2 C 4.8 km/h
2243 20-02-2020 18:50:00 9.1 C 7.01 g/m*3 6.48 C 17.7 km/h
2244 20-02-2020 18:55:00 8.9 C 6.92 g/m*3 7.37 C 9.7 km/h
2245 20-02-2020 19:00:00 8.8 C 6.96 g/m*3 7.98 C 6.4 km/h
2246 20-02-2020 19:05:00 8.7 C 6.92 g/m*3 8.7 C 4.8 km/h
2247 20-02-2020 19:10:00 8.5 C 6.83 g/m*3 8.5 C 3.2 km/h
2248 20-02-2020 19:15:00 8.3 C 6.74 g/m*3 6.99 C 8.1 km/h
2249 20-02-2020 19:20:00 8.3 C 6.74 g/m*3 7.41 C 6.4 km/h
2250 20-02-2020 19:25:00 8.3 C 6.74 g/m*3 6.66 C 9.7 km/h
Sensor: Nr:Datum:Temp:Abs-Feuchte:Windchill:Wind:
Aussen-T/F 2251 20-02-2020 19:30:00 8.4 C 6.7 g/m*3 5.43 C 19.3 km/h
2252 20-02-2020 19:35:00 8.6 C 6.79 g/m*3 6.05 C 16.1 km/h
2253 20-02-2020 19:40:00 8.8 C 6.79 g/m*3 5.93 C 19.3 km/h
2254 20-02-2020 19:45:00 9 C 6.79 g/m*3 6.75 C 14.5 km/h
2255 20-02-2020 19:50:00 9.1 C 6.74 g/m*3 6.48 C 17.7 km/h
2256 20-02-2020 19:55:00 9.2 C 6.7 g/m*3 6.13 C 22.5 km/h
2257 20-02-2020 20:00:00 9.3 C 6.74 g/m*3 7.12 C 14.5 km/h
2258 20-02-2020 20:05:00 9.4 C 6.78 g/m*3 7.04 C 16.1 km/h
2259 20-02-2020 20:10:00 9.4 C 6.78 g/m*3 7.04 C 16.1 km/h
2260 20-02-2020 20:15:00 9.4 C 6.78 g/m*3 7.97 C 9.7 km/h
2261 20-02-2020 20:20:00 9.4 C 6.78 g/m*3 7.7 C 11.3 km/h
2262 20-02-2020 20:25:00 9.4 C 6.78 g/m*3 6.86 C 17.7 km/h
2263 20-02-2020 20:30:00 9.6 C 6.78 g/m*3 6.79 C 20.9 km/h
2264 20-02-2020 20:35:00 9.6 C 6.78 g/m*3 6.64 C 22.5 km/h
2265 20-02-2020 20:40:00 9.6 C 6.78 g/m*3 7.11 C 17.7 km/h
2266 20-02-2020 20:45:00 9.6 C 6.78 g/m*3 6.64 C 22.5 km/h
2267 20-02-2020 20:50:00 9.7 C 6.82 g/m*3 6.5 C 25.7 km/h
2268 20-02-2020 20:55:00 9.6 C 6.78 g/m*3 6.37 C 25.7 km/h
2269 20-02-2020 21:00:00 9.6 C 6.87 g/m*3 6.79 C 20.9 km/h
2270 20-02-2020 21:05:00 9.6 C 6.96 g/m*3 6.79 C 20.9 km/h
2271 20-02-2020 21:10:00 9.5 C 6.92 g/m*3 6.66 C 20.9 km/h
2272 20-02-2020 21:15:00 9.4 C 6.96 g/m*3 5.64 C 32.2 km/h
2273 20-02-2020 21:20:00 9.3 C 7.01 g/m*3 6.73 C 17.7 km/h
2274 20-02-2020 21:25:00 9.1 C 7.01 g/m*3 6.15 C 20.9 km/h
2275 20-02-2020 21:30:00 9.1 C 7.01 g/m*3 6.31 C 19.3 km/h
Sensor: Nr:Datum:Temp:Abs-Feuchte:Windchill:Wind:
Aussen-T/F 2276 20-02-2020 21:35:00 8.9 C 7.01 g/m*3 5.6 C 24.1 km/h
2277 20-02-2020 21:40:00 8.9 C 7.01 g/m*3 5.6 C 24.1 km/h
2278 20-02-2020 21:45:00 8.8 C 7.05 g/m*3 5.48 C 24.1 km/h
2279 20-02-2020 21:50:00 8.7 C 7.09 g/m*3 5.35 C 24.1 km/h
2280 20-02-2020 21:55:00 8.7 C 7.09 g/m*3 6.38 C 14.5 km/h
2281 20-02-2020 22:00:00 8.7 C 7.18 g/m*3 6.17 C 16.1 km/h
2282 20-02-2020 22:05:00 8.6 C 7.13 g/m*3 5.52 C 20.9 km/h
2283 20-02-2020 22:10:00 8.6 C 7.22 g/m*3 4.95 C 27.4 km/h
2284 20-02-2020 22:15:00 8.6 C 7.22 g/m*3 5.86 C 17.7 km/h
2285 20-02-2020 22:20:00 8.5 C 7.26 g/m*3 5.24 C 22.5 km/h
2286 20-02-2020 22:25:00 8.5 C 7.34 g/m*3 5.73 C 17.7 km/h
2287 20-02-2020 22:30:00 8.4 C 7.38 g/m*3 6.01 C 14.5 km/h
2288 20-02-2020 22:35:00 8.3 C 7.42 g/m*3 5.14 C 20.9 km/h
2289 20-02-2020 22:40:00 7.9 C 7.15 g/m*3 4.63 C 20.9 km/h
2290 20-02-2020 22:45:00 7.4 C 6.84 g/m*3 4.17 C 19.3 km/h
2291 20-02-2020 22:50:00 7.2 C 6.83 g/m*3 4.31 C 16.1 km/h
2292 20-02-2020 22:55:00 6.9 C 6.7 g/m*3 3.94 C 16.1 km/h
2293 20-02-2020 23:00:00 6.9 C 6.7 g/m*3 4.16 C 14.5 km/h
2294 20-02-2020 23:05:00 6.8 C 6.73 g/m*3 5.67 C 6.4 km/h
2295 20-02-2020 23:10:00 6.7 C 6.69 g/m*3 4.44 C 11.3 km/h
2296 20-02-2020 23:15:00 6.7 C 6.69 g/m*3 5.11 C 8.1 km/h
2297 20-02-2020 23:20:00 6.6 C 6.64 g/m*3 4.99 C 8.1 km/h
2298 20-02-2020 23:25:00 6.5 C 6.6 g/m*3 4.51 C 9.7 km/h
2299 20-02-2020 23:30:00 6.5 C 6.6 g/m*3 3.67 C 14.5 km/h
2300 20-02-2020 23:35:00 6.5 C 6.52 g/m*3 4.51 C 9.7 km/h
Sensor: Nr:Datum:Temp:Abs-Feuchte:Windchill:Wind:
Aussen-T/F 2301 20-02-2020 23:40:00 6.4 C 6.41 g/m*3 2.4 C 24.1 km/h
2302 20-02-2020 23:45:00 6.6 C 6.42 g/m*3 3.57 C 16.1 km/h
2303 20-02-2020 23:50:00 6.6 C 6.42 g/m*3 3.79 C 14.5 km/h
2304 20-02-2020 23:55:00 6.4 C 6.33 g/m*3 2.4 C 24.1 km/h
2305 21-02-2020 00:00:00 6.2 C 6.25 g/m*3 3.07 C 16.1 km/h
2306 21-02-2020 00:05:00 5.9 C 6.2 g/m*3 2.93 C 14.5 km/h
2307 21-02-2020 00:10:00 5.7 C 6.26 g/m*3 2.45 C 16.1 km/h
2308 21-02-2020 00:15:00 5.6 C 6.29 g/m*3 2.57 C 14.5 km/h
2309 21-02-2020 00:20:00 5.4 C 6.21 g/m*3 2.32 C 14.5 km/h
2310 21-02-2020 00:25:00 5.4 C 6.21 g/m*3 2.58 C 12.9 km/h
2311 21-02-2020 00:30:00 5.3 C 6.17 g/m*3 2.2 C 14.5 km/h
2312 21-02-2020 00:35:00 5.2 C 6.06 g/m*3 1.4 C 19.3 km/h
2313 21-02-2020 00:40:00 5.2 C 5.99 g/m*3 1.83 C 16.1 km/h
2314 21-02-2020 00:45:00 5.1 C 5.95 g/m*3 1.28 C 19.3 km/h
2315 21-02-2020 00:50:00 5.1 C 5.88 g/m*3 2.51 C 11.3 km/h
2316 21-02-2020 00:55:00 5.1 C 5.81 g/m*3 1.49 C 17.7 km/h
2317 21-02-2020 01:00:00 5.1 C 5.81 g/m*3 2.51 C 11.3 km/h
2318 21-02-2020 01:05:00 5.1 C 5.81 g/m*3 2.22 C 12.9 km/h
2319 21-02-2020 01:10:00 5.1 C 5.81 g/m*3 2.22 C 12.9 km/h
2320 21-02-2020 01:15:00 5 C 5.71 g/m*3 1.36 C 17.7 km/h
2321 21-02-2020 01:20:00 4.9 C 5.6 g/m*3 1.97 C 12.9 km/h
2322 21-02-2020 01:25:00 4.9 C 5.54 g/m*3 2.27 C 11.3 km/h
2323 21-02-2020 01:30:00 4.9 C 5.47 g/m*3 1.7 C 14.5 km/h
2324 21-02-2020 01:35:00 4.8 C 5.43 g/m*3 1.11 C 17.7 km/h
2325 21-02-2020 01:40:00 4.8 C 5.5 g/m*3 2.15 C 11.3 km/h
Sensor: Nr:Datum:Temp:Abs-Feuchte:Windchill:Wind:
Aussen-T/F 2326 21-02-2020 01:45:00 4.6 C 5.43 g/m*3 1.91 C 11.3 km/h
2327 21-02-2020 01:50:00 4.5 C 5.39 g/m*3 2.52 C 8.1 km/h
2328 21-02-2020 01:55:00 4.4 C 5.42 g/m*3 2.01 C 9.7 km/h
2329 21-02-2020 02:00:00 4.3 C 5.38 g/m*3 1.55 C 11.3 km/h
2330 21-02-2020 02:05:00 4.3 C 5.38 g/m*3 2.29 C 8.1 km/h
2331 21-02-2020 02:10:00 4.2 C 5.35 g/m*3 2.17 C 8.1 km/h
2332 21-02-2020 02:15:00 4.2 C 5.35 g/m*3 1.43 C 11.3 km/h
2333 21-02-2020 02:20:00 4.2 C 5.35 g/m*3 1.77 C 9.7 km/h
2334 21-02-2020 02:25:00 4.2 C 5.41 g/m*3 4.2 C 4.8 km/h
2335 21-02-2020 02:30:00 4.1 C 5.44 g/m*3 2.55 C 6.4 km/h
2336 21-02-2020 02:35:00 4.1 C 5.44 g/m*3 2.55 C 6.4 km/h
2337 21-02-2020 02:40:00 4.2 C 5.48 g/m*3 1.43 C 11.3 km/h
2338 21-02-2020 02:45:00 4.3 C 5.51 g/m*3 2.29 C 8.1 km/h
2339 21-02-2020 02:50:00 4.3 C 5.51 g/m*3 2.29 C 8.1 km/h
2340 21-02-2020 02:55:00 4.3 C 5.51 g/m*3 1.89 C 9.7 km/h
2341 21-02-2020 03:00:00 4.3 C 5.51 g/m*3 1.55 C 11.3 km/h
2342 21-02-2020 03:05:00 4.2 C 5.41 g/m*3 1.43 C 11.3 km/h
2343 21-02-2020 03:10:00 4.3 C 5.45 g/m*3 2.29 C 8.1 km/h
2344 21-02-2020 03:15:00 4.2 C 5.41 g/m*3 2.67 C 6.4 km/h
2345 21-02-2020 03:20:00 4.1 C 5.38 g/m*3 2.55 C 6.4 km/h
2346 21-02-2020 03:25:00 3.9 C 5.37 g/m*3 1.82 C 8.1 km/h
2347 21-02-2020 03:30:00 3.8 C 5.33 g/m*3 3.8 C 3.2 km/h
2348 21-02-2020 03:35:00 3.7 C 5.3 g/m*3 3.7 C 3.2 km/h
2349 21-02-2020 03:40:00 3.6 C 5.32 g/m*3 3.6 C 4.8 km/h
2350 21-02-2020 03:45:00 3.4 C 5.31 g/m*3 3.4 C 3.2 km/h
Sensor: Nr:Datum:Temp:Abs-Feuchte:Windchill:Wind:
Aussen-T/F 2351 21-02-2020 03:50:00 3.3 C 5.28 g/m*3 3.3 C 4.8 km/h
2352 21-02-2020 03:55:00 3.2 C 5.24 g/m*3 3.2 C 3.2 km/h
2353 21-02-2020 04:00:00 3.1 C 5.27 g/m*3 3.1 C 3.2 km/h
2354 21-02-2020 04:05:00 2.9 C 5.2 g/m*3 2.9 C 3.2 km/h
2355 21-02-2020 04:10:00 2.8 C 5.22 g/m*3 1.05 C 6.4 km/h
2356 21-02-2020 04:15:00 2.8 C 5.22 g/m*3 0.52 C 8.1 km/h
2357 21-02-2020 04:20:00 2.8 C 5.22 g/m*3 2.8 C 3.2 km/h
2358 21-02-2020 04:25:00 2.8 C 5.28 g/m*3 0.52 C 8.1 km/h
2359 21-02-2020 04:30:00 2.8 C 5.28 g/m*3 0.52 C 8.1 km/h
2360 21-02-2020 04:35:00 2.8 C 5.28 g/m*3 2.8 C 4.8 km/h
2361 21-02-2020 04:40:00 2.8 C 5.28 g/m*3 1.05 C 6.4 km/h
2362 21-02-2020 04:45:00 2.9 C 5.32 g/m*3 1.17 C 6.4 km/h
2363 21-02-2020 04:50:00 2.9 C 5.26 g/m*3 1.17 C 6.4 km/h
2364 21-02-2020 04:55:00 2.9 C 5.26 g/m*3 2.9 C 4.8 km/h
2365 21-02-2020 05:00:00 2.9 C 5.32 g/m*3 0.22 C 9.7 km/h
2366 21-02-2020 05:05:00 2.9 C 5.26 g/m*3 0.64 C 8.1 km/h
2367 21-02-2020 05:10:00 2.8 C 5.22 g/m*3 2.8 C 3.2 km/h
2368 21-02-2020 05:15:00 2.8 C 5.22 g/m*3 2.8 C 3.2 km/h
2369 21-02-2020 05:20:00 2.7 C 5.24 g/m*3 2.7 C 4.8 km/h
2370 21-02-2020 05:25:00 2.7 C 5.24 g/m*3 2.7 C 3.2 km/h
2371 21-02-2020 05:30:00 2.7 C 5.24 g/m*3 0.4 C 8.1 km/h
2372 21-02-2020 05:35:00 2.8 C 5.28 g/m*3 2.8 C 4.8 km/h
2373 21-02-2020 05:40:00 2.9 C 5.32 g/m*3 -0.14 C 11.3 km/h
2374 21-02-2020 05:45:00 2.9 C 5.26 g/m*3 2.9 C 4.8 km/h
2375 21-02-2020 05:50:00 2.9 C 5.26 g/m*3 2.9 C 3.2 km/h
Sensor: Nr:Datum:Temp:Abs-Feuchte:Windchill:Wind:
Aussen-T/F 2376 21-02-2020 05:55:00 2.8 C 5.22 g/m*3 1.05 C 6.4 km/h
2377 21-02-2020 06:00:00 2.8 C 5.28 g/m*3 -0.26 C 11.3 km/h
2378 21-02-2020 06:05:00 2.9 C 5.26 g/m*3 0.22 C 9.7 km/h
2379 21-02-2020 06:10:00 2.9 C 5.26 g/m*3 2.9 C 4.8 km/h
2380 21-02-2020 06:15:00 2.8 C 5.22 g/m*3 2.8 C 3.2 km/h
2381 21-02-2020 06:20:00 2.7 C 5.19 g/m*3 2.7 C 4.8 km/h
2382 21-02-2020 06:25:00 2.7 C 5.19 g/m*3 0.94 C 6.4 km/h
2383 21-02-2020 06:30:00 2.6 C 5.15 g/m*3 2.6 C 4.8 km/h
2384 21-02-2020 06:35:00 2.5 C 5.12 g/m*3 2.5 C 3.2 km/h
2385 21-02-2020 06:40:00 2.4 C 5.14 g/m*3 2.4 C 3.2 km/h
2386 21-02-2020 06:45:00 2.3 C 5.1 g/m*3 0.47 C 6.4 km/h
2387 21-02-2020 06:50:00 2.3 C 5.1 g/m*3 0.47 C 6.4 km/h
2388 21-02-2020 06:55:00 2.3 C 5.1 g/m*3 2.3 C 4.8 km/h
2389 21-02-2020 07:00:00 2.4 C 5.14 g/m*3 0.05 C 8.1 km/h
2390 21-02-2020 07:05:00 2.5 C 5.17 g/m*3 0.17 C 8.1 km/h
2391 21-02-2020 07:10:00 2.6 C 5.15 g/m*3 0.29 C 8.1 km/h
2392 21-02-2020 07:15:00 2.7 C 5.19 g/m*3 0.94 C 6.4 km/h
2393 21-02-2020 07:20:00 2.7 C 5.13 g/m*3 0.94 C 6.4 km/h
2394 21-02-2020 07:25:00 2.9 C 5.14 g/m*3 0.22 C 9.7 km/h
2395 21-02-2020 07:30:00 3.1 C 5.15 g/m*3 0.1 C 11.3 km/h
2396 21-02-2020 07:35:00 3.2 C 5.18 g/m*3 0.99 C 8.1 km/h
2397 21-02-2020 07:40:00 3.1 C 5.15 g/m*3 1.4 C 6.4 km/h
2398 21-02-2020 07:45:00 3.2 C 5.12 g/m*3 0.99 C 8.1 km/h
2399 21-02-2020 07:50:00 3.2 C 5.18 g/m*3 3.2 C 4.8 km/h
2400 21-02-2020 07:55:00 3.1 C 5.15 g/m*3 3.1 C 4.8 km/h
Sensor: Nr:Datum:Temp:Abs-Feuchte:Windchill:Wind:
Aussen-T/F 2401 21-02-2020 08:00:00 3 C 5.11 g/m*3 3 C 3.2 km/h
2402 21-02-2020 08:05:00 2.9 C 5.08 g/m*3 2.9 C 3.2 km/h
2403 21-02-2020 08:10:00 2.8 C 5.04 g/m*3 2.8 C 3.2 km/h
2404 21-02-2020 08:15:00 2.7 C 5.07 g/m*3 2.7 C 4.8 km/h
2405 21-02-2020 08:20:00 2.6 C 5.03 g/m*3 2.6 C 4.8 km/h
2406 21-02-2020 08:25:00 2.5 C 5 g/m*3 2.5 C 0 km/h
2407 21-02-2020 08:30:00 2.4 C 5.02 g/m*3 2.4 C 1.6 km/h
2408 21-02-2020 08:35:00 2.4 C 5.08 g/m*3 2.4 C 3.2 km/h
2409 21-02-2020 08:40:00 2.3 C 5.05 g/m*3 2.3 C 1.6 km/h
2410 21-02-2020 08:45:00 2.4 C 5.08 g/m*3 2.4 C 4.8 km/h
2411 21-02-2020 08:50:00 2.5 C 5.17 g/m*3 0.71 C 6.4 km/h
2412 21-02-2020 08:55:00 2.7 C 5.19 g/m*3 0.4 C 8.1 km/h
2413 21-02-2020 09:00:00 2.8 C 5.22 g/m*3 2.8 C 4.8 km/h
2414 21-02-2020 09:05:00 2.9 C 5.26 g/m*3 0.64 C 8.1 km/h
2415 21-02-2020 09:10:00 3.1 C 5.27 g/m*3 3.1 C 4.8 km/h
2416 21-02-2020 09:15:00 3.1 C 5.27 g/m*3 1.4 C 6.4 km/h
2417 21-02-2020 09:20:00 3.2 C 5.3 g/m*3 3.2 C 4.8 km/h
2418 21-02-2020 09:25:00 3.3 C 5.34 g/m*3 1.63 C 6.4 km/h
2419 21-02-2020 09:30:00 3.4 C 5.31 g/m*3 0.82 C 9.7 km/h
2420 21-02-2020 09:35:00 3.5 C 5.35 g/m*3 0.94 C 9.7 km/h
2421 21-02-2020 09:40:00 3.6 C 5.39 g/m*3 1.98 C 6.4 km/h
2422 21-02-2020 09:45:00 3.6 C 5.39 g/m*3 3.6 C 4.8 km/h
2423 21-02-2020 09:50:00 3.7 C 5.42 g/m*3 1.58 C 8.1 km/h
2424 21-02-2020 09:55:00 3.8 C 5.4 g/m*3 1.29 C 9.7 km/h
2425 21-02-2020 10:00:00 3.9 C 5.43 g/m*3 1.82 C 8.1 km/h
Sensor: Nr:Datum:Temp:Abs-Feuchte:Windchill:Wind:
Aussen-T/F 2426 21-02-2020 10:05:00 3.9 C 5.37 g/m*3 0.75 C 12.9 km/h
2427 21-02-2020 10:10:00 4 C 5.4 g/m*3 1.53 C 9.7 km/h
2428 21-02-2020 10:15:00 4.1 C 5.44 g/m*3 2.55 C 6.4 km/h
2429 21-02-2020 10:20:00 4.2 C 5.48 g/m*3 4.2 C 4.8 km/h
2430 21-02-2020 10:25:00 4.2 C 5.48 g/m*3 1.12 C 12.9 km/h
2431 21-02-2020 10:30:00 4.3 C 5.58 g/m*3 2.78 C 6.4 km/h
2432 21-02-2020 10:35:00 4.4 C 5.55 g/m*3 2.9 C 6.4 km/h
2433 21-02-2020 10:40:00 4.6 C 5.56 g/m*3 2.25 C 9.7 km/h
2434 21-02-2020 10:45:00 4.7 C 5.6 g/m*3 2.03 C 11.3 km/h
2435 21-02-2020 10:50:00 4.9 C 5.67 g/m*3 2.27 C 11.3 km/h
2436 21-02-2020 10:55:00 5.1 C 5.75 g/m*3 3.71 C 6.4 km/h
2437 21-02-2020 11:00:00 5.2 C 5.71 g/m*3 2.07 C 14.5 km/h
2438 21-02-2020 11:05:00 5.3 C 5.68 g/m*3 2.75 C 11.3 km/h
2439 21-02-2020 11:10:00 5.4 C 5.72 g/m*3 2.87 C 11.3 km/h
2440 21-02-2020 11:15:00 5.6 C 5.8 g/m*3 3.81 C 8.1 km/h
2441 21-02-2020 11:20:00 5.7 C 5.84 g/m*3 2.69 C 14.5 km/h
2442 21-02-2020 11:25:00 5.8 C 5.87 g/m*3 3.36 C 11.3 km/h
2443 21-02-2020 11:30:00 5.9 C 5.84 g/m*3 2.7 C 16.1 km/h
2444 21-02-2020 11:35:00 5.9 C 5.84 g/m*3 2.93 C 14.5 km/h
2445 21-02-2020 11:40:00 6.1 C 5.92 g/m*3 4.04 C 9.7 km/h
2446 21-02-2020 11:45:00 6.2 C 5.88 g/m*3 3.84 C 11.3 km/h
2447 21-02-2020 11:50:00 6.3 C 5.92 g/m*3 3.96 C 11.3 km/h
2448 21-02-2020 11:55:00 6.5 C 5.92 g/m*3 3.67 C 14.5 km/h
2449 21-02-2020 12:00:00 6.7 C 6.08 g/m*3 3.48 C 17.7 km/h
2450 21-02-2020 12:05:00 6.8 C 6.04 g/m*3 4.29 C 12.9 km/h
Sensor: Nr:Datum:Temp:Abs-Feuchte:Windchill:Wind:
Aussen-T/F 2451 21-02-2020 12:10:00 6.9 C 6 g/m*3 3.37 C 20.9 km/h
2452 21-02-2020 12:15:00 7.1 C 6.08 g/m*3 4.41 C 14.5 km/h
2453 21-02-2020 12:20:00 7.2 C 6.12 g/m*3 5.04 C 11.3 km/h
2454 21-02-2020 12:25:00 7.2 C 6.12 g/m*3 4.77 C 12.9 km/h
2455 21-02-2020 12:30:00 7.3 C 6.08 g/m*3 4.66 C 14.5 km/h
2456 21-02-2020 12:35:00 7.3 C 6.08 g/m*3 3.87 C 20.9 km/h
2457 21-02-2020 12:40:00 7.3 C 6.08 g/m*3 4.66 C 14.5 km/h
2458 21-02-2020 12:45:00 7.3 C 6.08 g/m*3 4.44 C 16.1 km/h
2459 21-02-2020 12:50:00 7.4 C 6.2 g/m*3 5.28 C 11.3 km/h
2460 21-02-2020 12:55:00 7.6 C 6.28 g/m*3 4.61 C 17.7 km/h
2461 21-02-2020 13:00:00 7.7 C 6.16 g/m*3 5.38 C 12.9 km/h
2462 21-02-2020 13:05:00 7.8 C 6.2 g/m*3 5.27 C 14.5 km/h
2463 21-02-2020 13:10:00 7.8 C 6.2 g/m*3 5.06 C 16.1 km/h
2464 21-02-2020 13:15:00 7.8 C 6.2 g/m*3 4.35 C 22.5 km/h
2465 21-02-2020 13:20:00 7.7 C 6.16 g/m*3 4.55 C 19.3 km/h
2466 21-02-2020 13:25:00 7.7 C 6.16 g/m*3 4.73 C 17.7 km/h
2467 21-02-2020 13:30:00 7.8 C 6.2 g/m*3 4.35 C 22.5 km/h
2468 21-02-2020 13:35:00 7.8 C 6.2 g/m*3 5.06 C 16.1 km/h
2469 21-02-2020 13:40:00 7.9 C 6.24 g/m*3 4.98 C 17.7 km/h
2470 21-02-2020 13:45:00 7.8 C 6.2 g/m*3 4.86 C 17.7 km/h
2471 21-02-2020 13:50:00 7.7 C 6.16 g/m*3 4.93 C 16.1 km/h
2472 21-02-2020 13:55:00 7.7 C 6.08 g/m*3 4.93 C 16.1 km/h
2473 21-02-2020 14:00:00 7.7 C 6.24 g/m*3 5.38 C 12.9 km/h
2474 21-02-2020 14:05:00 7.7 C 6.16 g/m*3 4.73 C 17.7 km/h
2475 21-02-2020 14:10:00 7.7 C 6.24 g/m*3 6.71 C 6.4 km/h
Sensor: Nr:Datum:Temp:Abs-Feuchte:Windchill:Wind:
Aussen-T/F 2476 21-02-2020 14:15:00 7.8 C 6.2 g/m*3 5.27 C 14.5 km/h
2477 21-02-2020 14:20:00 7.8 C 6.2 g/m*3 5.27 C 14.5 km/h
2478 21-02-2020 14:25:00 7.9 C 6.24 g/m*3 5.89 C 11.3 km/h
2479 21-02-2020 14:30:00 8.1 C 6.24 g/m*3 5.64 C 14.5 km/h
2480 21-02-2020 14:35:00 8.2 C 6.2 g/m*3 5.55 C 16.1 km/h
2481 21-02-2020 14:40:00 8.2 C 6.2 g/m*3 5.36 C 17.7 km/h
2482 21-02-2020 14:45:00 8.2 C 6.28 g/m*3 5.55 C 16.1 km/h
2483 21-02-2020 14:50:00 8.3 C 6.24 g/m*3 5.68 C 16.1 km/h
2484 21-02-2020 14:55:00 8.3 C 6.24 g/m*3 6.66 C 9.7 km/h
2485 21-02-2020 15:00:00 8.4 C 6.19 g/m*3 5.43 C 19.3 km/h
2486 21-02-2020 15:05:00 8.4 C 6.19 g/m*3 5.43 C 19.3 km/h
2487 21-02-2020 15:10:00 8.4 C 6.11 g/m*3 6.01 C 14.5 km/h
2488 21-02-2020 15:15:00 8.4 C 6.19 g/m*3 6.49 C 11.3 km/h
2489 21-02-2020 15:20:00 8.4 C 6.19 g/m*3 6.49 C 11.3 km/h
2490 21-02-2020 15:25:00 8.4 C 6.19 g/m*3 6.24 C 12.9 km/h
2491 21-02-2020 15:30:00 8.4 C 6.28 g/m*3 6.49 C 11.3 km/h
2492 21-02-2020 15:35:00 8.4 C 6.19 g/m*3 6.01 C 14.5 km/h
2493 21-02-2020 15:40:00 8.3 C 6.07 g/m*3 6.37 C 11.3 km/h
2494 21-02-2020 15:45:00 8.3 C 6.15 g/m*3 6.66 C 9.7 km/h
2495 21-02-2020 15:50:00 8.3 C 6.15 g/m*3 7.41 C 6.4 km/h
2496 21-02-2020 15:55:00 8.3 C 6.15 g/m*3 6.66 C 9.7 km/h
2497 21-02-2020 16:00:00 8.3 C 6.07 g/m*3 6.66 C 9.7 km/h
2498 21-02-2020 16:05:00 8.3 C 6.07 g/m*3 6.12 C 12.9 km/h
2499 21-02-2020 16:10:00 8.3 C 6.15 g/m*3 6.12 C 12.9 km/h
2500 21-02-2020 16:15:00 8.2 C 6.11 g/m*3 6.25 C 11.3 km/h
Sensor: Nr:Datum:Temp:Abs-Feuchte:Windchill:Wind:
Aussen-T/F 2501 21-02-2020 16:20:00 8.2 C 6.11 g/m*3 6.87 C 8.1 km/h
2502 21-02-2020 16:25:00 8.2 C 6.11 g/m*3 6.25 C 11.3 km/h
2503 21-02-2020 16:30:00 8.2 C 6.03 g/m*3 7.29 C 6.4 km/h
2504 21-02-2020 16:35:00 8.2 C 6.03 g/m*3 5.99 C 12.9 km/h
2505 21-02-2020 16:40:00 8.2 C 6.03 g/m*3 6.25 C 11.3 km/h
2506 21-02-2020 16:45:00 8.2 C 6.03 g/m*3 6.54 C 9.7 km/h
2507 21-02-2020 16:50:00 8.2 C 5.95 g/m*3 7.29 C 6.4 km/h
2508 21-02-2020 16:55:00 8.2 C 5.95 g/m*3 6.25 C 11.3 km/h
2509 21-02-2020 17:00:00 8.2 C 5.95 g/m*3 6.25 C 11.3 km/h
2510 21-02-2020 17:05:00 8.1 C 5.99 g/m*3 5.87 C 12.9 km/h
2511 21-02-2020 17:10:00 8.1 C 5.91 g/m*3 5.43 C 16.1 km/h
2512 21-02-2020 17:15:00 8 C 5.87 g/m*3 6.01 C 11.3 km/h
2513 21-02-2020 17:20:00 7.9 C 5.91 g/m*3 6.94 C 6.4 km/h
2514 21-02-2020 17:25:00 7.9 C 6 g/m*3 7.9 C 4.8 km/h
2515 21-02-2020 17:30:00 7.8 C 6.04 g/m*3 7.8 C 3.2 km/h
2516 21-02-2020 17:35:00 7.7 C 5.84 g/m*3 7.7 C 3.2 km/h
2517 21-02-2020 17:40:00 7.5 C 5.84 g/m*3 7.5 C 4.8 km/h
2518 21-02-2020 17:45:00 7.3 C 5.85 g/m*3 7.3 C 3.2 km/h
2519 21-02-2020 17:50:00 7.2 C 5.81 g/m*3 7.2 C 3.2 km/h
2520 21-02-2020 17:55:00 7.1 C 5.69 g/m*3 7.1 C 3.2 km/h
2521 21-02-2020 18:00:00 7 C 5.73 g/m*3 5.9 C 6.4 km/h
2522 21-02-2020 18:05:00 6.9 C 5.85 g/m*3 6.9 C 3.2 km/h
2523 21-02-2020 18:10:00 6.8 C 5.81 g/m*3 6.8 C 3.2 km/h
2524 21-02-2020 18:15:00 6.7 C 5.85 g/m*3 6.7 C 1.6 km/h
2525 21-02-2020 18:20:00 6.6 C 5.89 g/m*3 6.6 C 0 km/h
Sensor: Nr:Datum:Temp:Abs-Feuchte:Windchill:Wind:
Aussen-T/F 2526 21-02-2020 18:25:00 6.3 C 5.77 g/m*3 6.3 C 4.8 km/h
2527 21-02-2020 18:30:00 6.1 C 5.77 g/m*3 6.1 C 3.2 km/h
2528 21-02-2020 18:35:00 5.8 C 5.73 g/m*3 5.8 C 0 km/h
2529 21-02-2020 18:40:00 5.7 C 5.69 g/m*3 5.7 C 3.2 km/h
2530 21-02-2020 18:45:00 5.5 C 5.69 g/m*3 5.5 C 4.8 km/h
2531 21-02-2020 18:50:00 5.3 C 5.61 g/m*3 5.3 C 3.2 km/h
2532 21-02-2020 18:55:00 5.3 C 5.61 g/m*3 5.3 C 0 km/h
2533 21-02-2020 19:00:00 5.2 C 5.65 g/m*3 5.2 C 0 km/h
2534 21-02-2020 19:05:00 5.2 C 5.65 g/m*3 5.2 C 1.6 km/h
2535 21-02-2020 19:10:00 5.2 C 5.65 g/m*3 5.2 C 3.2 km/h
2536 21-02-2020 19:15:00 5.1 C 5.61 g/m*3 5.1 C 3.2 km/h
2537 21-02-2020 19:20:00 5.1 C 5.68 g/m*3 5.1 C 3.2 km/h
2538 21-02-2020 19:25:00 5 C 5.64 g/m*3 5 C 0 km/h
2539 21-02-2020 19:30:00 4.9 C 5.6 g/m*3 4.9 C 0 km/h
2540 21-02-2020 19:35:00 4.8 C 5.57 g/m*3 4.8 C 0 km/h
2541 21-02-2020 19:40:00 4.8 C 5.57 g/m*3 4.8 C 0 km/h
2542 21-02-2020 19:45:00 4.7 C 5.53 g/m*3 4.7 C 3.2 km/h
2543 21-02-2020 19:50:00 4.8 C 5.57 g/m*3 2.87 C 8.1 km/h
2544 21-02-2020 19:55:00 5 C 5.64 g/m*3 3.59 C 6.4 km/h
2545 21-02-2020 20:00:00 5.1 C 5.61 g/m*3 5.1 C 0 km/h
2546 21-02-2020 20:05:00 5 C 5.57 g/m*3 5 C 4.8 km/h
2547 21-02-2020 20:10:00 5 C 5.57 g/m*3 5 C 3.2 km/h
2548 21-02-2020 20:15:00 5.1 C 5.61 g/m*3 3.71 C 6.4 km/h
2549 21-02-2020 20:20:00 5.1 C 5.54 g/m*3 5.1 C 4.8 km/h
2550 21-02-2020 20:25:00 5.2 C 5.58 g/m*3 5.2 C 3.2 km/h
Sensor: Nr:Datum:Temp:Abs-Feuchte:Windchill:Wind:
Aussen-T/F 2551 21-02-2020 20:30:00 5.2 C 5.58 g/m*3 3.34 C 8.1 km/h
2552 21-02-2020 20:35:00 5.4 C 5.65 g/m*3 2.08 C 16.1 km/h
2553 21-02-2020 20:40:00 5.6 C 5.66 g/m*3 5.6 C 4.8 km/h
2554 21-02-2020 20:45:00 5.7 C 5.69 g/m*3 3.93 C 8.1 km/h
2555 21-02-2020 20:50:00 5.9 C 5.7 g/m*3 3.48 C 11.3 km/h
2556 21-02-2020 20:55:00 5.9 C 5.7 g/m*3 4.63 C 6.4 km/h
2557 21-02-2020 21:00:00 5.9 C 5.7 g/m*3 3.8 C 9.7 km/h
2558 21-02-2020 21:05:00 6 C 5.73 g/m*3 4.75 C 6.4 km/h
2559 21-02-2020 21:10:00 5.9 C 5.62 g/m*3 4.63 C 6.4 km/h
2560 21-02-2020 21:15:00 5.9 C 5.7 g/m*3 4.63 C 6.4 km/h
2561 21-02-2020 21:20:00 5.9 C 5.7 g/m*3 4.63 C 6.4 km/h
2562 21-02-2020 21:25:00 5.9 C 5.7 g/m*3 4.17 C 8.1 km/h
2563 21-02-2020 21:30:00 5.9 C 5.7 g/m*3 5.9 C 3.2 km/h
2564 21-02-2020 21:35:00 5.8 C 5.73 g/m*3 5.8 C 0 km/h
2565 21-02-2020 21:40:00 5.6 C 5.73 g/m*3 5.6 C 1.6 km/h
2566 21-02-2020 21:45:00 5.4 C 5.65 g/m*3 5.4 C 1.6 km/h
2567 21-02-2020 21:50:00 5.3 C 5.68 g/m*3 3.94 C 6.4 km/h
2568 21-02-2020 21:55:00 5.3 C 5.68 g/m*3 5.3 C 4.8 km/h
2569 21-02-2020 22:00:00 5.3 C 5.68 g/m*3 3.94 C 6.4 km/h
2570 21-02-2020 22:05:00 5.2 C 5.65 g/m*3 5.2 C 0 km/h
2571 21-02-2020 22:10:00 5.1 C 5.68 g/m*3 5.1 C 1.6 km/h
2572 21-02-2020 22:15:00 4.9 C 5.6 g/m*3 4.9 C 3.2 km/h
2573 21-02-2020 22:20:00 4.7 C 5.6 g/m*3 4.7 C 1.6 km/h
2574 21-02-2020 22:25:00 4.5 C 5.59 g/m*3 4.5 C 3.2 km/h
2575 21-02-2020 22:30:00 4.4 C 5.55 g/m*3 4.4 C 1.6 km/h
Sensor: Nr:Datum:Temp:Abs-Feuchte:Windchill:Wind:
Aussen-T/F 2576 21-02-2020 22:35:00 4.4 C 5.62 g/m*3 2.9 C 6.4 km/h
2577 21-02-2020 22:40:00 4.4 C 5.62 g/m*3 4.4 C 1.6 km/h
2578 21-02-2020 22:45:00 4.4 C 5.62 g/m*3 4.4 C 3.2 km/h
2579 21-02-2020 22:50:00 4.5 C 5.65 g/m*3 4.5 C 0 km/h
2580 21-02-2020 22:55:00 4.4 C 5.62 g/m*3 4.4 C 0 km/h
2581 21-02-2020 23:00:00 4.4 C 5.68 g/m*3 4.4 C 1.6 km/h
2582 21-02-2020 23:05:00 4.3 C 5.58 g/m*3 4.3 C 0 km/h
2583 21-02-2020 23:10:00 4.3 C 5.64 g/m*3 4.3 C 1.6 km/h
2584 21-02-2020 23:15:00 4.3 C 5.64 g/m*3 4.3 C 3.2 km/h
2585 21-02-2020 23:20:00 4.3 C 5.64 g/m*3 4.3 C 3.2 km/h
2586 21-02-2020 23:25:00 4.3 C 5.64 g/m*3 4.3 C 1.6 km/h
2587 21-02-2020 23:30:00 4.3 C 5.64 g/m*3 4.3 C 1.6 km/h
2588 21-02-2020 23:35:00 4.3 C 5.71 g/m*3 2.29 C 8.1 km/h
2589 21-02-2020 23:40:00 4.5 C 5.78 g/m*3 3.02 C 6.4 km/h
2590 21-02-2020 23:45:00 4.7 C 5.8 g/m*3 4.7 C 3.2 km/h
2591 21-02-2020 23:50:00 4.7 C 5.8 g/m*3 4.7 C 4.8 km/h
2592 21-02-2020 23:55:00 4.8 C 5.77 g/m*3 3.36 C 6.4 km/h
2593 22-02-2020 00:00:00 4.8 C 5.77 g/m*3 4.8 C 4.8 km/h
2594 22-02-2020 00:05:00 4.8 C 5.77 g/m*3 4.8 C 1.6 km/h
2595 22-02-2020 00:10:00 4.7 C 5.73 g/m*3 4.7 C 3.2 km/h
2596 22-02-2020 00:15:00 4.6 C 5.69 g/m*3 4.6 C 3.2 km/h
2597 22-02-2020 00:20:00 4.5 C 5.72 g/m*3 3.02 C 6.4 km/h
2598 22-02-2020 00:25:00 4.4 C 5.68 g/m*3 4.4 C 3.2 km/h
2599 22-02-2020 00:30:00 4.4 C 5.68 g/m*3 4.4 C 4.8 km/h
2600 22-02-2020 00:35:00 4.4 C 5.68 g/m*3 4.4 C 4.8 km/h
Sensor: Nr:Datum:Temp:Abs-Feuchte:Windchill:Wind:
Aussen-T/F 2601 22-02-2020 00:40:00 4.4 C 5.68 g/m*3 2.4 C 8.1 km/h
2602 22-02-2020 00:45:00 4.4 C 5.68 g/m*3 4.4 C 4.8 km/h
2603 22-02-2020 00:50:00 4.5 C 5.72 g/m*3 4.5 C 3.2 km/h
2604 22-02-2020 00:55:00 4.6 C 5.76 g/m*3 4.6 C 1.6 km/h
2605 22-02-2020 01:00:00 4.6 C 5.76 g/m*3 4.6 C 3.2 km/h
2606 22-02-2020 01:05:00 4.5 C 5.72 g/m*3 3.02 C 6.4 km/h
2607 22-02-2020 01:10:00 4.6 C 5.76 g/m*3 3.13 C 6.4 km/h
2608 22-02-2020 01:15:00 4.7 C 5.73 g/m*3 2.76 C 8.1 km/h
2609 22-02-2020 01:20:00 4.7 C 5.73 g/m*3 4.7 C 0 km/h
2610 22-02-2020 01:25:00 4.7 C 5.73 g/m*3 4.7 C 3.2 km/h
2611 22-02-2020 01:30:00 4.7 C 5.66 g/m*3 3.25 C 6.4 km/h
2612 22-02-2020 01:35:00 4.7 C 5.73 g/m*3 4.7 C 3.2 km/h
2613 22-02-2020 01:40:00 4.6 C 5.69 g/m*3 4.6 C 0 km/h
2614 22-02-2020 01:45:00 4.4 C 5.55 g/m*3 4.4 C 3.2 km/h
2615 22-02-2020 01:50:00 4.3 C 5.58 g/m*3 4.3 C 1.6 km/h
2616 22-02-2020 01:55:00 4.2 C 5.61 g/m*3 4.2 C 3.2 km/h
2617 22-02-2020 02:00:00 4.3 C 5.64 g/m*3 1.89 C 9.7 km/h
2618 22-02-2020 02:05:00 4.4 C 5.68 g/m*3 2.01 C 9.7 km/h
2619 22-02-2020 02:10:00 4.6 C 5.76 g/m*3 3.13 C 6.4 km/h
2620 22-02-2020 02:15:00 4.8 C 5.77 g/m*3 1.85 C 12.9 km/h
2621 22-02-2020 02:20:00 5.1 C 5.81 g/m*3 1.49 C 17.7 km/h
2622 22-02-2020 02:25:00 5.1 C 5.81 g/m*3 5.1 C 4.8 km/h
2623 22-02-2020 02:30:00 5.1 C 5.75 g/m*3 1.71 C 16.1 km/h
2624 22-02-2020 02:35:00 5.2 C 5.78 g/m*3 2.63 C 11.3 km/h
2625 22-02-2020 02:40:00 5.3 C 5.82 g/m*3 2.2 C 14.5 km/h
Sensor: Nr:Datum:Temp:Abs-Feuchte:Windchill:Wind:
Aussen-T/F 2626 22-02-2020 02:45:00 5.4 C 5.86 g/m*3 3.2 C 9.7 km/h
2627 22-02-2020 02:50:00 5.5 C 5.83 g/m*3 1.78 C 19.3 km/h
2628 22-02-2020 02:55:00 5.5 C 5.83 g/m*3 3.32 C 9.7 km/h
2629 22-02-2020 03:00:00 5.5 C 5.83 g/m*3 3.7 C 8.1 km/h
2630 22-02-2020 03:05:00 5.4 C 5.79 g/m*3 4.06 C 6.4 km/h
2631 22-02-2020 03:10:00 5.4 C 5.79 g/m*3 2.58 C 12.9 km/h
2632 22-02-2020 03:15:00 5.3 C 5.75 g/m*3 2.75 C 11.3 km/h
2633 22-02-2020 03:20:00 5.4 C 5.79 g/m*3 1.47 C 20.9 km/h
2634 22-02-2020 03:25:00 5.4 C 5.79 g/m*3 2.32 C 14.5 km/h
2635 22-02-2020 03:30:00 5.4 C 5.79 g/m*3 2.32 C 14.5 km/h
2636 22-02-2020 03:35:00 5.4 C 5.79 g/m*3 1.86 C 17.7 km/h
2637 22-02-2020 03:40:00 5.5 C 5.83 g/m*3 1.99 C 17.7 km/h
2638 22-02-2020 03:45:00 5.5 C 5.76 g/m*3 4.17 C 6.4 km/h
2639 22-02-2020 03:50:00 5.4 C 5.79 g/m*3 1.86 C 17.7 km/h
2640 22-02-2020 03:55:00 5.4 C 5.79 g/m*3 4.06 C 6.4 km/h
2641 22-02-2020 04:00:00 5.3 C 5.75 g/m*3 3.94 C 6.4 km/h
2642 22-02-2020 04:05:00 5.3 C 5.75 g/m*3 1.53 C 19.3 km/h
2643 22-02-2020 04:10:00 5.3 C 5.75 g/m*3 3.08 C 9.7 km/h
2644 22-02-2020 04:15:00 5.3 C 5.75 g/m*3 2.75 C 11.3 km/h
2645 22-02-2020 04:20:00 5.3 C 5.75 g/m*3 3.08 C 9.7 km/h
2646 22-02-2020 04:25:00 5.3 C 5.75 g/m*3 3.94 C 6.4 km/h
2647 22-02-2020 04:30:00 5.3 C 5.75 g/m*3 2.2 C 14.5 km/h
2648 22-02-2020 04:35:00 5.3 C 5.75 g/m*3 5.3 C 3.2 km/h
2649 22-02-2020 04:40:00 5.2 C 5.71 g/m*3 3.34 C 8.1 km/h
2650 22-02-2020 04:45:00 5.2 C 5.78 g/m*3 3.34 C 8.1 km/h
Sensor: Nr:Datum:Temp:Abs-Feuchte:Windchill:Wind:
Aussen-T/F 2651 22-02-2020 04:50:00 5.3 C 5.82 g/m*3 3.46 C 8.1 km/h
2652 22-02-2020 04:55:00 5.3 C 5.75 g/m*3 2.2 C 14.5 km/h
2653 22-02-2020 05:00:00 5.4 C 5.79 g/m*3 1.86 C 17.7 km/h
2654 22-02-2020 05:05:00 5.6 C 5.87 g/m*3 2.11 C 17.7 km/h
2655 22-02-2020 05:10:00 5.6 C 5.87 g/m*3 2.57 C 14.5 km/h
2656 22-02-2020 05:15:00 5.6 C 5.87 g/m*3 2.57 C 14.5 km/h
2657 22-02-2020 05:20:00 5.7 C 5.91 g/m*3 2.24 C 17.7 km/h
2658 22-02-2020 05:25:00 5.8 C 5.87 g/m*3 2.58 C 16.1 km/h
2659 22-02-2020 05:30:00 5.7 C 5.84 g/m*3 2.45 C 16.1 km/h
2660 22-02-2020 05:35:00 5.8 C 5.87 g/m*3 2.81 C 14.5 km/h
2661 22-02-2020 05:40:00 5.8 C 5.87 g/m*3 2.16 C 19.3 km/h
2662 22-02-2020 05:45:00 5.8 C 5.87 g/m*3 1.97 C 20.9 km/h
2663 22-02-2020 05:50:00 5.9 C 5.91 g/m*3 2.7 C 16.1 km/h
2664 22-02-2020 05:55:00 5.8 C 5.87 g/m*3 1.8 C 22.5 km/h
2665 22-02-2020 06:00:00 5.8 C 5.87 g/m*3 1.32 C 27.4 km/h
2666 22-02-2020 06:05:00 5.8 C 5.87 g/m*3 2.58 C 16.1 km/h
2667 22-02-2020 06:10:00 5.8 C 5.8 g/m*3 3.36 C 11.3 km/h
2668 22-02-2020 06:15:00 5.8 C 5.87 g/m*3 3.68 C 9.7 km/h
2669 22-02-2020 06:20:00 5.8 C 5.87 g/m*3 2.36 C 17.7 km/h
2670 22-02-2020 06:25:00 5.8 C 5.87 g/m*3 1.8 C 22.5 km/h
2671 22-02-2020 06:30:00 5.8 C 5.87 g/m*3 2.58 C 16.1 km/h
2672 22-02-2020 06:35:00 5.8 C 5.87 g/m*3 2.36 C 17.7 km/h
2673 22-02-2020 06:40:00 5.9 C 5.91 g/m*3 2.29 C 19.3 km/h
2674 22-02-2020 06:45:00 5.9 C 5.91 g/m*3 1.93 C 22.5 km/h
2675 22-02-2020 06:50:00 5.9 C 5.91 g/m*3 2.93 C 14.5 km/h
Sensor: Nr:Datum:Temp:Abs-Feuchte:Windchill:Wind:
Aussen-T/F 2676 22-02-2020 06:55:00 5.8 C 5.87 g/m*3 2.58 C 16.1 km/h
2677 22-02-2020 07:00:00 5.8 C 5.87 g/m*3 2.58 C 16.1 km/h
2678 22-02-2020 07:05:00 5.8 C 5.87 g/m*3 3.07 C 12.9 km/h
2679 22-02-2020 07:10:00 5.9 C 5.91 g/m*3 1.93 C 22.5 km/h
2680 22-02-2020 07:15:00 5.8 C 5.8 g/m*3 2.58 C 16.1 km/h
2681 22-02-2020 07:20:00 5.8 C 5.87 g/m*3 4.05 C 8.1 km/h
2682 22-02-2020 07:25:00 5.7 C 5.84 g/m*3 3.93 C 8.1 km/h
2683 22-02-2020 07:30:00 5.7 C 5.84 g/m*3 2.95 C 12.9 km/h
2684 22-02-2020 07:35:00 5.7 C 5.84 g/m*3 3.56 C 9.7 km/h
2685 22-02-2020 07:40:00 5.7 C 5.84 g/m*3 2.03 C 19.3 km/h
2686 22-02-2020 07:45:00 5.8 C 5.87 g/m*3 2.16 C 19.3 km/h
2687 22-02-2020 07:50:00 5.9 C 5.91 g/m*3 4.63 C 6.4 km/h
2688 22-02-2020 07:55:00 5.8 C 5.87 g/m*3 3.68 C 9.7 km/h
2689 22-02-2020 08:00:00 5.8 C 5.87 g/m*3 3.68 C 9.7 km/h
2690 22-02-2020 08:05:00 5.9 C 5.91 g/m*3 2.93 C 14.5 km/h
2691 22-02-2020 08:10:00 5.9 C 5.91 g/m*3 3.48 C 11.3 km/h
2692 22-02-2020 08:15:00 5.9 C 5.84 g/m*3 3.19 C 12.9 km/h
2693 22-02-2020 08:20:00 6.1 C 5.92 g/m*3 3.18 C 14.5 km/h
2694 22-02-2020 08:25:00 6.1 C 5.92 g/m*3 3.18 C 14.5 km/h
2695 22-02-2020 08:30:00 6.1 C 5.92 g/m*3 3.72 C 11.3 km/h
2696 22-02-2020 08:35:00 6.1 C 5.92 g/m*3 3.72 C 11.3 km/h
2697 22-02-2020 08:40:00 6.1 C 5.92 g/m*3 3.43 C 12.9 km/h
2698 22-02-2020 08:45:00 6.1 C 5.92 g/m*3 4.04 C 9.7 km/h
2699 22-02-2020 08:50:00 6.2 C 5.96 g/m*3 4.15 C 9.7 km/h
2700 22-02-2020 08:55:00 6.2 C 5.96 g/m*3 2.48 C 20.9 km/h
Sensor: Nr:Datum:Temp:Abs-Feuchte:Windchill:Wind:
Aussen-T/F 2701 22-02-2020 09:00:00 6.3 C 6 g/m*3 2.61 C 20.9 km/h
2702 22-02-2020 09:05:00 6.4 C 5.96 g/m*3 2.91 C 19.3 km/h
2703 22-02-2020 09:10:00 6.5 C 6 g/m*3 3.92 C 12.9 km/h
2704 22-02-2020 09:15:00 6.6 C 6.04 g/m*3 2.99 C 20.9 km/h
2705 22-02-2020 09:20:00 6.7 C 6.08 g/m*3 4.17 C 12.9 km/h
2706 22-02-2020 09:25:00 6.7 C 6 g/m*3 3.69 C 16.1 km/h
2707 22-02-2020 09:30:00 6.8 C 6.04 g/m*3 4.29 C 12.9 km/h
2708 22-02-2020 09:35:00 6.8 C 5.97 g/m*3 3.82 C 16.1 km/h
2709 22-02-2020 09:40:00 6.8 C 5.97 g/m*3 3.24 C 20.9 km/h
2710 22-02-2020 09:45:00 6.9 C 6 g/m*3 3.04 C 24.1 km/h
2711 22-02-2020 09:50:00 6.9 C 6 g/m*3 3.73 C 17.7 km/h
2712 22-02-2020 09:55:00 6.9 C 5.93 g/m*3 3.54 C 19.3 km/h
2713 22-02-2020 10:00:00 7.1 C 6.01 g/m*3 3.8 C 19.3 km/h
2714 22-02-2020 10:05:00 7.2 C 6.04 g/m*3 5.04 C 11.3 km/h
2715 22-02-2020 10:10:00 7.3 C 6 g/m*3 4.44 C 16.1 km/h
2716 22-02-2020 10:15:00 7.3 C 6 g/m*3 2.77 C 33.8 km/h
2717 22-02-2020 10:20:00 7.4 C 5.96 g/m*3 2.9 C 33.8 km/h
2718 22-02-2020 10:25:00 7.4 C 5.96 g/m*3 3.68 C 24.1 km/h
2719 22-02-2020 10:30:00 7.5 C 6 g/m*3 3.96 C 22.5 km/h
2720 22-02-2020 10:35:00 7.6 C 6.04 g/m*3 4.25 C 20.9 km/h
2721 22-02-2020 10:40:00 7.6 C 6.04 g/m*3 4.61 C 17.7 km/h
2722 22-02-2020 10:45:00 7.6 C 6.04 g/m*3 3.8 C 25.7 km/h
2723 22-02-2020 10:50:00 7.6 C 6.04 g/m*3 4.09 C 22.5 km/h
2724 22-02-2020 10:55:00 7.6 C 6.04 g/m*3 4.42 C 19.3 km/h
2725 22-02-2020 11:00:00 7.7 C 6.08 g/m*3 4.93 C 16.1 km/h
Sensor: Nr:Datum:Temp:Abs-Feuchte:Windchill:Wind:
Aussen-T/F 2726 22-02-2020 11:05:00 7.7 C 6.08 g/m*3 4.73 C 17.7 km/h
2727 22-02-2020 11:10:00 7.7 C 6.16 g/m*3 4.55 C 19.3 km/h
2728 22-02-2020 11:15:00 7.8 C 6.12 g/m*3 4.86 C 17.7 km/h
2729 22-02-2020 11:20:00 7.8 C 6.12 g/m*3 5.06 C 16.1 km/h
2730 22-02-2020 11:25:00 7.8 C 6.04 g/m*3 4.51 C 20.9 km/h
2731 22-02-2020 11:30:00 7.9 C 6.08 g/m*3 5.18 C 16.1 km/h
2732 22-02-2020 11:35:00 7.9 C 6 g/m*3 4.04 C 27.4 km/h
2733 22-02-2020 11:40:00 8 C 6.04 g/m*3 4.76 C 20.9 km/h
2734 22-02-2020 11:45:00 8.1 C 6.07 g/m*3 5.43 C 16.1 km/h
2735 22-02-2020 11:50:00 8.2 C 6.03 g/m*3 5.99 C 12.9 km/h
2736 22-02-2020 11:55:00 8.2 C 5.95 g/m*3 5.55 C 16.1 km/h
2737 22-02-2020 12:00:00 8.3 C 5.9 g/m*3 5.89 C 14.5 km/h
2738 22-02-2020 12:05:00 8.4 C 5.94 g/m*3 5.8 C 16.1 km/h
2739 22-02-2020 12:10:00 8.6 C 6.1 g/m*3 7.01 C 9.7 km/h
2740 22-02-2020 12:15:00 8.7 C 6.05 g/m*3 6.85 C 11.3 km/h
2741 22-02-2020 12:20:00 8.7 C 6.05 g/m*3 8.7 C 4.8 km/h
2742 22-02-2020 12:25:00 8.8 C 6.01 g/m*3 7.98 C 6.4 km/h
2743 22-02-2020 12:30:00 8.8 C 6.09 g/m*3 8.8 C 3.2 km/h
2744 22-02-2020 12:35:00 8.9 C 5.96 g/m*3 8.1 C 6.4 km/h
2745 22-02-2020 12:40:00 9 C 6.08 g/m*3 9 C 1.6 km/h
2746 22-02-2020 12:45:00 9.1 C 6.03 g/m*3 8.33 C 6.4 km/h
2747 22-02-2020 12:50:00 9.2 C 6.16 g/m*3 9.2 C 1.6 km/h
2748 22-02-2020 12:55:00 9.2 C 6.16 g/m*3 8.45 C 6.4 km/h
2749 22-02-2020 13:00:00 9.3 C 6.02 g/m*3 7.85 C 9.7 km/h
2750 22-02-2020 13:05:00 9.4 C 6.15 g/m*3 8.68 C 6.4 km/h
Sensor: Nr:Datum:Temp:Abs-Feuchte:Windchill:Wind:
Aussen-T/F 2751 22-02-2020 13:10:00 9.5 C 6.28 g/m*3 9.5 C 4.8 km/h
2752 22-02-2020 13:15:00 9.6 C 6.32 g/m*3 9.6 C 0 km/h
2753 22-02-2020 13:20:00 9.7 C 6.18 g/m*3 8.06 C 11.3 km/h
2754 22-02-2020 13:25:00 9.8 C 6.22 g/m*3 8.45 C 9.7 km/h
2755 22-02-2020 13:30:00 10 C 6.2 g/m*3 8.99 C 8.1 km/h
2756 22-02-2020 13:35:00 10.2 C 6.19 g/m*3 9.22 C 8.1 km/h
2757 22-02-2020 13:40:00 10.3 C 6.32 g/m*3 9.34 C 8.1 km/h
2758 22-02-2020 13:45:00 10.3 C 6.32 g/m*3 9.04 C 9.7 km/h
2759 22-02-2020 13:50:00 10.3 C 6.22 g/m*3 8.34 C 14.5 km/h
2760 22-02-2020 13:55:00 10.3 C 6.22 g/m*3 8.55 C 12.9 km/h
2761 22-02-2020 14:00:00 10.3 C 6.22 g/m*3 8.16 C 16.1 km/h
2762 22-02-2020 14:05:00 10.3 C 6.22 g/m*3 8.34 C 14.5 km/h
2763 22-02-2020 14:10:00 10.3 C 6.22 g/m*3 8.34 C 14.5 km/h
2764 22-02-2020 14:15:00 10.3 C 6.22 g/m*3 8.34 C 14.5 km/h
2765 22-02-2020 14:20:00 10.3 C 6.22 g/m*3 8.55 C 12.9 km/h
2766 22-02-2020 14:25:00 10.3 C 6.32 g/m*3 7.98 C 17.7 km/h
2767 22-02-2020 14:30:00 10.2 C 6.28 g/m*3 8.03 C 16.1 km/h
2768 22-02-2020 14:35:00 10.3 C 6.32 g/m*3 7.53 C 22.5 km/h
2769 22-02-2020 14:40:00 10.3 C 6.32 g/m*3 7.67 C 20.9 km/h
2770 22-02-2020 14:45:00 10.3 C 6.32 g/m*3 8.16 C 16.1 km/h
2771 22-02-2020 14:50:00 10.3 C 6.42 g/m*3 8.78 C 11.3 km/h
2772 22-02-2020 14:55:00 10.3 C 6.42 g/m*3 8.34 C 14.5 km/h
2773 22-02-2020 15:00:00 10.4 C 6.46 g/m*3 8.9 C 11.3 km/h
2774 22-02-2020 15:05:00 10.4 C 6.46 g/m*3 8.11 C 17.7 km/h
2775 22-02-2020 15:10:00 10.4 C 6.46 g/m*3 7.66 C 22.5 km/h
Sensor: Nr:Datum:Temp:Abs-Feuchte:Windchill:Wind:
Aussen-T/F 2776 22-02-2020 15:15:00 10.4 C 6.46 g/m*3 8.28 C 16.1 km/h
2777 22-02-2020 15:20:00 10.5 C 6.5 g/m*3 8.4 C 16.1 km/h
2778 22-02-2020 15:25:00 10.6 C 6.54 g/m*3 7.78 C 24.1 km/h
2779 22-02-2020 15:30:00 10.6 C 6.64 g/m*3 7.78 C 24.1 km/h
2780 22-02-2020 15:35:00 10.7 C 6.68 g/m*3 8.48 C 17.7 km/h
2781 22-02-2020 15:40:00 10.7 C 6.68 g/m*3 8.65 C 16.1 km/h
2782 22-02-2020 15:45:00 10.8 C 6.72 g/m*3 9.16 C 12.9 km/h
2783 22-02-2020 15:50:00 10.8 C 6.72 g/m*3 8.61 C 17.7 km/h
2784 22-02-2020 15:55:00 10.8 C 6.72 g/m*3 8.78 C 16.1 km/h
2785 22-02-2020 16:00:00 10.9 C 6.76 g/m*3 8.58 C 19.3 km/h
2786 22-02-2020 16:05:00 10.9 C 6.76 g/m*3 8.43 C 20.9 km/h
2787 22-02-2020 16:10:00 10.8 C 6.82 g/m*3 8.96 C 14.5 km/h
2788 22-02-2020 16:15:00 10.8 C 6.82 g/m*3 8.96 C 14.5 km/h
2789 22-02-2020 16:20:00 10.8 C 6.82 g/m*3 8.45 C 19.3 km/h
2790 22-02-2020 16:25:00 10.7 C 6.78 g/m*3 9.04 C 12.9 km/h
2791 22-02-2020 16:30:00 10.7 C 6.88 g/m*3 8.32 C 19.3 km/h
2792 22-02-2020 16:35:00 10.7 C 6.88 g/m*3 7.91 C 24.1 km/h
2793 22-02-2020 16:40:00 10.6 C 6.93 g/m*3 8.05 C 20.9 km/h
2794 22-02-2020 16:45:00 10.6 C 6.93 g/m*3 8.71 C 14.5 km/h
2795 22-02-2020 16:50:00 10.6 C 6.93 g/m*3 8.36 C 17.7 km/h
2796 22-02-2020 16:55:00 10.5 C 6.89 g/m*3 8.07 C 19.3 km/h
2797 22-02-2020 17:00:00 10.4 C 6.94 g/m*3 8.67 C 12.9 km/h
2798 22-02-2020 17:05:00 10.4 C 6.84 g/m*3 7.95 C 19.3 km/h
2799 22-02-2020 17:10:00 10.4 C 6.94 g/m*3 8.47 C 14.5 km/h
2800 22-02-2020 17:15:00 10.3 C 6.9 g/m*3 8.34 C 14.5 km/h
Sensor: Nr:Datum:Temp:Abs-Feuchte:Windchill:Wind:
Aussen-T/F 2801 22-02-2020 17:20:00 10.3 C 6.9 g/m*3 8.16 C 16.1 km/h
2802 22-02-2020 17:25:00 10.3 C 6.9 g/m*3 8.16 C 16.1 km/h
2803 22-02-2020 17:30:00 10.3 C 6.9 g/m*3 8.55 C 12.9 km/h
2804 22-02-2020 17:35:00 10.3 C 6.99 g/m*3 8.16 C 16.1 km/h
2805 22-02-2020 17:40:00 10.3 C 6.99 g/m*3 8.16 C 16.1 km/h
2806 22-02-2020 17:45:00 10.3 C 6.99 g/m*3 8.16 C 16.1 km/h
2807 22-02-2020 17:50:00 10.3 C 6.99 g/m*3 7.98 C 17.7 km/h
2808 22-02-2020 17:55:00 10.2 C 6.95 g/m*3 8.03 C 16.1 km/h
2809 22-02-2020 18:00:00 10.2 C 7.04 g/m*3 8.43 C 12.9 km/h
2810 22-02-2020 18:05:00 10.2 C 7.04 g/m*3 8.43 C 12.9 km/h
2811 22-02-2020 18:10:00 10.2 C 7.04 g/m*3 8.03 C 16.1 km/h
2812 22-02-2020 18:15:00 10.2 C 7.04 g/m*3 8.43 C 12.9 km/h
2813 22-02-2020 18:20:00 10.1 C 7.09 g/m*3 8.54 C 11.3 km/h
2814 22-02-2020 18:25:00 10.1 C 7.09 g/m*3 7.73 C 17.7 km/h
2815 22-02-2020 18:30:00 10.1 C 7.19 g/m*3 7.73 C 17.7 km/h
2816 22-02-2020 18:35:00 10.1 C 7.19 g/m*3 8.31 C 12.9 km/h
2817 22-02-2020 18:40:00 10.1 C 7.28 g/m*3 8.1 C 14.5 km/h
2818 22-02-2020 18:45:00 10.1 C 7.28 g/m*3 8.31 C 12.9 km/h
2819 22-02-2020 18:50:00 10 C 7.33 g/m*3 7.01 C 24.1 km/h
2820 22-02-2020 18:55:00 10 C 7.42 g/m*3 7.44 C 19.3 km/h
2821 22-02-2020 19:00:00 9.9 C 7.38 g/m*3 8.56 C 9.7 km/h
2822 22-02-2020 19:05:00 9.9 C 7.38 g/m*3 7.48 C 17.7 km/h
2823 22-02-2020 19:10:00 9.9 C 7.47 g/m*3 6.89 C 24.1 km/h
2824 22-02-2020 19:15:00 9.9 C 7.47 g/m*3 7.66 C 16.1 km/h
2825 22-02-2020 19:20:00 9.9 C 7.47 g/m*3 7.66 C 16.1 km/h
Sensor: Nr:Datum:Temp:Abs-Feuchte:Windchill:Wind:
Aussen-T/F 2826 22-02-2020 19:25:00 9.9 C 7.47 g/m*3 8.06 C 12.9 km/h
2827 22-02-2020 19:30:00 9.9 C 7.47 g/m*3 7.48 C 17.7 km/h
2828 22-02-2020 19:35:00 9.9 C 7.47 g/m*3 8.06 C 12.9 km/h
2829 22-02-2020 19:40:00 9.9 C 7.47 g/m*3 8.3 C 11.3 km/h
2830 22-02-2020 19:45:00 10 C 7.61 g/m*3 7.44 C 19.3 km/h
2831 22-02-2020 19:50:00 10.1 C 7.56 g/m*3 7.57 C 19.3 km/h
2832 22-02-2020 19:55:00 10.1 C 7.66 g/m*3 7.42 C 20.9 km/h
2833 22-02-2020 20:00:00 10.2 C 7.71 g/m*3 8.22 C 14.5 km/h
2834 22-02-2020 20:05:00 10.2 C 7.71 g/m*3 8.22 C 14.5 km/h
2835 22-02-2020 20:10:00 10.2 C 7.71 g/m*3 7.7 C 19.3 km/h
2836 22-02-2020 20:15:00 10.2 C 7.71 g/m*3 7.7 C 19.3 km/h
2837 22-02-2020 20:20:00 10.2 C 7.71 g/m*3 8.03 C 16.1 km/h
2838 22-02-2020 20:25:00 10.2 C 7.71 g/m*3 8.43 C 12.9 km/h
2839 22-02-2020 20:30:00 10.2 C 7.71 g/m*3 7.7 C 19.3 km/h
2840 22-02-2020 20:35:00 10.3 C 7.85 g/m*3 7.98 C 17.7 km/h
2841 22-02-2020 20:40:00 10.3 C 7.85 g/m*3 7.98 C 17.7 km/h
2842 22-02-2020 20:45:00 10.3 C 7.85 g/m*3 8.78 C 11.3 km/h
2843 22-02-2020 20:50:00 10.3 C 7.85 g/m*3 8.78 C 11.3 km/h
2844 22-02-2020 20:55:00 10.2 C 7.8 g/m*3 9.22 C 8.1 km/h
2845 22-02-2020 21:00:00 10.2 C 7.8 g/m*3 9.6 C 6.4 km/h
2846 22-02-2020 21:05:00 10.2 C 7.9 g/m*3 8.43 C 12.9 km/h
2847 22-02-2020 21:10:00 10.2 C 7.9 g/m*3 8.66 C 11.3 km/h
2848 22-02-2020 21:15:00 10.3 C 7.95 g/m*3 7.98 C 17.7 km/h
2849 22-02-2020 21:20:00 10.3 C 7.95 g/m*3 7.98 C 17.7 km/h
2850 22-02-2020 21:25:00 10.4 C 7.9 g/m*3 8.28 C 16.1 km/h
Sensor: Nr:Datum:Temp:Abs-Feuchte:Windchill:Wind:
Aussen-T/F 2851 22-02-2020 21:30:00 10.4 C 7.9 g/m*3 8.9 C 11.3 km/h
2852 22-02-2020 21:35:00 10.4 C 7.9 g/m*3 8.47 C 14.5 km/h
2853 22-02-2020 21:40:00 10.5 C 7.95 g/m*3 8.07 C 19.3 km/h
2854 22-02-2020 21:45:00 10.6 C 8 g/m*3 8.53 C 16.1 km/h
2855 22-02-2020 21:50:00 10.6 C 8 g/m*3 9.14 C 11.3 km/h
2856 22-02-2020 21:55:00 10.6 C 8 g/m*3 8.2 C 19.3 km/h
2857 22-02-2020 22:00:00 10.6 C 8 g/m*3 8.36 C 17.7 km/h
2858 22-02-2020 22:05:00 10.6 C 8 g/m*3 8.2 C 19.3 km/h
2859 22-02-2020 22:10:00 10.7 C 8.05 g/m*3 8.84 C 14.5 km/h
2860 22-02-2020 22:15:00 10.7 C 8.05 g/m*3 8.48 C 17.7 km/h
2861 22-02-2020 22:20:00 10.8 C 8.11 g/m*3 8.61 C 17.7 km/h
2862 22-02-2020 22:25:00 10.8 C 8.11 g/m*3 8.04 C 24.1 km/h
2863 22-02-2020 22:30:00 10.9 C 8.06 g/m*3 8.58 C 19.3 km/h
2864 22-02-2020 22:35:00 10.9 C 8.16 g/m*3 8.58 C 19.3 km/h
2865 22-02-2020 22:40:00 10.9 C 8.16 g/m*3 8.58 C 19.3 km/h
2866 22-02-2020 22:45:00 10.9 C 8.16 g/m*3 8.43 C 20.9 km/h
2867 22-02-2020 22:50:00 10.9 C 8.16 g/m*3 8.9 C 16.1 km/h
2868 22-02-2020 22:55:00 10.9 C 8.16 g/m*3 8.9 C 16.1 km/h
2869 22-02-2020 23:00:00 10.8 C 8.11 g/m*3 8.96 C 14.5 km/h
2870 22-02-2020 23:05:00 10.8 C 8.11 g/m*3 8.96 C 14.5 km/h
2871 22-02-2020 23:10:00 10.9 C 8.16 g/m*3 8.73 C 17.7 km/h
2872 22-02-2020 23:15:00 10.9 C 8.16 g/m*3 8.73 C 17.7 km/h
2873 22-02-2020 23:20:00 10.9 C 8.16 g/m*3 8.73 C 17.7 km/h
2874 22-02-2020 23:25:00 10.9 C 8.16 g/m*3 8.73 C 17.7 km/h
2875 22-02-2020 23:30:00 10.9 C 8.16 g/m*3 9.51 C 11.3 km/h
Sensor: Nr:Datum:Temp:Abs-Feuchte:Windchill:Wind:
Aussen-T/F 2876 22-02-2020 23:35:00 10.9 C 8.16 g/m*3 9.28 C 12.9 km/h
2877 22-02-2020 23:40:00 10.9 C 8.16 g/m*3 9.08 C 14.5 km/h
2878 22-02-2020 23:45:00 10.9 C 8.16 g/m*3 8.3 C 22.5 km/h
2879 22-02-2020 23:50:00 11 C 8.21 g/m*3 9.02 C 16.1 km/h
2880 22-02-2020 23:55:00 11 C 8.21 g/m*3 8.86 C 17.7 km/h
2881 23-02-2020 00:00:00 10.9 C 8.16 g/m*3 9.51 C 11.3 km/h
2882 23-02-2020 00:05:00 11 C 8.11 g/m*3 8.42 C 22.5 km/h
2883 23-02-2020 00:10:00 11 C 8.11 g/m*3 8.86 C 17.7 km/h
2884 23-02-2020 00:15:00 11 C 8.11 g/m*3 9.02 C 16.1 km/h
2885 23-02-2020 00:20:00 11 C 8.01 g/m*3 8.3 C 24.1 km/h
2886 23-02-2020 00:25:00 11 C 8.11 g/m*3 9.21 C 14.5 km/h
2887 23-02-2020 00:30:00 10.9 C 8.06 g/m*3 9.08 C 14.5 km/h
2888 23-02-2020 00:35:00 10.8 C 8.11 g/m*3 8.96 C 14.5 km/h
2889 23-02-2020 00:40:00 10.7 C 8.15 g/m*3 9.26 C 11.3 km/h
2890 23-02-2020 00:45:00 10.6 C 8.2 g/m*3 8.92 C 12.9 km/h
2891 23-02-2020 00:50:00 10.4 C 8.19 g/m*3 9.83 C 6.4 km/h
2892 23-02-2020 00:55:00 10.3 C 8.33 g/m*3 9.04 C 9.7 km/h
2893 23-02-2020 01:00:00 10.1 C 8.32 g/m*3 8.1 C 14.5 km/h
2894 23-02-2020 01:05:00 10 C 8.36 g/m*3 8.68 C 9.7 km/h
2895 23-02-2020 01:10:00 9.9 C 8.31 g/m*3 8.3 C 11.3 km/h
2896 23-02-2020 01:15:00 9.9 C 8.31 g/m*3 7.16 C 20.9 km/h
2897 23-02-2020 01:20:00 9.9 C 8.31 g/m*3 8.56 C 9.7 km/h
2898 23-02-2020 01:25:00 9.8 C 8.35 g/m*3 8.75 C 8.1 km/h
2899 23-02-2020 01:30:00 9.8 C 8.35 g/m*3 8.18 C 11.3 km/h
2900 23-02-2020 01:35:00 9.8 C 8.35 g/m*3 8.45 C 9.7 km/h
Sensor: Nr:Datum:Temp:Abs-Feuchte:Windchill:Wind:
Aussen-T/F 2901 23-02-2020 01:40:00 9.9 C 8.4 g/m*3 8.3 C 11.3 km/h
2902 23-02-2020 01:45:00 9.9 C 8.31 g/m*3 7.66 C 16.1 km/h
2903 23-02-2020 01:50:00 9.9 C 8.31 g/m*3 8.87 C 8.1 km/h
2904 23-02-2020 01:55:00 10 C 8.36 g/m*3 8.99 C 8.1 km/h
2905 23-02-2020 02:00:00 10 C 8.36 g/m*3 8.99 C 8.1 km/h
2906 23-02-2020 02:05:00 10.1 C 8.42 g/m*3 8.54 C 11.3 km/h
2907 23-02-2020 02:10:00 10.1 C 8.42 g/m*3 7.73 C 17.7 km/h
2908 23-02-2020 02:15:00 10.1 C 8.42 g/m*3 8.54 C 11.3 km/h
2909 23-02-2020 02:20:00 10 C 8.36 g/m*3 8.42 C 11.3 km/h
2910 23-02-2020 02:25:00 10 C 8.27 g/m*3 8.42 C 11.3 km/h
2911 23-02-2020 02:30:00 10 C 8.27 g/m*3 7.98 C 14.5 km/h
2912 23-02-2020 02:35:00 10.1 C 8.32 g/m*3 8.8 C 9.7 km/h
2913 23-02-2020 02:40:00 10.1 C 8.23 g/m*3 8.31 C 12.9 km/h
2914 23-02-2020 02:45:00 10.2 C 8.18 g/m*3 7.7 C 19.3 km/h
2915 23-02-2020 02:50:00 10.2 C 8.18 g/m*3 7.7 C 19.3 km/h
2916 23-02-2020 02:55:00 10.3 C 8.14 g/m*3 8.34 C 14.5 km/h
2917 23-02-2020 03:00:00 10.3 C 8.14 g/m*3 8.34 C 14.5 km/h
2918 23-02-2020 03:05:00 10.3 C 8.14 g/m*3 8.16 C 16.1 km/h
2919 23-02-2020 03:10:00 10.3 C 8.04 g/m*3 8.55 C 12.9 km/h
2920 23-02-2020 03:15:00 10.3 C 8.04 g/m*3 7.82 C 19.3 km/h
2921 23-02-2020 03:20:00 10.2 C 8.09 g/m*3 7.86 C 17.7 km/h
2922 23-02-2020 03:25:00 10.2 C 8.09 g/m*3 8.03 C 16.1 km/h
2923 23-02-2020 03:30:00 10.2 C 8.09 g/m*3 8.43 C 12.9 km/h
2924 23-02-2020 03:35:00 10.2 C 8.09 g/m*3 8.92 C 9.7 km/h
2925 23-02-2020 03:40:00 10.1 C 8.04 g/m*3 8.8 C 9.7 km/h
Sensor: Nr:Datum:Temp:Abs-Feuchte:Windchill:Wind:
Aussen-T/F 2926 23-02-2020 03:45:00 10.1 C 8.13 g/m*3 8.31 C 12.9 km/h
2927 23-02-2020 03:50:00 10.1 C 8.13 g/m*3 7.91 C 16.1 km/h
2928 23-02-2020 03:55:00 10.1 C 8.04 g/m*3 8.31 C 12.9 km/h
2929 23-02-2020 04:00:00 10.1 C 8.04 g/m*3 8.54 C 11.3 km/h
2930 23-02-2020 04:05:00 10.1 C 7.94 g/m*3 7.91 C 16.1 km/h
2931 23-02-2020 04:10:00 10.2 C 7.99 g/m*3 8.43 C 12.9 km/h
2932 23-02-2020 04:15:00 10.2 C 7.9 g/m*3 8.92 C 9.7 km/h
2933 23-02-2020 04:20:00 10.2 C 7.9 g/m*3 8.03 C 16.1 km/h
2934 23-02-2020 04:25:00 10.3 C 7.95 g/m*3 8.55 C 12.9 km/h
2935 23-02-2020 04:30:00 10.3 C 7.95 g/m*3 8.55 C 12.9 km/h
2936 23-02-2020 04:35:00 10.3 C 7.95 g/m*3 7.98 C 17.7 km/h
2937 23-02-2020 04:40:00 10.3 C 7.95 g/m*3 7.98 C 17.7 km/h
2938 23-02-2020 04:45:00 10.4 C 8 g/m*3 8.11 C 17.7 km/h
2939 23-02-2020 04:50:00 10.4 C 8.1 g/m*3 9.16 C 9.7 km/h
2940 23-02-2020 04:55:00 10.3 C 8.04 g/m*3 8.55 C 12.9 km/h
2941 23-02-2020 05:00:00 10.3 C 8.14 g/m*3 8.78 C 11.3 km/h
2942 23-02-2020 05:05:00 10.3 C 8.14 g/m*3 8.78 C 11.3 km/h
2943 23-02-2020 05:10:00 10.3 C 8.14 g/m*3 9.04 C 9.7 km/h
2944 23-02-2020 05:15:00 10.3 C 8.14 g/m*3 8.55 C 12.9 km/h
2945 23-02-2020 05:20:00 10.3 C 8.24 g/m*3 8.78 C 11.3 km/h
2946 23-02-2020 05:25:00 10.3 C 8.24 g/m*3 9.04 C 9.7 km/h
2947 23-02-2020 05:30:00 10.3 C 8.24 g/m*3 8.34 C 14.5 km/h
2948 23-02-2020 05:35:00 10.4 C 8.29 g/m*3 7.8 C 20.9 km/h
2949 23-02-2020 05:40:00 10.4 C 8.29 g/m*3 8.28 C 16.1 km/h
2950 23-02-2020 05:45:00 10.4 C 8.19 g/m*3 7.8 C 20.9 km/h
Sensor: Nr:Datum:Temp:Abs-Feuchte:Windchill:Wind:
Aussen-T/F 2951 23-02-2020 05:50:00 10.4 C 8.19 g/m*3 7.95 C 19.3 km/h
2952 23-02-2020 05:55:00 10.4 C 8.29 g/m*3 7.95 C 19.3 km/h
2953 23-02-2020 06:00:00 10.3 C 8.24 g/m*3 8.16 C 16.1 km/h
2954 23-02-2020 06:05:00 10.3 C 8.24 g/m*3 8.55 C 12.9 km/h
2955 23-02-2020 06:10:00 10.3 C 8.14 g/m*3 7.67 C 20.9 km/h
2956 23-02-2020 06:15:00 10.3 C 8.14 g/m*3 9.72 C 6.4 km/h
2957 23-02-2020 06:20:00 10.3 C 8.24 g/m*3 8.34 C 14.5 km/h
2958 23-02-2020 06:25:00 10.2 C 8.18 g/m*3 8.22 C 14.5 km/h
2959 23-02-2020 06:30:00 10.2 C 8.09 g/m*3 8.66 C 11.3 km/h
2960 23-02-2020 06:35:00 10.3 C 8.14 g/m*3 8.34 C 14.5 km/h
2961 23-02-2020 06:40:00 10.3 C 8.14 g/m*3 9.34 C 8.1 km/h
2962 23-02-2020 06:45:00 10.3 C 8.14 g/m*3 9.04 C 9.7 km/h
2963 23-02-2020 06:50:00 10.3 C 8.14 g/m*3 8.34 C 14.5 km/h
2964 23-02-2020 06:55:00 10.3 C 8.24 g/m*3 8.78 C 11.3 km/h
2965 23-02-2020 07:00:00 10.3 C 8.24 g/m*3 9.04 C 9.7 km/h
2966 23-02-2020 07:05:00 10.2 C 8.18 g/m*3 9.22 C 8.1 km/h
2967 23-02-2020 07:10:00 10.2 C 8.18 g/m*3 8.22 C 14.5 km/h
2968 23-02-2020 07:15:00 10.2 C 8.28 g/m*3 8.92 C 9.7 km/h
2969 23-02-2020 07:20:00 10.2 C 8.28 g/m*3 8.03 C 16.1 km/h
2970 23-02-2020 07:25:00 10.2 C 8.28 g/m*3 7.7 C 19.3 km/h
2971 23-02-2020 07:30:00 10.2 C 8.28 g/m*3 7.86 C 17.7 km/h
2972 23-02-2020 07:35:00 10.3 C 8.33 g/m*3 8.55 C 12.9 km/h
2973 23-02-2020 07:40:00 10.3 C 8.33 g/m*3 8.16 C 16.1 km/h
2974 23-02-2020 07:45:00 10.3 C 8.43 g/m*3 7.53 C 22.5 km/h
2975 23-02-2020 07:50:00 10.3 C 8.43 g/m*3 7.15 C 27.4 km/h
Sensor: Nr:Datum:Temp:Abs-Feuchte:Windchill:Wind:
Aussen-T/F 2976 23-02-2020 07:55:00 10.3 C 8.43 g/m*3 7.15 C 27.4 km/h
2977 23-02-2020 08:00:00 10.4 C 8.48 g/m*3 7.53 C 24.1 km/h
2978 23-02-2020 08:05:00 10.5 C 8.53 g/m*3 7.65 C 24.1 km/h
2979 23-02-2020 08:10:00 10.5 C 8.53 g/m*3 7.53 C 25.7 km/h
2980 23-02-2020 08:15:00 10.4 C 8.48 g/m*3 8.28 C 16.1 km/h
2981 23-02-2020 08:20:00 10.5 C 8.53 g/m*3 7.53 C 25.7 km/h
2982 23-02-2020 08:25:00 10.5 C 8.53 g/m*3 7.79 C 22.5 km/h
2983 23-02-2020 08:30:00 10.5 C 8.53 g/m*3 7.79 C 22.5 km/h
2984 23-02-2020 08:35:00 10.6 C 8.59 g/m*3 7.91 C 22.5 km/h
2985 23-02-2020 08:40:00 10.6 C 8.59 g/m*3 7.78 C 24.1 km/h
2986 23-02-2020 08:45:00 10.6 C 8.59 g/m*3 8.2 C 19.3 km/h
2987 23-02-2020 08:50:00 10.6 C 8.59 g/m*3 8.71 C 14.5 km/h
2988 23-02-2020 08:55:00 10.6 C 8.59 g/m*3 8.71 C 14.5 km/h
2989 23-02-2020 09:00:00 10.6 C 8.59 g/m*3 10.06 C 6.4 km/h
2990 23-02-2020 09:05:00 10.6 C 8.59 g/m*3 8.92 C 12.9 km/h
2991 23-02-2020 09:10:00 10.6 C 8.59 g/m*3 8.36 C 17.7 km/h
2992 23-02-2020 09:15:00 10.6 C 8.59 g/m*3 8.71 C 14.5 km/h
2993 23-02-2020 09:20:00 10.6 C 8.69 g/m*3 7.78 C 24.1 km/h
2994 23-02-2020 09:25:00 10.6 C 8.59 g/m*3 8.53 C 16.1 km/h
2995 23-02-2020 09:30:00 10.5 C 8.63 g/m*3 8.4 C 16.1 km/h
2996 23-02-2020 09:35:00 10.5 C 8.63 g/m*3 8.23 C 17.7 km/h
2997 23-02-2020 09:40:00 10.6 C 8.69 g/m*3 7.78 C 24.1 km/h
2998 23-02-2020 09:45:00 10.6 C 8.69 g/m*3 8.05 C 20.9 km/h
2999 23-02-2020 09:50:00 10.6 C 8.69 g/m*3 7.66 C 25.7 km/h
3000 23-02-2020 09:55:00 10.6 C 8.69 g/m*3 8.36 C 17.7 km/h
Sensor: Nr:Datum:Temp:Abs-Feuchte:Windchill:Wind:
Aussen-T/F 3001 23-02-2020 10:00:00 10.6 C 8.69 g/m*3 8.2 C 19.3 km/h
3002 23-02-2020 10:05:00 10.6 C 8.69 g/m*3 7.66 C 25.7 km/h
3003 23-02-2020 10:10:00 10.7 C 8.74 g/m*3 8.84 C 14.5 km/h
3004 23-02-2020 10:15:00 10.7 C 8.74 g/m*3 8.04 C 22.5 km/h
3005 23-02-2020 10:20:00 10.8 C 8.7 g/m*3 8.04 C 24.1 km/h
3006 23-02-2020 10:25:00 10.8 C 8.7 g/m*3 8.3 C 20.9 km/h
3007 23-02-2020 10:30:00 11 C 8.71 g/m*3 8.3 C 24.1 km/h
3008 23-02-2020 10:35:00 11.1 C 8.76 g/m*3 11.1 C 25.7 km/h
3009 23-02-2020 10:40:00 11.1 C 8.76 g/m*3 11.1 C 17.7 km/h
3010 23-02-2020 10:45:00 11.2 C 8.82 g/m*3 11.2 C 19.3 km/h
3011 23-02-2020 10:50:00 11.2 C 8.72 g/m*3 11.2 C 27.4 km/h
3012 23-02-2020 10:55:00 11.2 C 8.72 g/m*3 11.2 C 25.7 km/h
3013 23-02-2020 11:00:00 11.2 C 8.72 g/m*3 11.2 C 27.4 km/h
3014 23-02-2020 11:05:00 11.2 C 8.72 g/m*3 11.2 C 20.9 km/h
3015 23-02-2020 11:10:00 11.3 C 8.77 g/m*3 11.3 C 20.9 km/h
3016 23-02-2020 11:15:00 11.3 C 8.77 g/m*3 11.3 C 35.4 km/h
3017 23-02-2020 11:20:00 11.3 C 8.77 g/m*3 11.3 C 17.7 km/h
3018 23-02-2020 11:25:00 11.3 C 8.77 g/m*3 11.3 C 14.5 km/h
3019 23-02-2020 11:30:00 11.3 C 8.77 g/m*3 11.3 C 22.5 km/h
3020 23-02-2020 11:35:00 11.3 C 8.87 g/m*3 11.3 C 14.5 km/h
3021 23-02-2020 11:40:00 11.4 C 8.83 g/m*3 11.4 C 22.5 km/h
3022 23-02-2020 11:45:00 11.4 C 8.83 g/m*3 11.4 C 17.7 km/h
3023 23-02-2020 11:50:00 11.4 C 8.83 g/m*3 11.4 C 16.1 km/h
3024 23-02-2020 11:55:00 11.5 C 8.88 g/m*3 11.5 C 20.9 km/h
3025 23-02-2020 12:00:00 11.6 C 8.94 g/m*3 11.6 C 20.9 km/h
Sensor: Nr:Datum:Temp:Abs-Feuchte:Windchill:Wind:
Aussen-T/F 3026 23-02-2020 12:05:00 11.6 C 8.94 g/m*3 11.6 C 19.3 km/h
3027 23-02-2020 12:10:00 11.7 C 8.99 g/m*3 11.7 C 29 km/h
3028 23-02-2020 12:15:00 11.7 C 8.99 g/m*3 11.7 C 22.5 km/h
3029 23-02-2020 12:20:00 11.8 C 8.95 g/m*3 11.8 C 24.1 km/h
3030 23-02-2020 12:25:00 11.8 C 8.95 g/m*3 11.8 C 35.4 km/h
3031 23-02-2020 12:30:00 11.8 C 8.95 g/m*3 11.8 C 29 km/h
3032 23-02-2020 12:35:00 11.8 C 8.95 g/m*3 11.8 C 22.5 km/h
3033 23-02-2020 12:40:00 11.8 C 8.95 g/m*3 11.8 C 24.1 km/h
3034 23-02-2020 12:45:00 11.9 C 9 g/m*3 11.9 C 24.1 km/h
3035 23-02-2020 12:50:00 11.9 C 9 g/m*3 11.9 C 17.7 km/h
3036 23-02-2020 12:55:00 11.9 C 9 g/m*3 11.9 C 27.4 km/h
3037 23-02-2020 13:00:00 11.9 C 9 g/m*3 11.9 C 25.7 km/h
3038 23-02-2020 13:05:00 12 C 8.95 g/m*3 12 C 19.3 km/h
3039 23-02-2020 13:10:00 12.1 C 9.01 g/m*3 12.1 C 20.9 km/h
3040 23-02-2020 13:15:00 12 C 8.95 g/m*3 12 C 20.9 km/h
3041 23-02-2020 13:20:00 12.1 C 9.01 g/m*3 12.1 C 25.7 km/h
3042 23-02-2020 13:25:00 12 C 8.95 g/m*3 12 C 24.1 km/h
3043 23-02-2020 13:30:00 12 C 8.95 g/m*3 12 C 22.5 km/h
3044 23-02-2020 13:35:00 12 C 8.95 g/m*3 12 C 24.1 km/h
3045 23-02-2020 13:40:00 12.1 C 9.01 g/m*3 12.1 C 20.9 km/h
3046 23-02-2020 13:45:00 12.1 C 9.01 g/m*3 12.1 C 19.3 km/h
3047 23-02-2020 13:50:00 12.1 C 9.01 g/m*3 12.1 C 25.7 km/h
3048 23-02-2020 13:55:00 12 C 8.95 g/m*3 12 C 29 km/h
3049 23-02-2020 14:00:00 12 C 8.95 g/m*3 12 C 30.6 km/h
3050 23-02-2020 14:05:00 12.1 C 9.01 g/m*3 12.1 C 35.4 km/h
Sensor: Nr:Datum:Temp:Abs-Feuchte:Windchill:Wind:
Aussen-T/F 3051 23-02-2020 14:10:00 12.1 C 9.12 g/m*3 12.1 C 20.9 km/h
3052 23-02-2020 14:15:00 12 C 9.06 g/m*3 12 C 16.1 km/h
3053 23-02-2020 14:20:00 12.1 C 9.12 g/m*3 12.1 C 19.3 km/h
3054 23-02-2020 14:25:00 12 C 9.06 g/m*3 12 C 16.1 km/h
3055 23-02-2020 14:30:00 12 C 9.06 g/m*3 12 C 19.3 km/h
3056 23-02-2020 14:35:00 12 C 9.06 g/m*3 12 C 27.4 km/h
3057 23-02-2020 14:40:00 12.1 C 9.12 g/m*3 12.1 C 17.7 km/h
3058 23-02-2020 14:45:00 12.1 C 9.12 g/m*3 12.1 C 27.4 km/h
3059 23-02-2020 14:50:00 12.1 C 9.22 g/m*3 12.1 C 29 km/h
3060 23-02-2020 14:55:00 12.1 C 9.22 g/m*3 12.1 C 25.7 km/h
3061 23-02-2020 15:00:00 12.1 C 9.22 g/m*3 12.1 C 25.7 km/h
3062 23-02-2020 15:05:00 12.1 C 9.22 g/m*3 12.1 C 19.3 km/h
3063 23-02-2020 15:10:00 12.2 C 9.28 g/m*3 12.2 C 22.5 km/h
3064 23-02-2020 15:15:00 12.2 C 9.28 g/m*3 12.2 C 22.5 km/h
3065 23-02-2020 15:20:00 12.2 C 9.28 g/m*3 12.2 C 25.7 km/h
3066 23-02-2020 15:25:00 12.2 C 9.28 g/m*3 12.2 C 33.8 km/h
3067 23-02-2020 15:30:00 12.2 C 9.28 g/m*3 12.2 C 22.5 km/h
3068 23-02-2020 15:35:00 12.2 C 9.28 g/m*3 12.2 C 22.5 km/h
3069 23-02-2020 15:40:00 12.2 C 9.28 g/m*3 12.2 C 19.3 km/h
3070 23-02-2020 15:45:00 12.2 C 9.28 g/m*3 12.2 C 19.3 km/h
3071 23-02-2020 15:50:00 12.2 C 9.28 g/m*3 12.2 C 22.5 km/h
3072 23-02-2020 15:55:00 12.1 C 9.22 g/m*3 12.1 C 24.1 km/h
3073 23-02-2020 16:00:00 12.1 C 9.22 g/m*3 12.1 C 17.7 km/h
3074 23-02-2020 16:05:00 12.1 C 9.22 g/m*3 12.1 C 20.9 km/h
3075 23-02-2020 16:10:00 12.1 C 9.33 g/m*3 12.1 C 17.7 km/h
Sensor: Nr:Datum:Temp:Abs-Feuchte:Windchill:Wind:
Aussen-T/F 3076 23-02-2020 16:15:00 12.1 C 9.22 g/m*3 12.1 C 17.7 km/h
3077 23-02-2020 16:20:00 12.1 C 9.33 g/m*3 12.1 C 20.9 km/h
3078 23-02-2020 16:25:00 12.1 C 9.33 g/m*3 12.1 C 19.3 km/h
3079 23-02-2020 16:30:00 12.1 C 9.33 g/m*3 12.1 C 20.9 km/h
3080 23-02-2020 16:35:00 12.1 C 9.33 g/m*3 12.1 C 12.9 km/h
3081 23-02-2020 16:40:00 12.1 C 9.33 g/m*3 12.1 C 17.7 km/h
3082 23-02-2020 16:45:00 12.1 C 9.33 g/m*3 12.1 C 22.5 km/h
3083 23-02-2020 16:50:00 12.1 C 9.33 g/m*3 12.1 C 17.7 km/h
3084 23-02-2020 16:55:00 12.1 C 9.22 g/m*3 12.1 C 16.1 km/h
3085 23-02-2020 17:00:00 12.1 C 9.33 g/m*3 12.1 C 19.3 km/h
3086 23-02-2020 17:05:00 12.1 C 9.22 g/m*3 12.1 C 19.3 km/h
3087 23-02-2020 17:10:00 12.2 C 9.28 g/m*3 12.2 C 16.1 km/h
3088 23-02-2020 17:15:00 12.2 C 9.39 g/m*3 12.2 C 16.1 km/h
3089 23-02-2020 17:20:00 12.1 C 9.33 g/m*3 12.1 C 22.5 km/h
3090 23-02-2020 17:25:00 12.1 C 9.44 g/m*3 12.1 C 14.5 km/h
3091 23-02-2020 17:30:00 11.9 C 9.32 g/m*3 11.9 C 16.1 km/h
3092 23-02-2020 17:35:00 11.8 C 9.37 g/m*3 11.8 C 14.5 km/h
3093 23-02-2020 17:40:00 11.7 C 9.41 g/m*3 11.7 C 9.7 km/h
3094 23-02-2020 17:45:00 11.6 C 9.46 g/m*3 11.6 C 30.6 km/h
3095 23-02-2020 17:50:00 11.5 C 9.4 g/m*3 11.5 C 22.5 km/h
3096 23-02-2020 17:55:00 11.5 C 9.4 g/m*3 11.5 C 17.7 km/h
3097 23-02-2020 18:00:00 11.4 C 9.34 g/m*3 11.4 C 14.5 km/h
3098 23-02-2020 18:05:00 11.4 C 9.34 g/m*3 11.4 C 12.9 km/h
3099 23-02-2020 18:10:00 11.5 C 9.5 g/m*3 11.5 C 17.7 km/h
3100 23-02-2020 18:15:00 11.5 C 9.4 g/m*3 11.5 C 12.9 km/h
Sensor: Nr:Datum:Temp:Abs-Feuchte:Windchill:Wind:
Aussen-T/F 3101 23-02-2020 18:20:00 11.4 C 9.44 g/m*3 11.4 C 14.5 km/h
3102 23-02-2020 18:25:00 11.4 C 9.44 g/m*3 11.4 C 14.5 km/h
3103 23-02-2020 18:30:00 11.3 C 9.49 g/m*3 11.3 C 8.1 km/h
3104 23-02-2020 18:35:00 11.3 C 9.49 g/m*3 11.3 C 16.1 km/h
3105 23-02-2020 18:40:00 11.3 C 9.49 g/m*3 11.3 C 17.7 km/h
3106 23-02-2020 18:45:00 11.2 C 9.53 g/m*3 11.2 C 12.9 km/h
3107 23-02-2020 18:50:00 11.2 C 9.53 g/m*3 11.2 C 12.9 km/h
3108 23-02-2020 18:55:00 11.2 C 9.53 g/m*3 11.2 C 11.3 km/h
3109 23-02-2020 19:00:00 11.2 C 9.53 g/m*3 11.2 C 8.1 km/h
3110 23-02-2020 19:05:00 11.2 C 9.53 g/m*3 11.2 C 12.9 km/h
3111 23-02-2020 19:10:00 11.2 C 9.53 g/m*3 11.2 C 16.1 km/h
3112 23-02-2020 19:15:00 11.2 C 9.53 g/m*3 11.2 C 14.5 km/h
3113 23-02-2020 19:20:00 11.2 C 9.53 g/m*3 11.2 C 6.4 km/h
3114 23-02-2020 19:25:00 11.3 C 9.59 g/m*3 11.3 C 16.1 km/h
3115 23-02-2020 19:30:00 11.4 C 9.65 g/m*3 11.4 C 19.3 km/h
3116 23-02-2020 19:35:00 10.7 C 8.94 g/m*3 7.79 C 25.7 km/h
3117 23-02-2020 19:40:00 10.1 C 8.61 g/m*3 7.73 C 17.7 km/h
3118 23-02-2020 19:45:00 9.7 C 8.48 g/m*3 6.91 C 20.9 km/h
3119 23-02-2020 19:50:00 9.4 C 8.32 g/m*3 7.24 C 14.5 km/h
3120 23-02-2020 19:55:00 9.2 C 8.22 g/m*3 6.61 C 17.7 km/h
3121 23-02-2020 20:00:00 9 C 8.11 g/m*3 6.36 C 17.7 km/h
3122 23-02-2020 20:05:00 8.8 C 8.01 g/m*3 5.93 C 19.3 km/h
3123 23-02-2020 20:10:00 8.7 C 7.96 g/m*3 6.6 C 12.9 km/h
3124 23-02-2020 20:15:00 8.7 C 7.96 g/m*3 7.46 C 8.1 km/h
3125 23-02-2020 20:20:00 8.6 C 7.91 g/m*3 5.86 C 17.7 km/h
Sensor: Nr:Datum:Temp:Abs-Feuchte:Windchill:Wind:
Aussen-T/F 3126 23-02-2020 20:25:00 8.6 C 7.82 g/m*3 6.05 C 16.1 km/h
3127 23-02-2020 20:30:00 8.5 C 7.77 g/m*3 7.22 C 8.1 km/h
3128 23-02-2020 20:35:00 8.5 C 7.77 g/m*3 6.13 C 14.5 km/h
3129 23-02-2020 20:40:00 8.5 C 7.77 g/m*3 5.92 C 16.1 km/h
3130 23-02-2020 20:45:00 8.5 C 7.77 g/m*3 6.13 C 14.5 km/h
3131 23-02-2020 20:50:00 8.4 C 7.63 g/m*3 5.61 C 17.7 km/h
3132 23-02-2020 20:55:00 8.4 C 7.63 g/m*3 5.8 C 16.1 km/h
3133 23-02-2020 21:00:00 8.4 C 7.63 g/m*3 5.11 C 22.5 km/h
3134 23-02-2020 21:05:00 8.4 C 7.63 g/m*3 5.43 C 19.3 km/h
3135 23-02-2020 21:10:00 8.4 C 7.55 g/m*3 6.24 C 12.9 km/h
3136 23-02-2020 21:15:00 8.4 C 7.55 g/m*3 5.61 C 17.7 km/h
3137 23-02-2020 21:20:00 8.3 C 7.5 g/m*3 5.31 C 19.3 km/h
3138 23-02-2020 21:25:00 8.2 C 7.37 g/m*3 6.25 C 11.3 km/h
3139 23-02-2020 21:30:00 8.3 C 7.42 g/m*3 6.37 C 11.3 km/h
3140 23-02-2020 21:35:00 8.3 C 7.33 g/m*3 6.37 C 11.3 km/h
3141 23-02-2020 21:40:00 8.3 C 7.33 g/m*3 6.37 C 11.3 km/h
3142 23-02-2020 21:45:00 8.3 C 7.33 g/m*3 6.37 C 11.3 km/h
3143 23-02-2020 21:50:00 8.2 C 7.29 g/m*3 5.01 C 20.9 km/h
3144 23-02-2020 21:55:00 8.2 C 7.37 g/m*3 5.76 C 14.5 km/h
3145 23-02-2020 22:00:00 8.2 C 7.37 g/m*3 6.25 C 11.3 km/h
3146 23-02-2020 22:05:00 8.2 C 7.37 g/m*3 5.99 C 12.9 km/h
3147 23-02-2020 22:10:00 8.2 C 7.29 g/m*3 5.18 C 19.3 km/h
3148 23-02-2020 22:15:00 8.3 C 7.25 g/m*3 5.89 C 14.5 km/h
3149 23-02-2020 22:20:00 8.3 C 7.25 g/m*3 6.99 C 8.1 km/h
3150 23-02-2020 22:25:00 8.3 C 7.16 g/m*3 5.68 C 16.1 km/h
Sensor: Nr:Datum:Temp:Abs-Feuchte:Windchill:Wind:
Aussen-T/F 3151 23-02-2020 22:30:00 8.2 C 7.03 g/m*3 4.86 C 22.5 km/h
3152 23-02-2020 22:35:00 8.2 C 6.95 g/m*3 5.76 C 14.5 km/h
3153 23-02-2020 22:40:00 8.2 C 6.95 g/m*3 5.99 C 12.9 km/h
3154 23-02-2020 22:45:00 8.1 C 6.91 g/m*3 6.13 C 11.3 km/h
3155 23-02-2020 22:50:00 8 C 6.78 g/m*3 6.01 C 11.3 km/h
3156 23-02-2020 22:55:00 7.9 C 6.74 g/m*3 6.18 C 9.7 km/h
3157 23-02-2020 23:00:00 7.8 C 6.61 g/m*3 5.51 C 12.9 km/h
3158 23-02-2020 23:05:00 7.8 C 6.61 g/m*3 6.4 C 8.1 km/h
3159 23-02-2020 23:10:00 7.7 C 6.65 g/m*3 5.65 C 11.3 km/h
3160 23-02-2020 23:15:00 7.6 C 6.69 g/m*3 7.6 C 1.6 km/h
3161 23-02-2020 23:20:00 7.5 C 6.72 g/m*3 6.05 C 8.1 km/h
3162 23-02-2020 23:25:00 7.4 C 6.6 g/m*3 6.37 C 6.4 km/h
3163 23-02-2020 23:30:00 7.4 C 6.36 g/m*3 5.28 C 11.3 km/h
3164 23-02-2020 23:35:00 7.4 C 6.36 g/m*3 4.56 C 16.1 km/h
3165 23-02-2020 23:40:00 7.5 C 6.32 g/m*3 6.05 C 8.1 km/h
3166 23-02-2020 23:45:00 7.5 C 6.24 g/m*3 6.48 C 6.4 km/h
3167 23-02-2020 23:50:00 7.5 C 6.24 g/m*3 6.05 C 8.1 km/h
3168 23-02-2020 23:55:00 7.5 C 6.4 g/m*3 7.5 C 3.2 km/h
3169 24-02-2020 00:00:00 7.4 C 6.2 g/m*3 6.37 C 6.4 km/h
3170 24-02-2020 00:05:00 7.4 C 6.28 g/m*3 7.4 C 4.8 km/h
3171 24-02-2020 00:10:00 7.3 C 6.16 g/m*3 7.3 C 3.2 km/h
3172 24-02-2020 00:15:00 7.3 C 6.32 g/m*3 7.3 C 1.6 km/h
3173 24-02-2020 00:20:00 7.2 C 6.28 g/m*3 7.2 C 1.6 km/h
3174 24-02-2020 00:25:00 7.1 C 6.24 g/m*3 7.1 C 3.2 km/h
3175 24-02-2020 00:30:00 7.1 C 6.32 g/m*3 6.02 C 6.4 km/h
Sensor: Nr:Datum:Temp:Abs-Feuchte:Windchill:Wind:
Aussen-T/F 3176 24-02-2020 00:35:00 7.1 C 6.24 g/m*3 6.02 C 6.4 km/h
3177 24-02-2020 00:40:00 7 C 6.28 g/m*3 7 C 3.2 km/h
3178 24-02-2020 00:45:00 6.9 C 6.24 g/m*3 5.79 C 6.4 km/h
3179 24-02-2020 00:50:00 6.9 C 6.24 g/m*3 6.9 C 4.8 km/h
3180 24-02-2020 00:55:00 6.9 C 6.24 g/m*3 4.99 C 9.7 km/h
3181 24-02-2020 01:00:00 6.9 C 6.24 g/m*3 6.9 C 4.8 km/h
3182 24-02-2020 01:05:00 6.8 C 6.27 g/m*3 6.8 C 4.8 km/h
3183 24-02-2020 01:10:00 6.6 C 6.19 g/m*3 6.6 C 4.8 km/h
3184 24-02-2020 01:15:00 6.4 C 6.11 g/m*3 6.4 C 4.8 km/h
3185 24-02-2020 01:20:00 6.3 C 6.14 g/m*3 6.3 C 3.2 km/h
3186 24-02-2020 01:25:00 6.3 C 6.14 g/m*3 4.64 C 8.1 km/h
3187 24-02-2020 01:30:00 6.2 C 6.1 g/m*3 6.2 C 4.8 km/h
3188 24-02-2020 01:35:00 6.2 C 6.18 g/m*3 6.2 C 1.6 km/h
3189 24-02-2020 01:40:00 6.1 C 6.14 g/m*3 6.1 C 4.8 km/h
3190 24-02-2020 01:45:00 6.1 C 6.14 g/m*3 4.4 C 8.1 km/h
3191 24-02-2020 01:50:00 6.1 C 6.14 g/m*3 6.1 C 3.2 km/h
3192 24-02-2020 01:55:00 5.9 C 6.06 g/m*3 5.9 C 3.2 km/h
3193 24-02-2020 02:00:00 5.8 C 6.02 g/m*3 5.8 C 3.2 km/h
3194 24-02-2020 02:05:00 5.8 C 6.02 g/m*3 5.8 C 3.2 km/h
3195 24-02-2020 02:10:00 5.7 C 5.98 g/m*3 5.7 C 3.2 km/h
3196 24-02-2020 02:15:00 5.6 C 5.94 g/m*3 5.6 C 1.6 km/h
3197 24-02-2020 02:20:00 5.4 C 5.93 g/m*3 5.4 C 0 km/h
3198 24-02-2020 02:25:00 5.3 C 5.89 g/m*3 5.3 C 0 km/h
3199 24-02-2020 02:30:00 5.1 C 5.88 g/m*3 5.1 C 0 km/h
3200 24-02-2020 02:35:00 4.9 C 5.81 g/m*3 4.9 C 0 km/h
Sensor: Nr:Datum:Temp:Abs-Feuchte:Windchill:Wind:
Aussen-T/F 3201 24-02-2020 02:40:00 4.8 C 5.83 g/m*3 4.8 C 4.8 km/h
3202 24-02-2020 02:45:00 4.8 C 5.83 g/m*3 4.8 C 0 km/h
3203 24-02-2020 02:50:00 4.7 C 5.86 g/m*3 4.7 C 1.6 km/h
3204 24-02-2020 02:55:00 4.7 C 5.86 g/m*3 4.7 C 3.2 km/h
3205 24-02-2020 03:00:00 4.7 C 5.86 g/m*3 4.7 C 3.2 km/h
3206 24-02-2020 03:05:00 4.8 C 5.9 g/m*3 4.8 C 1.6 km/h
3207 24-02-2020 03:10:00 4.9 C 5.94 g/m*3 4.9 C 3.2 km/h
3208 24-02-2020 03:15:00 5.1 C 5.88 g/m*3 3.23 C 8.1 km/h
3209 24-02-2020 03:20:00 5.3 C 5.96 g/m*3 5.3 C 1.6 km/h
3210 24-02-2020 03:25:00 5.4 C 6 g/m*3 5.4 C 0 km/h
3211 24-02-2020 03:30:00 5.4 C 6 g/m*3 5.4 C 0 km/h
3212 24-02-2020 03:35:00 5.4 C 6 g/m*3 5.4 C 0 km/h
3213 24-02-2020 03:40:00 5.3 C 5.89 g/m*3 5.3 C 0 km/h
3214 24-02-2020 03:45:00 5.3 C 5.89 g/m*3 5.3 C 3.2 km/h
3215 24-02-2020 03:50:00 5.3 C 5.89 g/m*3 5.3 C 1.6 km/h
3216 24-02-2020 03:55:00 5.2 C 5.85 g/m*3 5.2 C 0 km/h
3217 24-02-2020 04:00:00 5.2 C 5.85 g/m*3 5.2 C 1.6 km/h
3218 24-02-2020 04:05:00 5.2 C 5.85 g/m*3 5.2 C 0 km/h
3219 24-02-2020 04:10:00